<?xml version="1.0" encoding="UTF-8" standalone="no" ?>
<gpx xmlns="http://www.topografix.com/GPX/1/1" xmlns:xsi="http://www.w3.org/2001/XMLSchema-instance" xsi:schemaLocation="http://www.topografix.com/GPX/1/1 http://www.topografix.com/GPX/1/1/gpx.xsd" version="1.1" creator="VisuGPX - https://www.visugpx.com">
  <metadata>
    <name>trail bâtons des GR</name>
    <desc><![CDATA[sortrie trail bâtons des GR du 23/12/11]]></desc>
  </metadata>
  <trk>
    <name><![CDATA[2011-12-23T18:11:40Z]]></name>
    <trkseg>
      <trkpt lat="45.83466" lon="4.82368">
        <ele>253</ele>
        <time>2011-12-23T18:11:40Z</time>
      </trkpt>
      <trkpt lat="45.83468" lon="4.82366">
        <ele>253</ele>
        <time>2011-12-23T18:12:38Z</time>
      </trkpt>
      <trkpt lat="45.83476" lon="4.82367">
        <ele>252</ele>
        <time>2011-12-23T18:12:43Z</time>
      </trkpt>
      <trkpt lat="45.8348" lon="4.82368">
        <ele>251</ele>
        <time>2011-12-23T18:12:45Z</time>
      </trkpt>
      <trkpt lat="45.83489" lon="4.82368">
        <ele>250</ele>
        <time>2011-12-23T18:12:49Z</time>
      </trkpt>
      <trkpt lat="45.83498" lon="4.82369">
        <ele>249</ele>
        <time>2011-12-23T18:12:53Z</time>
      </trkpt>
      <trkpt lat="45.83503" lon="4.82369">
        <ele>237</ele>
        <time>2011-12-23T18:12:55Z</time>
      </trkpt>
      <trkpt lat="45.83518" lon="4.82371">
        <ele>236</ele>
        <time>2011-12-23T18:13:01Z</time>
      </trkpt>
      <trkpt lat="45.83526" lon="4.82374">
        <ele>235</ele>
        <time>2011-12-23T18:13:04Z</time>
      </trkpt>
      <trkpt lat="45.83532" lon="4.82386">
        <ele>234</ele>
        <time>2011-12-23T18:13:08Z</time>
      </trkpt>
      <trkpt lat="45.83534" lon="4.82407">
        <ele>234</ele>
        <time>2011-12-23T18:13:13Z</time>
      </trkpt>
      <trkpt lat="45.83535" lon="4.82416">
        <ele>234</ele>
        <time>2011-12-23T18:13:15Z</time>
      </trkpt>
      <trkpt lat="45.83536" lon="4.82433">
        <ele>233</ele>
        <time>2011-12-23T18:13:19Z</time>
      </trkpt>
      <trkpt lat="45.83537" lon="4.82442">
        <ele>233</ele>
        <time>2011-12-23T18:13:21Z</time>
      </trkpt>
      <trkpt lat="45.83538" lon="4.82454">
        <ele>233</ele>
        <time>2011-12-23T18:13:24Z</time>
      </trkpt>
      <trkpt lat="45.83539" lon="4.8247">
        <ele>233</ele>
        <time>2011-12-23T18:13:28Z</time>
      </trkpt>
      <trkpt lat="45.8354" lon="4.82477">
        <ele>232</ele>
        <time>2011-12-23T18:13:30Z</time>
      </trkpt>
      <trkpt lat="45.83542" lon="4.82495">
        <ele>232</ele>
        <time>2011-12-23T18:13:35Z</time>
      </trkpt>
      <trkpt lat="45.83542" lon="4.82499">
        <ele>232</ele>
        <time>2011-12-23T18:13:36Z</time>
      </trkpt>
      <trkpt lat="45.83544" lon="4.82509">
        <ele>232</ele>
        <time>2011-12-23T18:13:40Z</time>
      </trkpt>
      <trkpt lat="45.83544" lon="4.8251">
        <ele>231</ele>
        <time>2011-12-23T18:13:41Z</time>
      </trkpt>
      <trkpt lat="45.83548" lon="4.82513">
        <ele>231</ele>
        <time>2011-12-23T18:13:44Z</time>
      </trkpt>
      <trkpt lat="45.83552" lon="4.82516">
        <ele>231</ele>
        <time>2011-12-23T18:13:46Z</time>
      </trkpt>
      <trkpt lat="45.83562" lon="4.82519">
        <ele>230</ele>
        <time>2011-12-23T18:13:50Z</time>
      </trkpt>
      <trkpt lat="45.8357" lon="4.82523">
        <ele>229</ele>
        <time>2011-12-23T18:13:53Z</time>
      </trkpt>
      <trkpt lat="45.83579" lon="4.82526">
        <ele>229</ele>
        <time>2011-12-23T18:13:57Z</time>
      </trkpt>
      <trkpt lat="45.83584" lon="4.82529">
        <ele>220</ele>
        <time>2011-12-23T18:14:00Z</time>
      </trkpt>
      <trkpt lat="45.8359" lon="4.82526">
        <ele>220</ele>
        <time>2011-12-23T18:14:02Z</time>
      </trkpt>
      <trkpt lat="45.83595" lon="4.82512">
        <ele>220</ele>
        <time>2011-12-23T18:14:06Z</time>
      </trkpt>
      <trkpt lat="45.83598" lon="4.82501">
        <ele>221</ele>
        <time>2011-12-23T18:14:09Z</time>
      </trkpt>
      <trkpt lat="45.83598" lon="4.82489">
        <ele>220</ele>
        <time>2011-12-23T18:14:12Z</time>
      </trkpt>
      <trkpt lat="45.83599" lon="4.82473">
        <ele>219</ele>
        <time>2011-12-23T18:14:16Z</time>
      </trkpt>
      <trkpt lat="45.83599" lon="4.82466">
        <ele>219</ele>
        <time>2011-12-23T18:14:18Z</time>
      </trkpt>
      <trkpt lat="45.83601" lon="4.8245">
        <ele>219</ele>
        <time>2011-12-23T18:14:22Z</time>
      </trkpt>
      <trkpt lat="45.83601" lon="4.82446">
        <ele>219</ele>
        <time>2011-12-23T18:14:23Z</time>
      </trkpt>
      <trkpt lat="45.83601" lon="4.82442">
        <ele>219</ele>
        <time>2011-12-23T18:14:24Z</time>
      </trkpt>
      <trkpt lat="45.83603" lon="4.82419">
        <ele>220</ele>
        <time>2011-12-23T18:14:30Z</time>
      </trkpt>
      <trkpt lat="45.83604" lon="4.82395">
        <ele>219</ele>
        <time>2011-12-23T18:14:36Z</time>
      </trkpt>
      <trkpt lat="45.83605" lon="4.82392">
        <ele>219</ele>
        <time>2011-12-23T18:14:37Z</time>
      </trkpt>
      <trkpt lat="45.83608" lon="4.82374">
        <ele>218</ele>
        <time>2011-12-23T18:14:42Z</time>
      </trkpt>
      <trkpt lat="45.83609" lon="4.82366">
        <ele>218</ele>
        <time>2011-12-23T18:14:44Z</time>
      </trkpt>
      <trkpt lat="45.83612" lon="4.82353">
        <ele>218</ele>
        <time>2011-12-23T18:14:48Z</time>
      </trkpt>
      <trkpt lat="45.83612" lon="4.82352">
        <ele>218</ele>
        <time>2011-12-23T18:14:49Z</time>
      </trkpt>
      <trkpt lat="45.83615" lon="4.82348">
        <ele>218</ele>
        <time>2011-12-23T18:14:53Z</time>
      </trkpt>
      <trkpt lat="45.83618" lon="4.82345">
        <ele>217</ele>
        <time>2011-12-23T18:14:55Z</time>
      </trkpt>
      <trkpt lat="45.83622" lon="4.82344">
        <ele>217</ele>
        <time>2011-12-23T18:14:57Z</time>
      </trkpt>
      <trkpt lat="45.83625" lon="4.82343">
        <ele>216</ele>
        <time>2011-12-23T18:15:02Z</time>
      </trkpt>
      <trkpt lat="45.83626" lon="4.82341">
        <ele>216</ele>
        <time>2011-12-23T18:15:04Z</time>
      </trkpt>
      <trkpt lat="45.83635" lon="4.82332">
        <ele>214</ele>
        <time>2011-12-23T18:15:10Z</time>
      </trkpt>
      <trkpt lat="45.83645" lon="4.8232">
        <ele>213</ele>
        <time>2011-12-23T18:15:16Z</time>
      </trkpt>
      <trkpt lat="45.8365" lon="4.82314">
        <ele>212</ele>
        <time>2011-12-23T18:15:19Z</time>
      </trkpt>
      <trkpt lat="45.83653" lon="4.8231">
        <ele>212</ele>
        <time>2011-12-23T18:15:21Z</time>
      </trkpt>
      <trkpt lat="45.83666" lon="4.82305">
        <ele>212</ele>
        <time>2011-12-23T18:15:28Z</time>
      </trkpt>
      <trkpt lat="45.83666" lon="4.82299">
        <ele>212</ele>
        <time>2011-12-23T18:15:31Z</time>
      </trkpt>
      <trkpt lat="45.83671" lon="4.82299">
        <ele>209</ele>
        <time>2011-12-23T18:15:34Z</time>
      </trkpt>
      <trkpt lat="45.83677" lon="4.82301">
        <ele>208</ele>
        <time>2011-12-23T18:15:38Z</time>
      </trkpt>
      <trkpt lat="45.8368" lon="4.82302">
        <ele>208</ele>
        <time>2011-12-23T18:15:40Z</time>
      </trkpt>
      <trkpt lat="45.83689" lon="4.82306">
        <ele>208</ele>
        <time>2011-12-23T18:15:44Z</time>
      </trkpt>
      <trkpt lat="45.83695" lon="4.82307">
        <ele>208</ele>
        <time>2011-12-23T18:15:47Z</time>
      </trkpt>
      <trkpt lat="45.83699" lon="4.82307">
        <ele>208</ele>
        <time>2011-12-23T18:15:49Z</time>
      </trkpt>
      <trkpt lat="45.83712" lon="4.82305">
        <ele>208</ele>
        <time>2011-12-23T18:15:54Z</time>
      </trkpt>
      <trkpt lat="45.83715" lon="4.82303">
        <ele>208</ele>
        <time>2011-12-23T18:15:55Z</time>
      </trkpt>
      <trkpt lat="45.83726" lon="4.82295">
        <ele>208</ele>
        <time>2011-12-23T18:16:00Z</time>
      </trkpt>
      <trkpt lat="45.83733" lon="4.82291">
        <ele>208</ele>
        <time>2011-12-23T18:16:03Z</time>
      </trkpt>
      <trkpt lat="45.8374" lon="4.82287">
        <ele>208</ele>
        <time>2011-12-23T18:16:06Z</time>
      </trkpt>
      <trkpt lat="45.83752" lon="4.82283">
        <ele>208</ele>
        <time>2011-12-23T18:16:11Z</time>
      </trkpt>
      <trkpt lat="45.83765" lon="4.82276">
        <ele>208</ele>
        <time>2011-12-23T18:16:17Z</time>
      </trkpt>
      <trkpt lat="45.83769" lon="4.82272">
        <ele>208</ele>
        <time>2011-12-23T18:16:19Z</time>
      </trkpt>
      <trkpt lat="45.83776" lon="4.82263">
        <ele>208</ele>
        <time>2011-12-23T18:16:23Z</time>
      </trkpt>
      <trkpt lat="45.83785" lon="4.82257">
        <ele>208</ele>
        <time>2011-12-23T18:16:27Z</time>
      </trkpt>
      <trkpt lat="45.83787" lon="4.82256">
        <ele>208</ele>
        <time>2011-12-23T18:16:28Z</time>
      </trkpt>
      <trkpt lat="45.838" lon="4.82248">
        <ele>213</ele>
        <time>2011-12-23T18:16:35Z</time>
      </trkpt>
      <trkpt lat="45.83802" lon="4.82247">
        <ele>213</ele>
        <time>2011-12-23T18:16:36Z</time>
      </trkpt>
      <trkpt lat="45.83816" lon="4.82235">
        <ele>213</ele>
        <time>2011-12-23T18:16:42Z</time>
      </trkpt>
      <trkpt lat="45.83819" lon="4.82232">
        <ele>213</ele>
        <time>2011-12-23T18:16:44Z</time>
      </trkpt>
      <trkpt lat="45.83825" lon="4.82227">
        <ele>213</ele>
        <time>2011-12-23T18:16:47Z</time>
      </trkpt>
      <trkpt lat="45.83837" lon="4.82217">
        <ele>215</ele>
        <time>2011-12-23T18:16:52Z</time>
      </trkpt>
      <trkpt lat="45.83845" lon="4.82214">
        <ele>215</ele>
        <time>2011-12-23T18:16:56Z</time>
      </trkpt>
      <trkpt lat="45.83855" lon="4.82207">
        <ele>216</ele>
        <time>2011-12-23T18:17:01Z</time>
      </trkpt>
      <trkpt lat="45.83856" lon="4.82205">
        <ele>216</ele>
        <time>2011-12-23T18:17:02Z</time>
      </trkpt>
      <trkpt lat="45.83859" lon="4.82193">
        <ele>216</ele>
        <time>2011-12-23T18:17:06Z</time>
      </trkpt>
      <trkpt lat="45.8386" lon="4.8218">
        <ele>217</ele>
        <time>2011-12-23T18:17:10Z</time>
      </trkpt>
      <trkpt lat="45.83862" lon="4.82174">
        <ele>217</ele>
        <time>2011-12-23T18:17:12Z</time>
      </trkpt>
      <trkpt lat="45.83864" lon="4.82158">
        <ele>220</ele>
        <time>2011-12-23T18:17:17Z</time>
      </trkpt>
      <trkpt lat="45.83864" lon="4.82154">
        <ele>220</ele>
        <time>2011-12-23T18:17:18Z</time>
      </trkpt>
      <trkpt lat="45.83866" lon="4.82141">
        <ele>220</ele>
        <time>2011-12-23T18:17:22Z</time>
      </trkpt>
      <trkpt lat="45.83866" lon="4.82129">
        <ele>221</ele>
        <time>2011-12-23T18:17:26Z</time>
      </trkpt>
      <trkpt lat="45.83867" lon="4.82125">
        <ele>221</ele>
        <time>2011-12-23T18:17:27Z</time>
      </trkpt>
      <trkpt lat="45.83868" lon="4.8211">
        <ele>221</ele>
        <time>2011-12-23T18:17:32Z</time>
      </trkpt>
      <trkpt lat="45.83869" lon="4.821">
        <ele>221</ele>
        <time>2011-12-23T18:17:35Z</time>
      </trkpt>
      <trkpt lat="45.8387" lon="4.82097">
        <ele>222</ele>
        <time>2011-12-23T18:17:36Z</time>
      </trkpt>
      <trkpt lat="45.8387" lon="4.82077">
        <ele>225</ele>
        <time>2011-12-23T18:17:42Z</time>
      </trkpt>
      <trkpt lat="45.8387" lon="4.82074">
        <ele>225</ele>
        <time>2011-12-23T18:17:43Z</time>
      </trkpt>
      <trkpt lat="45.83872" lon="4.82062">
        <ele>226</ele>
        <time>2011-12-23T18:17:47Z</time>
      </trkpt>
      <trkpt lat="45.83873" lon="4.82047">
        <ele>226</ele>
        <time>2011-12-23T18:17:52Z</time>
      </trkpt>
      <trkpt lat="45.83872" lon="4.82043">
        <ele>226</ele>
        <time>2011-12-23T18:17:53Z</time>
      </trkpt>
      <trkpt lat="45.83874" lon="4.82034">
        <ele>226</ele>
        <time>2011-12-23T18:17:56Z</time>
      </trkpt>
      <trkpt lat="45.83875" lon="4.8203">
        <ele>227</ele>
        <time>2011-12-23T18:17:57Z</time>
      </trkpt>
      <trkpt lat="45.83875" lon="4.82021">
        <ele>227</ele>
        <time>2011-12-23T18:18:00Z</time>
      </trkpt>
      <trkpt lat="45.83874" lon="4.82013">
        <ele>227</ele>
        <time>2011-12-23T18:18:03Z</time>
      </trkpt>
      <trkpt lat="45.83872" lon="4.81996">
        <ele>231</ele>
        <time>2011-12-23T18:18:10Z</time>
      </trkpt>
      <trkpt lat="45.83871" lon="4.81993">
        <ele>231</ele>
        <time>2011-12-23T18:18:11Z</time>
      </trkpt>
      <trkpt lat="45.83868" lon="4.81983">
        <ele>231</ele>
        <time>2011-12-23T18:18:15Z</time>
      </trkpt>
      <trkpt lat="45.83866" lon="4.8197">
        <ele>232</ele>
        <time>2011-12-23T18:18:20Z</time>
      </trkpt>
      <trkpt lat="45.83865" lon="4.81967">
        <ele>232</ele>
        <time>2011-12-23T18:18:21Z</time>
      </trkpt>
      <trkpt lat="45.83865" lon="4.81954">
        <ele>233</ele>
        <time>2011-12-23T18:18:26Z</time>
      </trkpt>
      <trkpt lat="45.83865" lon="4.81939">
        <ele>233</ele>
        <time>2011-12-23T18:18:31Z</time>
      </trkpt>
      <trkpt lat="45.83863" lon="4.81917">
        <ele>234</ele>
        <time>2011-12-23T18:18:38Z</time>
      </trkpt>
      <trkpt lat="45.83863" lon="4.81912">
        <ele>238</ele>
        <time>2011-12-23T18:18:40Z</time>
      </trkpt>
      <trkpt lat="45.83862" lon="4.81903">
        <ele>238</ele>
        <time>2011-12-23T18:18:43Z</time>
      </trkpt>
      <trkpt lat="45.83859" lon="4.81886">
        <ele>238</ele>
        <time>2011-12-23T18:18:49Z</time>
      </trkpt>
      <trkpt lat="45.83859" lon="4.81877">
        <ele>239</ele>
        <time>2011-12-23T18:18:54Z</time>
      </trkpt>
      <trkpt lat="45.83858" lon="4.81866">
        <ele>239</ele>
        <time>2011-12-23T18:19:03Z</time>
      </trkpt>
      <trkpt lat="45.83858" lon="4.8186">
        <ele>239</ele>
        <time>2011-12-23T18:19:09Z</time>
      </trkpt>
      <trkpt lat="45.83858" lon="4.81859">
        <ele>239</ele>
        <time>2011-12-23T18:19:10Z</time>
      </trkpt>
      <trkpt lat="45.83855" lon="4.8185">
        <ele>240</ele>
        <time>2011-12-23T18:19:17Z</time>
      </trkpt>
      <trkpt lat="45.83853" lon="4.81844">
        <ele>240</ele>
        <time>2011-12-23T18:19:22Z</time>
      </trkpt>
      <trkpt lat="45.83853" lon="4.8184">
        <ele>240</ele>
        <time>2011-12-23T18:19:26Z</time>
      </trkpt>
      <trkpt lat="45.83852" lon="4.81839">
        <ele>240</ele>
        <time>2011-12-23T18:19:28Z</time>
      </trkpt>
      <trkpt lat="45.8385" lon="4.81837">
        <ele>240</ele>
        <time>2011-12-23T18:19:32Z</time>
      </trkpt>
      <trkpt lat="45.83849" lon="4.81836">
        <ele>240</ele>
        <time>2011-12-23T18:19:34Z</time>
      </trkpt>
      <trkpt lat="45.83846" lon="4.81834">
        <ele>240</ele>
        <time>2011-12-23T18:19:40Z</time>
      </trkpt>
      <trkpt lat="45.83848" lon="4.81838">
        <ele>240</ele>
        <time>2011-12-23T18:19:46Z</time>
      </trkpt>
      <trkpt lat="45.8385" lon="4.81841">
        <ele>240</ele>
        <time>2011-12-23T18:19:54Z</time>
      </trkpt>
      <trkpt lat="45.83849" lon="4.81845">
        <ele>240</ele>
        <time>2011-12-23T18:21:12Z</time>
      </trkpt>
      <trkpt lat="45.83848" lon="4.81841">
        <ele>240</ele>
        <time>2011-12-23T18:22:16Z</time>
      </trkpt>
      <trkpt lat="45.83845" lon="4.81831">
        <ele>242</ele>
        <time>2011-12-23T18:22:22Z</time>
      </trkpt>
      <trkpt lat="45.83842" lon="4.81823">
        <ele>243</ele>
        <time>2011-12-23T18:22:26Z</time>
      </trkpt>
      <trkpt lat="45.8384" lon="4.81819">
        <ele>243</ele>
        <time>2011-12-23T18:22:28Z</time>
      </trkpt>
      <trkpt lat="45.83838" lon="4.81806">
        <ele>244</ele>
        <time>2011-12-23T18:22:34Z</time>
      </trkpt>
      <trkpt lat="45.83837" lon="4.81798">
        <ele>245</ele>
        <time>2011-12-23T18:22:38Z</time>
      </trkpt>
      <trkpt lat="45.83836" lon="4.81792">
        <ele>245</ele>
        <time>2011-12-23T18:22:41Z</time>
      </trkpt>
      <trkpt lat="45.83834" lon="4.81779">
        <ele>246</ele>
        <time>2011-12-23T18:22:48Z</time>
      </trkpt>
      <trkpt lat="45.83832" lon="4.81771">
        <ele>250</ele>
        <time>2011-12-23T18:22:52Z</time>
      </trkpt>
      <trkpt lat="45.83831" lon="4.81766">
        <ele>250</ele>
        <time>2011-12-23T18:22:55Z</time>
      </trkpt>
      <trkpt lat="45.83828" lon="4.81749">
        <ele>252</ele>
        <time>2011-12-23T18:23:03Z</time>
      </trkpt>
      <trkpt lat="45.83827" lon="4.81747">
        <ele>253</ele>
        <time>2011-12-23T18:23:04Z</time>
      </trkpt>
      <trkpt lat="45.83827" lon="4.81745">
        <ele>254</ele>
        <time>2011-12-23T18:23:05Z</time>
      </trkpt>
      <trkpt lat="45.83826" lon="4.8174">
        <ele>255</ele>
        <time>2011-12-23T18:23:07Z</time>
      </trkpt>
      <trkpt lat="45.83826" lon="4.81735">
        <ele>257</ele>
        <time>2011-12-23T18:23:10Z</time>
      </trkpt>
      <trkpt lat="45.83824" lon="4.81731">
        <ele>258</ele>
        <time>2011-12-23T18:23:16Z</time>
      </trkpt>
      <trkpt lat="45.83821" lon="4.81722">
        <ele>261</ele>
        <time>2011-12-23T18:23:22Z</time>
      </trkpt>
      <trkpt lat="45.83821" lon="4.8172">
        <ele>261</ele>
        <time>2011-12-23T18:23:23Z</time>
      </trkpt>
      <trkpt lat="45.83818" lon="4.81707">
        <ele>263</ele>
        <time>2011-12-23T18:23:30Z</time>
      </trkpt>
      <trkpt lat="45.83817" lon="4.81705">
        <ele>263</ele>
        <time>2011-12-23T18:23:31Z</time>
      </trkpt>
      <trkpt lat="45.83813" lon="4.81698">
        <ele>264</ele>
        <time>2011-12-23T18:23:36Z</time>
      </trkpt>
      <trkpt lat="45.83812" lon="4.81696">
        <ele>264</ele>
        <time>2011-12-23T18:23:37Z</time>
      </trkpt>
      <trkpt lat="45.8381" lon="4.81689">
        <ele>265</ele>
        <time>2011-12-23T18:23:40Z</time>
      </trkpt>
      <trkpt lat="45.83809" lon="4.81686">
        <ele>265</ele>
        <time>2011-12-23T18:23:42Z</time>
      </trkpt>
      <trkpt lat="45.83806" lon="4.8168">
        <ele>266</ele>
        <time>2011-12-23T18:23:45Z</time>
      </trkpt>
      <trkpt lat="45.83806" lon="4.81676">
        <ele>266</ele>
        <time>2011-12-23T18:23:47Z</time>
      </trkpt>
      <trkpt lat="45.83803" lon="4.81671">
        <ele>266</ele>
        <time>2011-12-23T18:23:50Z</time>
      </trkpt>
      <trkpt lat="45.83801" lon="4.81666">
        <ele>276</ele>
        <time>2011-12-23T18:23:53Z</time>
      </trkpt>
      <trkpt lat="45.838" lon="4.81661">
        <ele>277</ele>
        <time>2011-12-23T18:23:56Z</time>
      </trkpt>
      <trkpt lat="45.83797" lon="4.81654">
        <ele>278</ele>
        <time>2011-12-23T18:24:00Z</time>
      </trkpt>
      <trkpt lat="45.83794" lon="4.8165">
        <ele>278</ele>
        <time>2011-12-23T18:24:03Z</time>
      </trkpt>
      <trkpt lat="45.83794" lon="4.81648">
        <ele>278</ele>
        <time>2011-12-23T18:24:04Z</time>
      </trkpt>
      <trkpt lat="45.83792" lon="4.81645">
        <ele>279</ele>
        <time>2011-12-23T18:24:06Z</time>
      </trkpt>
      <trkpt lat="45.83792" lon="4.81633">
        <ele>280</ele>
        <time>2011-12-23T18:24:13Z</time>
      </trkpt>
      <trkpt lat="45.83792" lon="4.81631">
        <ele>280</ele>
        <time>2011-12-23T18:24:14Z</time>
      </trkpt>
      <trkpt lat="45.83792" lon="4.81629">
        <ele>280</ele>
        <time>2011-12-23T18:24:15Z</time>
      </trkpt>
      <trkpt lat="45.83791" lon="4.81624">
        <ele>281</ele>
        <time>2011-12-23T18:24:19Z</time>
      </trkpt>
      <trkpt lat="45.8379" lon="4.81622">
        <ele>281</ele>
        <time>2011-12-23T18:24:20Z</time>
      </trkpt>
      <trkpt lat="45.83789" lon="4.8162">
        <ele>281</ele>
        <time>2011-12-23T18:24:21Z</time>
      </trkpt>
      <trkpt lat="45.83788" lon="4.81613">
        <ele>282</ele>
        <time>2011-12-23T18:24:24Z</time>
      </trkpt>
      <trkpt lat="45.83787" lon="4.81601">
        <ele>283</ele>
        <time>2011-12-23T18:24:29Z</time>
      </trkpt>
      <trkpt lat="45.83787" lon="4.81596">
        <ele>284</ele>
        <time>2011-12-23T18:24:31Z</time>
      </trkpt>
      <trkpt lat="45.83788" lon="4.81592">
        <ele>284</ele>
        <time>2011-12-23T18:24:33Z</time>
      </trkpt>
      <trkpt lat="45.83786" lon="4.81582">
        <ele>293</ele>
        <time>2011-12-23T18:24:37Z</time>
      </trkpt>
      <trkpt lat="45.83784" lon="4.81572">
        <ele>293</ele>
        <time>2011-12-23T18:24:42Z</time>
      </trkpt>
      <trkpt lat="45.83784" lon="4.8157">
        <ele>293</ele>
        <time>2011-12-23T18:24:43Z</time>
      </trkpt>
      <trkpt lat="45.83785" lon="4.8156">
        <ele>293</ele>
        <time>2011-12-23T18:24:48Z</time>
      </trkpt>
      <trkpt lat="45.83785" lon="4.81552">
        <ele>294</ele>
        <time>2011-12-23T18:24:52Z</time>
      </trkpt>
      <trkpt lat="45.83785" lon="4.81547">
        <ele>294</ele>
        <time>2011-12-23T18:24:54Z</time>
      </trkpt>
      <trkpt lat="45.83784" lon="4.81543">
        <ele>294</ele>
        <time>2011-12-23T18:24:56Z</time>
      </trkpt>
      <trkpt lat="45.83784" lon="4.81541">
        <ele>295</ele>
        <time>2011-12-23T18:24:57Z</time>
      </trkpt>
      <trkpt lat="45.83784" lon="4.81537">
        <ele>295</ele>
        <time>2011-12-23T18:24:59Z</time>
      </trkpt>
      <trkpt lat="45.83784" lon="4.81528">
        <ele>296</ele>
        <time>2011-12-23T18:25:04Z</time>
      </trkpt>
      <trkpt lat="45.83783" lon="4.81526">
        <ele>296</ele>
        <time>2011-12-23T18:25:05Z</time>
      </trkpt>
      <trkpt lat="45.83783" lon="4.81516">
        <ele>296</ele>
        <time>2011-12-23T18:25:10Z</time>
      </trkpt>
      <trkpt lat="45.83783" lon="4.81515">
        <ele>296</ele>
        <time>2011-12-23T18:25:11Z</time>
      </trkpt>
      <trkpt lat="45.83782" lon="4.81504">
        <ele>297</ele>
        <time>2011-12-23T18:25:18Z</time>
      </trkpt>
      <trkpt lat="45.83784" lon="4.81497">
        <ele>305</ele>
        <time>2011-12-23T18:25:25Z</time>
      </trkpt>
      <trkpt lat="45.83784" lon="4.81497">
        <ele>305</ele>
        <time>2011-12-23T18:25:26Z</time>
      </trkpt>
      <trkpt lat="45.83788" lon="4.81498">
        <ele>305</ele>
        <time>2011-12-23T18:25:31Z</time>
      </trkpt>
      <trkpt lat="45.83792" lon="4.81499">
        <ele>305</ele>
        <time>2011-12-23T18:25:36Z</time>
      </trkpt>
      <trkpt lat="45.83795" lon="4.81501">
        <ele>296</ele>
        <time>2011-12-23T18:25:40Z</time>
      </trkpt>
      <trkpt lat="45.83801" lon="4.81501">
        <ele>295</ele>
        <time>2011-12-23T18:25:45Z</time>
      </trkpt>
      <trkpt lat="45.83802" lon="4.815">
        <ele>303</ele>
        <time>2011-12-23T18:25:47Z</time>
      </trkpt>
      <trkpt lat="45.83806" lon="4.81497">
        <ele>303</ele>
        <time>2011-12-23T18:25:50Z</time>
      </trkpt>
      <trkpt lat="45.83807" lon="4.81496">
        <ele>303</ele>
        <time>2011-12-23T18:25:52Z</time>
      </trkpt>
      <trkpt lat="45.83808" lon="4.81495">
        <ele>303</ele>
        <time>2011-12-23T18:25:54Z</time>
      </trkpt>
      <trkpt lat="45.83812" lon="4.81492">
        <ele>302</ele>
        <time>2011-12-23T18:25:58Z</time>
      </trkpt>
      <trkpt lat="45.83815" lon="4.81489">
        <ele>302</ele>
        <time>2011-12-23T18:26:07Z</time>
      </trkpt>
      <trkpt lat="45.83817" lon="4.81487">
        <ele>302</ele>
        <time>2011-12-23T18:26:09Z</time>
      </trkpt>
      <trkpt lat="45.83821" lon="4.81484">
        <ele>302</ele>
        <time>2011-12-23T18:26:13Z</time>
      </trkpt>
      <trkpt lat="45.83822" lon="4.81483">
        <ele>302</ele>
        <time>2011-12-23T18:26:14Z</time>
      </trkpt>
      <trkpt lat="45.83828" lon="4.81478">
        <ele>302</ele>
        <time>2011-12-23T18:26:20Z</time>
      </trkpt>
      <trkpt lat="45.83833" lon="4.81471">
        <ele>305</ele>
        <time>2011-12-23T18:26:26Z</time>
      </trkpt>
      <trkpt lat="45.83835" lon="4.8147">
        <ele>305</ele>
        <time>2011-12-23T18:26:27Z</time>
      </trkpt>
      <trkpt lat="45.83837" lon="4.81468">
        <ele>306</ele>
        <time>2011-12-23T18:26:30Z</time>
      </trkpt>
      <trkpt lat="45.83837" lon="4.81468">
        <ele>306</ele>
        <time>2011-12-23T18:26:31Z</time>
      </trkpt>
      <trkpt lat="45.83843" lon="4.81463">
        <ele>307</ele>
        <time>2011-12-23T18:26:37Z</time>
      </trkpt>
      <trkpt lat="45.8385" lon="4.81458">
        <ele>308</ele>
        <time>2011-12-23T18:26:44Z</time>
      </trkpt>
      <trkpt lat="45.83853" lon="4.81457">
        <ele>309</ele>
        <time>2011-12-23T18:26:47Z</time>
      </trkpt>
      <trkpt lat="45.83854" lon="4.81456">
        <ele>309</ele>
        <time>2011-12-23T18:26:48Z</time>
      </trkpt>
      <trkpt lat="45.83856" lon="4.81455">
        <ele>309</ele>
        <time>2011-12-23T18:26:50Z</time>
      </trkpt>
      <trkpt lat="45.83859" lon="4.81454">
        <ele>310</ele>
        <time>2011-12-23T18:26:53Z</time>
      </trkpt>
      <trkpt lat="45.83864" lon="4.81453">
        <ele>310</ele>
        <time>2011-12-23T18:26:57Z</time>
      </trkpt>
      <trkpt lat="45.83871" lon="4.81452">
        <ele>311</ele>
        <time>2011-12-23T18:27:04Z</time>
      </trkpt>
      <trkpt lat="45.83878" lon="4.81452">
        <ele>311</ele>
        <time>2011-12-23T18:27:11Z</time>
      </trkpt>
      <trkpt lat="45.83884" lon="4.81447">
        <ele>313</ele>
        <time>2011-12-23T18:27:17Z</time>
      </trkpt>
      <trkpt lat="45.83887" lon="4.81441">
        <ele>314</ele>
        <time>2011-12-23T18:27:22Z</time>
      </trkpt>
      <trkpt lat="45.83888" lon="4.8144">
        <ele>314</ele>
        <time>2011-12-23T18:27:23Z</time>
      </trkpt>
      <trkpt lat="45.83889" lon="4.81435">
        <ele>315</ele>
        <time>2011-12-23T18:27:27Z</time>
      </trkpt>
      <trkpt lat="45.83891" lon="4.81432">
        <ele>316</ele>
        <time>2011-12-23T18:27:30Z</time>
      </trkpt>
      <trkpt lat="45.83891" lon="4.81431">
        <ele>316</ele>
        <time>2011-12-23T18:27:31Z</time>
      </trkpt>
      <trkpt lat="45.83889" lon="4.81426">
        <ele>316</ele>
        <time>2011-12-23T18:27:37Z</time>
      </trkpt>
      <trkpt lat="45.83885" lon="4.81423">
        <ele>316</ele>
        <time>2011-12-23T18:27:42Z</time>
      </trkpt>
      <trkpt lat="45.83884" lon="4.81422">
        <ele>316</ele>
        <time>2011-12-23T18:27:43Z</time>
      </trkpt>
      <trkpt lat="45.83883" lon="4.81419">
        <ele>316</ele>
        <time>2011-12-23T18:27:45Z</time>
      </trkpt>
      <trkpt lat="45.83882" lon="4.81415">
        <ele>330</ele>
        <time>2011-12-23T18:27:48Z</time>
      </trkpt>
      <trkpt lat="45.83883" lon="4.81414">
        <ele>331</ele>
        <time>2011-12-23T18:27:49Z</time>
      </trkpt>
      <trkpt lat="45.83884" lon="4.81407">
        <ele>331</ele>
        <time>2011-12-23T18:27:54Z</time>
      </trkpt>
      <trkpt lat="45.83888" lon="4.81402">
        <ele>332</ele>
        <time>2011-12-23T18:28:02Z</time>
      </trkpt>
      <trkpt lat="45.8389" lon="4.814">
        <ele>332</ele>
        <time>2011-12-23T18:28:04Z</time>
      </trkpt>
      <trkpt lat="45.83891" lon="4.81399">
        <ele>333</ele>
        <time>2011-12-23T18:28:06Z</time>
      </trkpt>
      <trkpt lat="45.83894" lon="4.81396">
        <ele>333</ele>
        <time>2011-12-23T18:28:11Z</time>
      </trkpt>
      <trkpt lat="45.83895" lon="4.81395">
        <ele>333</ele>
        <time>2011-12-23T18:28:12Z</time>
      </trkpt>
      <trkpt lat="45.83898" lon="4.81392">
        <ele>334</ele>
        <time>2011-12-23T18:28:16Z</time>
      </trkpt>
      <trkpt lat="45.83899" lon="4.81391">
        <ele>334</ele>
        <time>2011-12-23T18:28:18Z</time>
      </trkpt>
      <trkpt lat="45.83902" lon="4.8139">
        <ele>335</ele>
        <time>2011-12-23T18:28:22Z</time>
      </trkpt>
      <trkpt lat="45.83906" lon="4.81388">
        <ele>335</ele>
        <time>2011-12-23T18:28:27Z</time>
      </trkpt>
      <trkpt lat="45.83911" lon="4.81384">
        <ele>336</ele>
        <time>2011-12-23T18:28:33Z</time>
      </trkpt>
      <trkpt lat="45.83916" lon="4.81383">
        <ele>337</ele>
        <time>2011-12-23T18:28:40Z</time>
      </trkpt>
      <trkpt lat="45.83917" lon="4.81383">
        <ele>337</ele>
        <time>2011-12-23T18:28:41Z</time>
      </trkpt>
      <trkpt lat="45.83921" lon="4.8138">
        <ele>354</ele>
        <time>2011-12-23T18:28:46Z</time>
      </trkpt>
      <trkpt lat="45.83923" lon="4.81379">
        <ele>354</ele>
        <time>2011-12-23T18:28:47Z</time>
      </trkpt>
      <trkpt lat="45.83926" lon="4.81379">
        <ele>354</ele>
        <time>2011-12-23T18:28:51Z</time>
      </trkpt>
      <trkpt lat="45.83927" lon="4.81378">
        <ele>355</ele>
        <time>2011-12-23T18:28:52Z</time>
      </trkpt>
      <trkpt lat="45.83933" lon="4.81383">
        <ele>354</ele>
        <time>2011-12-23T18:28:58Z</time>
      </trkpt>
      <trkpt lat="45.83937" lon="4.81388">
        <ele>353</ele>
        <time>2011-12-23T18:29:03Z</time>
      </trkpt>
      <trkpt lat="45.83944" lon="4.8139">
        <ele>354</ele>
        <time>2011-12-23T18:29:08Z</time>
      </trkpt>
      <trkpt lat="45.83948" lon="4.81395">
        <ele>354</ele>
        <time>2011-12-23T18:29:14Z</time>
      </trkpt>
      <trkpt lat="45.8395" lon="4.81396">
        <ele>354</ele>
        <time>2011-12-23T18:29:16Z</time>
      </trkpt>
      <trkpt lat="45.83951" lon="4.81396">
        <ele>354</ele>
        <time>2011-12-23T18:29:17Z</time>
      </trkpt>
      <trkpt lat="45.83952" lon="4.81397">
        <ele>354</ele>
        <time>2011-12-23T18:29:19Z</time>
      </trkpt>
      <trkpt lat="45.83953" lon="4.81397">
        <ele>354</ele>
        <time>2011-12-23T18:29:20Z</time>
      </trkpt>
      <trkpt lat="45.83957" lon="4.81399">
        <ele>355</ele>
        <time>2011-12-23T18:29:25Z</time>
      </trkpt>
      <trkpt lat="45.83958" lon="4.81401">
        <ele>355</ele>
        <time>2011-12-23T18:29:27Z</time>
      </trkpt>
      <trkpt lat="45.83961" lon="4.81402">
        <ele>355</ele>
        <time>2011-12-23T18:29:29Z</time>
      </trkpt>
      <trkpt lat="45.83965" lon="4.81404">
        <ele>356</ele>
        <time>2011-12-23T18:29:34Z</time>
      </trkpt>
      <trkpt lat="45.8397" lon="4.81404">
        <ele>356</ele>
        <time>2011-12-23T18:29:37Z</time>
      </trkpt>
      <trkpt lat="45.83973" lon="4.81405">
        <ele>356</ele>
        <time>2011-12-23T18:29:39Z</time>
      </trkpt>
      <trkpt lat="45.83976" lon="4.81406">
        <ele>356</ele>
        <time>2011-12-23T18:29:42Z</time>
      </trkpt>
      <trkpt lat="45.83978" lon="4.81407">
        <ele>356</ele>
        <time>2011-12-23T18:29:44Z</time>
      </trkpt>
      <trkpt lat="45.83986" lon="4.81407">
        <ele>356</ele>
        <time>2011-12-23T18:29:51Z</time>
      </trkpt>
      <trkpt lat="45.83988" lon="4.81408">
        <ele>356</ele>
        <time>2011-12-23T18:29:53Z</time>
      </trkpt>
      <trkpt lat="45.83992" lon="4.81409">
        <ele>356</ele>
        <time>2011-12-23T18:29:56Z</time>
      </trkpt>
      <trkpt lat="45.83997" lon="4.8141">
        <ele>355</ele>
        <time>2011-12-23T18:30:02Z</time>
      </trkpt>
      <trkpt lat="45.84002" lon="4.81407">
        <ele>364</ele>
        <time>2011-12-23T18:30:06Z</time>
      </trkpt>
      <trkpt lat="45.84007" lon="4.81404">
        <ele>367</ele>
        <time>2011-12-23T18:30:09Z</time>
      </trkpt>
      <trkpt lat="45.8401" lon="4.81402">
        <ele>370</ele>
        <time>2011-12-23T18:30:12Z</time>
      </trkpt>
      <trkpt lat="45.84014" lon="4.81402">
        <ele>371</ele>
        <time>2011-12-23T18:30:17Z</time>
      </trkpt>
      <trkpt lat="45.84015" lon="4.81403">
        <ele>372</ele>
        <time>2011-12-23T18:30:19Z</time>
      </trkpt>
      <trkpt lat="45.84017" lon="4.81403">
        <ele>372</ele>
        <time>2011-12-23T18:30:21Z</time>
      </trkpt>
      <trkpt lat="45.84018" lon="4.81402">
        <ele>373</ele>
        <time>2011-12-23T18:30:22Z</time>
      </trkpt>
      <trkpt lat="45.84024" lon="4.81401">
        <ele>376</ele>
        <time>2011-12-23T18:30:27Z</time>
      </trkpt>
      <trkpt lat="45.84025" lon="4.81401">
        <ele>376</ele>
        <time>2011-12-23T18:30:28Z</time>
      </trkpt>
      <trkpt lat="45.84031" lon="4.814">
        <ele>378</ele>
        <time>2011-12-23T18:30:33Z</time>
      </trkpt>
      <trkpt lat="45.84036" lon="4.814">
        <ele>379</ele>
        <time>2011-12-23T18:30:37Z</time>
      </trkpt>
      <trkpt lat="45.84038" lon="4.814">
        <ele>380</ele>
        <time>2011-12-23T18:30:39Z</time>
      </trkpt>
      <trkpt lat="45.8404" lon="4.814">
        <ele>380</ele>
        <time>2011-12-23T18:30:40Z</time>
      </trkpt>
      <trkpt lat="45.84043" lon="4.814">
        <ele>381</ele>
        <time>2011-12-23T18:30:42Z</time>
      </trkpt>
      <trkpt lat="45.84047" lon="4.81399">
        <ele>382</ele>
        <time>2011-12-23T18:30:44Z</time>
      </trkpt>
      <trkpt lat="45.84055" lon="4.81399">
        <ele>383</ele>
        <time>2011-12-23T18:30:49Z</time>
      </trkpt>
      <trkpt lat="45.84057" lon="4.81401">
        <ele>383</ele>
        <time>2011-12-23T18:30:51Z</time>
      </trkpt>
      <trkpt lat="45.84058" lon="4.81403">
        <ele>382</ele>
        <time>2011-12-23T18:30:53Z</time>
      </trkpt>
      <trkpt lat="45.8406" lon="4.81403">
        <ele>383</ele>
        <time>2011-12-23T18:30:55Z</time>
      </trkpt>
      <trkpt lat="45.84061" lon="4.81403">
        <ele>383</ele>
        <time>2011-12-23T18:30:56Z</time>
      </trkpt>
      <trkpt lat="45.84064" lon="4.81403">
        <ele>383</ele>
        <time>2011-12-23T18:30:58Z</time>
      </trkpt>
      <trkpt lat="45.8407" lon="4.81404">
        <ele>383</ele>
        <time>2011-12-23T18:31:04Z</time>
      </trkpt>
      <trkpt lat="45.84071" lon="4.81405">
        <ele>383</ele>
        <time>2011-12-23T18:31:05Z</time>
      </trkpt>
      <trkpt lat="45.84074" lon="4.8141">
        <ele>382</ele>
        <time>2011-12-23T18:31:10Z</time>
      </trkpt>
      <trkpt lat="45.84075" lon="4.81412">
        <ele>382</ele>
        <time>2011-12-23T18:31:12Z</time>
      </trkpt>
      <trkpt lat="45.84077" lon="4.81414">
        <ele>381</ele>
        <time>2011-12-23T18:31:14Z</time>
      </trkpt>
      <trkpt lat="45.84078" lon="4.81414">
        <ele>381</ele>
        <time>2011-12-23T18:31:15Z</time>
      </trkpt>
      <trkpt lat="45.84081" lon="4.81416">
        <ele>381</ele>
        <time>2011-12-23T18:31:18Z</time>
      </trkpt>
      <trkpt lat="45.84082" lon="4.81419">
        <ele>377</ele>
        <time>2011-12-23T18:31:20Z</time>
      </trkpt>
      <trkpt lat="45.84089" lon="4.81422">
        <ele>380</ele>
        <time>2011-12-23T18:31:25Z</time>
      </trkpt>
      <trkpt lat="45.84093" lon="4.81423">
        <ele>380</ele>
        <time>2011-12-23T18:31:27Z</time>
      </trkpt>
      <trkpt lat="45.84099" lon="4.81425">
        <ele>381</ele>
        <time>2011-12-23T18:31:30Z</time>
      </trkpt>
      <trkpt lat="45.84101" lon="4.81426">
        <ele>381</ele>
        <time>2011-12-23T18:31:31Z</time>
      </trkpt>
      <trkpt lat="45.84102" lon="4.81427">
        <ele>381</ele>
        <time>2011-12-23T18:31:32Z</time>
      </trkpt>
      <trkpt lat="45.84107" lon="4.81429">
        <ele>381</ele>
        <time>2011-12-23T18:31:36Z</time>
      </trkpt>
      <trkpt lat="45.8411" lon="4.81432">
        <ele>381</ele>
        <time>2011-12-23T18:31:39Z</time>
      </trkpt>
      <trkpt lat="45.84113" lon="4.81435">
        <ele>382</ele>
        <time>2011-12-23T18:31:41Z</time>
      </trkpt>
      <trkpt lat="45.84118" lon="4.81443">
        <ele>381</ele>
        <time>2011-12-23T18:31:46Z</time>
      </trkpt>
      <trkpt lat="45.84123" lon="4.81448">
        <ele>382</ele>
        <time>2011-12-23T18:31:50Z</time>
      </trkpt>
      <trkpt lat="45.84124" lon="4.8145">
        <ele>382</ele>
        <time>2011-12-23T18:31:51Z</time>
      </trkpt>
      <trkpt lat="45.84128" lon="4.81457">
        <ele>382</ele>
        <time>2011-12-23T18:31:56Z</time>
      </trkpt>
      <trkpt lat="45.84129" lon="4.81458">
        <ele>382</ele>
        <time>2011-12-23T18:31:57Z</time>
      </trkpt>
      <trkpt lat="45.84134" lon="4.81461">
        <ele>382</ele>
        <time>2011-12-23T18:32:02Z</time>
      </trkpt>
      <trkpt lat="45.84136" lon="4.81461">
        <ele>382</ele>
        <time>2011-12-23T18:32:03Z</time>
      </trkpt>
      <trkpt lat="45.84139" lon="4.81462">
        <ele>383</ele>
        <time>2011-12-23T18:32:05Z</time>
      </trkpt>
      <trkpt lat="45.84141" lon="4.81464">
        <ele>383</ele>
        <time>2011-12-23T18:32:08Z</time>
      </trkpt>
      <trkpt lat="45.84147" lon="4.81466">
        <ele>384</ele>
        <time>2011-12-23T18:32:13Z</time>
      </trkpt>
      <trkpt lat="45.84154" lon="4.81471">
        <ele>384</ele>
        <time>2011-12-23T18:32:20Z</time>
      </trkpt>
      <trkpt lat="45.84156" lon="4.81472">
        <ele>385</ele>
        <time>2011-12-23T18:32:21Z</time>
      </trkpt>
      <trkpt lat="45.84157" lon="4.81473">
        <ele>385</ele>
        <time>2011-12-23T18:32:23Z</time>
      </trkpt>
      <trkpt lat="45.84162" lon="4.81474">
        <ele>385</ele>
        <time>2011-12-23T18:32:27Z</time>
      </trkpt>
      <trkpt lat="45.8417" lon="4.81475">
        <ele>397</ele>
        <time>2011-12-23T18:32:32Z</time>
      </trkpt>
      <trkpt lat="45.84172" lon="4.81475">
        <ele>397</ele>
        <time>2011-12-23T18:32:34Z</time>
      </trkpt>
      <trkpt lat="45.84173" lon="4.81475">
        <ele>397</ele>
        <time>2011-12-23T18:32:35Z</time>
      </trkpt>
      <trkpt lat="45.84179" lon="4.81471">
        <ele>399</ele>
        <time>2011-12-23T18:32:38Z</time>
      </trkpt>
      <trkpt lat="45.84183" lon="4.81471">
        <ele>399</ele>
        <time>2011-12-23T18:32:40Z</time>
      </trkpt>
      <trkpt lat="45.84186" lon="4.81471">
        <ele>399</ele>
        <time>2011-12-23T18:32:42Z</time>
      </trkpt>
      <trkpt lat="45.84188" lon="4.81471">
        <ele>399</ele>
        <time>2011-12-23T18:32:43Z</time>
      </trkpt>
      <trkpt lat="45.84192" lon="4.81471">
        <ele>400</ele>
        <time>2011-12-23T18:32:45Z</time>
      </trkpt>
      <trkpt lat="45.84198" lon="4.81472">
        <ele>400</ele>
        <time>2011-12-23T18:32:48Z</time>
      </trkpt>
      <trkpt lat="45.84206" lon="4.81469">
        <ele>401</ele>
        <time>2011-12-23T18:32:52Z</time>
      </trkpt>
      <trkpt lat="45.84209" lon="4.81466">
        <ele>401</ele>
        <time>2011-12-23T18:32:54Z</time>
      </trkpt>
      <trkpt lat="45.8421" lon="4.81465">
        <ele>401</ele>
        <time>2011-12-23T18:32:55Z</time>
      </trkpt>
      <trkpt lat="45.84212" lon="4.81464">
        <ele>402</ele>
        <time>2011-12-23T18:32:57Z</time>
      </trkpt>
      <trkpt lat="45.84213" lon="4.81464">
        <ele>402</ele>
        <time>2011-12-23T18:32:59Z</time>
      </trkpt>
      <trkpt lat="45.84208" lon="4.81461">
        <ele>402</ele>
        <time>2011-12-23T18:33:20Z</time>
      </trkpt>
      <trkpt lat="45.84209" lon="4.81458">
        <ele>402</ele>
        <time>2011-12-23T18:34:36Z</time>
      </trkpt>
      <trkpt lat="45.84206" lon="4.81449">
        <ele>402</ele>
        <time>2011-12-23T18:34:40Z</time>
      </trkpt>
      <trkpt lat="45.84205" lon="4.81447">
        <ele>402</ele>
        <time>2011-12-23T18:34:41Z</time>
      </trkpt>
      <trkpt lat="45.84197" lon="4.81439">
        <ele>403</ele>
        <time>2011-12-23T18:34:47Z</time>
      </trkpt>
      <trkpt lat="45.84195" lon="4.81438">
        <ele>403</ele>
        <time>2011-12-23T18:34:48Z</time>
      </trkpt>
      <trkpt lat="45.84191" lon="4.81433">
        <ele>403</ele>
        <time>2011-12-23T18:34:51Z</time>
      </trkpt>
      <trkpt lat="45.8419" lon="4.81432">
        <ele>403</ele>
        <time>2011-12-23T18:34:52Z</time>
      </trkpt>
      <trkpt lat="45.84181" lon="4.81424">
        <ele>403</ele>
        <time>2011-12-23T18:34:57Z</time>
      </trkpt>
      <trkpt lat="45.84173" lon="4.81417">
        <ele>407</ele>
        <time>2011-12-23T18:35:03Z</time>
      </trkpt>
      <trkpt lat="45.84171" lon="4.81414">
        <ele>406</ele>
        <time>2011-12-23T18:35:05Z</time>
      </trkpt>
      <trkpt lat="45.84167" lon="4.81407">
        <ele>407</ele>
        <time>2011-12-23T18:35:08Z</time>
      </trkpt>
      <trkpt lat="45.84163" lon="4.81401">
        <ele>405</ele>
        <time>2011-12-23T18:35:11Z</time>
      </trkpt>
      <trkpt lat="45.84163" lon="4.814">
        <ele>405</ele>
        <time>2011-12-23T18:35:12Z</time>
      </trkpt>
      <trkpt lat="45.84161" lon="4.81398">
        <ele>405</ele>
        <time>2011-12-23T18:35:13Z</time>
      </trkpt>
      <trkpt lat="45.84156" lon="4.81393">
        <ele>405</ele>
        <time>2011-12-23T18:35:16Z</time>
      </trkpt>
      <trkpt lat="45.84155" lon="4.81392">
        <ele>405</ele>
        <time>2011-12-23T18:35:17Z</time>
      </trkpt>
      <trkpt lat="45.84154" lon="4.81391">
        <ele>405</ele>
        <time>2011-12-23T18:35:18Z</time>
      </trkpt>
      <trkpt lat="45.84153" lon="4.81389">
        <ele>405</ele>
        <time>2011-12-23T18:35:19Z</time>
      </trkpt>
      <trkpt lat="45.84152" lon="4.81388">
        <ele>405</ele>
        <time>2011-12-23T18:35:20Z</time>
      </trkpt>
      <trkpt lat="45.84146" lon="4.81378">
        <ele>406</ele>
        <time>2011-12-23T18:35:27Z</time>
      </trkpt>
      <trkpt lat="45.84145" lon="4.81376">
        <ele>406</ele>
        <time>2011-12-23T18:35:28Z</time>
      </trkpt>
      <trkpt lat="45.84141" lon="4.81369">
        <ele>407</ele>
        <time>2011-12-23T18:35:32Z</time>
      </trkpt>
      <trkpt lat="45.84134" lon="4.81359">
        <ele>407</ele>
        <time>2011-12-23T18:35:39Z</time>
      </trkpt>
      <trkpt lat="45.84131" lon="4.81355">
        <ele>408</ele>
        <time>2011-12-23T18:35:42Z</time>
      </trkpt>
      <trkpt lat="45.84129" lon="4.81351">
        <ele>408</ele>
        <time>2011-12-23T18:35:44Z</time>
      </trkpt>
      <trkpt lat="45.84128" lon="4.8135">
        <ele>408</ele>
        <time>2011-12-23T18:35:45Z</time>
      </trkpt>
      <trkpt lat="45.84126" lon="4.81349">
        <ele>408</ele>
        <time>2011-12-23T18:35:46Z</time>
      </trkpt>
      <trkpt lat="45.84122" lon="4.81345">
        <ele>408</ele>
        <time>2011-12-23T18:35:49Z</time>
      </trkpt>
      <trkpt lat="45.84115" lon="4.81339">
        <ele>409</ele>
        <time>2011-12-23T18:35:55Z</time>
      </trkpt>
      <trkpt lat="45.84113" lon="4.81336">
        <ele>409</ele>
        <time>2011-12-23T18:35:57Z</time>
      </trkpt>
      <trkpt lat="45.8411" lon="4.81332">
        <ele>420</ele>
        <time>2011-12-23T18:36:00Z</time>
      </trkpt>
      <trkpt lat="45.84109" lon="4.81331">
        <ele>420</ele>
        <time>2011-12-23T18:36:01Z</time>
      </trkpt>
      <trkpt lat="45.84102" lon="4.81325">
        <ele>420</ele>
        <time>2011-12-23T18:36:06Z</time>
      </trkpt>
      <trkpt lat="45.84101" lon="4.81323">
        <ele>420</ele>
        <time>2011-12-23T18:36:07Z</time>
      </trkpt>
      <trkpt lat="45.84098" lon="4.8132">
        <ele>420</ele>
        <time>2011-12-23T18:36:09Z</time>
      </trkpt>
      <trkpt lat="45.84096" lon="4.81316">
        <ele>420</ele>
        <time>2011-12-23T18:36:11Z</time>
      </trkpt>
      <trkpt lat="45.84087" lon="4.81309">
        <ele>421</ele>
        <time>2011-12-23T18:36:16Z</time>
      </trkpt>
      <trkpt lat="45.84084" lon="4.81304">
        <ele>422</ele>
        <time>2011-12-23T18:36:20Z</time>
      </trkpt>
      <trkpt lat="45.84084" lon="4.81302">
        <ele>422</ele>
        <time>2011-12-23T18:36:21Z</time>
      </trkpt>
      <trkpt lat="45.84084" lon="4.813">
        <ele>422</ele>
        <time>2011-12-23T18:36:22Z</time>
      </trkpt>
      <trkpt lat="45.84084" lon="4.8129">
        <ele>424</ele>
        <time>2011-12-23T18:36:28Z</time>
      </trkpt>
      <trkpt lat="45.84084" lon="4.81288">
        <ele>424</ele>
        <time>2011-12-23T18:36:29Z</time>
      </trkpt>
      <trkpt lat="45.84082" lon="4.8128">
        <ele>421</ele>
        <time>2011-12-23T18:36:35Z</time>
      </trkpt>
      <trkpt lat="45.84081" lon="4.81278">
        <ele>422</ele>
        <time>2011-12-23T18:36:36Z</time>
      </trkpt>
      <trkpt lat="45.84079" lon="4.81273">
        <ele>423</ele>
        <time>2011-12-23T18:36:40Z</time>
      </trkpt>
      <trkpt lat="45.84078" lon="4.8127">
        <ele>424</ele>
        <time>2011-12-23T18:36:42Z</time>
      </trkpt>
      <trkpt lat="45.84078" lon="4.81268">
        <ele>424</ele>
        <time>2011-12-23T18:36:44Z</time>
      </trkpt>
      <trkpt lat="45.84077" lon="4.81265">
        <ele>425</ele>
        <time>2011-12-23T18:36:46Z</time>
      </trkpt>
      <trkpt lat="45.84078" lon="4.81259">
        <ele>427</ele>
        <time>2011-12-23T18:36:50Z</time>
      </trkpt>
      <trkpt lat="45.84079" lon="4.81254">
        <ele>429</ele>
        <time>2011-12-23T18:36:54Z</time>
      </trkpt>
      <trkpt lat="45.84079" lon="4.81253">
        <ele>429</ele>
        <time>2011-12-23T18:36:55Z</time>
      </trkpt>
      <trkpt lat="45.84079" lon="4.81251">
        <ele>429</ele>
        <time>2011-12-23T18:37:02Z</time>
      </trkpt>
      <trkpt lat="45.84079" lon="4.8125">
        <ele>432</ele>
        <time>2011-12-23T18:37:10Z</time>
      </trkpt>
      <trkpt lat="45.84077" lon="4.81246">
        <ele>432</ele>
        <time>2011-12-23T18:37:36Z</time>
      </trkpt>
      <trkpt lat="45.84077" lon="4.81245">
        <ele>433</ele>
        <time>2011-12-23T18:37:37Z</time>
      </trkpt>
      <trkpt lat="45.84076" lon="4.81239">
        <ele>433</ele>
        <time>2011-12-23T18:37:41Z</time>
      </trkpt>
      <trkpt lat="45.84076" lon="4.81232">
        <ele>433</ele>
        <time>2011-12-23T18:37:45Z</time>
      </trkpt>
      <trkpt lat="45.84075" lon="4.81229">
        <ele>434</ele>
        <time>2011-12-23T18:37:47Z</time>
      </trkpt>
      <trkpt lat="45.84075" lon="4.81226">
        <ele>434</ele>
        <time>2011-12-23T18:37:49Z</time>
      </trkpt>
      <trkpt lat="45.84076" lon="4.8122">
        <ele>434</ele>
        <time>2011-12-23T18:37:53Z</time>
      </trkpt>
      <trkpt lat="45.84076" lon="4.81219">
        <ele>434</ele>
        <time>2011-12-23T18:37:54Z</time>
      </trkpt>
      <trkpt lat="45.84076" lon="4.81215">
        <ele>435</ele>
        <time>2011-12-23T18:37:57Z</time>
      </trkpt>
      <trkpt lat="45.84079" lon="4.81208">
        <ele>435</ele>
        <time>2011-12-23T18:38:02Z</time>
      </trkpt>
      <trkpt lat="45.84079" lon="4.81203">
        <ele>436</ele>
        <time>2011-12-23T18:38:05Z</time>
      </trkpt>
      <trkpt lat="45.8408" lon="4.812">
        <ele>436</ele>
        <time>2011-12-23T18:38:07Z</time>
      </trkpt>
      <trkpt lat="45.84079" lon="4.81198">
        <ele>436</ele>
        <time>2011-12-23T18:38:08Z</time>
      </trkpt>
      <trkpt lat="45.84081" lon="4.81186">
        <ele>438</ele>
        <time>2011-12-23T18:38:14Z</time>
      </trkpt>
      <trkpt lat="45.84083" lon="4.81179">
        <ele>440</ele>
        <time>2011-12-23T18:38:18Z</time>
      </trkpt>
      <trkpt lat="45.84083" lon="4.81177">
        <ele>440</ele>
        <time>2011-12-23T18:38:19Z</time>
      </trkpt>
      <trkpt lat="45.84084" lon="4.81174">
        <ele>441</ele>
        <time>2011-12-23T18:38:21Z</time>
      </trkpt>
      <trkpt lat="45.84087" lon="4.81165">
        <ele>443</ele>
        <time>2011-12-23T18:38:25Z</time>
      </trkpt>
      <trkpt lat="45.84089" lon="4.81159">
        <ele>444</ele>
        <time>2011-12-23T18:38:28Z</time>
      </trkpt>
      <trkpt lat="45.84089" lon="4.81155">
        <ele>444</ele>
        <time>2011-12-23T18:38:30Z</time>
      </trkpt>
      <trkpt lat="45.84088" lon="4.81151">
        <ele>445</ele>
        <time>2011-12-23T18:38:32Z</time>
      </trkpt>
      <trkpt lat="45.84088" lon="4.8114">
        <ele>445</ele>
        <time>2011-12-23T18:38:37Z</time>
      </trkpt>
      <trkpt lat="45.8409" lon="4.81127">
        <ele>446</ele>
        <time>2011-12-23T18:38:43Z</time>
      </trkpt>
      <trkpt lat="45.84089" lon="4.81125">
        <ele>446</ele>
        <time>2011-12-23T18:38:44Z</time>
      </trkpt>
      <trkpt lat="45.84089" lon="4.81114">
        <ele>447</ele>
        <time>2011-12-23T18:38:50Z</time>
      </trkpt>
      <trkpt lat="45.8409" lon="4.81103">
        <ele>448</ele>
        <time>2011-12-23T18:38:57Z</time>
      </trkpt>
      <trkpt lat="45.84092" lon="4.81099">
        <ele>448</ele>
        <time>2011-12-23T18:39:00Z</time>
      </trkpt>
      <trkpt lat="45.84092" lon="4.81094">
        <ele>448</ele>
        <time>2011-12-23T18:39:03Z</time>
      </trkpt>
      <trkpt lat="45.84095" lon="4.81087">
        <ele>449</ele>
        <time>2011-12-23T18:39:08Z</time>
      </trkpt>
      <trkpt lat="45.84097" lon="4.81074">
        <ele>451</ele>
        <time>2011-12-23T18:39:15Z</time>
      </trkpt>
      <trkpt lat="45.84096" lon="4.81056">
        <ele>452</ele>
        <time>2011-12-23T18:39:21Z</time>
      </trkpt>
      <trkpt lat="45.84096" lon="4.8105">
        <ele>452</ele>
        <time>2011-12-23T18:39:24Z</time>
      </trkpt>
      <trkpt lat="45.84096" lon="4.81048">
        <ele>452</ele>
        <time>2011-12-23T18:39:25Z</time>
      </trkpt>
      <trkpt lat="45.84096" lon="4.81046">
        <ele>452</ele>
        <time>2011-12-23T18:39:26Z</time>
      </trkpt>
      <trkpt lat="45.84101" lon="4.81031">
        <ele>453</ele>
        <time>2011-12-23T18:39:32Z</time>
      </trkpt>
      <trkpt lat="45.84104" lon="4.81023">
        <ele>453</ele>
        <time>2011-12-23T18:39:36Z</time>
      </trkpt>
      <trkpt lat="45.84107" lon="4.81016">
        <ele>453</ele>
        <time>2011-12-23T18:39:39Z</time>
      </trkpt>
      <trkpt lat="45.84109" lon="4.8101">
        <ele>453</ele>
        <time>2011-12-23T18:39:42Z</time>
      </trkpt>
      <trkpt lat="45.84109" lon="4.81004">
        <ele>454</ele>
        <time>2011-12-23T18:39:45Z</time>
      </trkpt>
      <trkpt lat="45.84107" lon="4.81001">
        <ele>454</ele>
        <time>2011-12-23T18:39:50Z</time>
      </trkpt>
      <trkpt lat="45.84106" lon="4.80998">
        <ele>456</ele>
        <time>2011-12-23T18:40:00Z</time>
      </trkpt>
      <trkpt lat="45.84107" lon="4.80994">
        <ele>456</ele>
        <time>2011-12-23T18:40:03Z</time>
      </trkpt>
      <trkpt lat="45.84115" lon="4.8098">
        <ele>457</ele>
        <time>2011-12-23T18:40:10Z</time>
      </trkpt>
      <trkpt lat="45.84117" lon="4.80979">
        <ele>457</ele>
        <time>2011-12-23T18:40:11Z</time>
      </trkpt>
      <trkpt lat="45.84125" lon="4.8097">
        <ele>458</ele>
        <time>2011-12-23T18:40:16Z</time>
      </trkpt>
      <trkpt lat="45.84131" lon="4.8096">
        <ele>458</ele>
        <time>2011-12-23T18:40:20Z</time>
      </trkpt>
      <trkpt lat="45.84134" lon="4.80953">
        <ele>458</ele>
        <time>2011-12-23T18:40:23Z</time>
      </trkpt>
      <trkpt lat="45.8414" lon="4.80935">
        <ele>459</ele>
        <time>2011-12-23T18:40:30Z</time>
      </trkpt>
      <trkpt lat="45.84141" lon="4.80932">
        <ele>460</ele>
        <time>2011-12-23T18:40:31Z</time>
      </trkpt>
      <trkpt lat="45.84142" lon="4.80916">
        <ele>463</ele>
        <time>2011-12-23T18:40:36Z</time>
      </trkpt>
      <trkpt lat="45.84144" lon="4.80908">
        <ele>463</ele>
        <time>2011-12-23T18:40:39Z</time>
      </trkpt>
      <trkpt lat="45.84146" lon="4.80906">
        <ele>463</ele>
        <time>2011-12-23T18:40:40Z</time>
      </trkpt>
      <trkpt lat="45.84155" lon="4.80897">
        <ele>463</ele>
        <time>2011-12-23T18:40:46Z</time>
      </trkpt>
      <trkpt lat="45.84157" lon="4.80895">
        <ele>463</ele>
        <time>2011-12-23T18:40:47Z</time>
      </trkpt>
      <trkpt lat="45.8416" lon="4.80892">
        <ele>464</ele>
        <time>2011-12-23T18:40:49Z</time>
      </trkpt>
      <trkpt lat="45.84164" lon="4.80886">
        <ele>464</ele>
        <time>2011-12-23T18:40:52Z</time>
      </trkpt>
      <trkpt lat="45.84172" lon="4.8087">
        <ele>467</ele>
        <time>2011-12-23T18:40:59Z</time>
      </trkpt>
      <trkpt lat="45.84173" lon="4.80867">
        <ele>467</ele>
        <time>2011-12-23T18:41:00Z</time>
      </trkpt>
      <trkpt lat="45.84176" lon="4.8085">
        <ele>468</ele>
        <time>2011-12-23T18:41:06Z</time>
      </trkpt>
      <trkpt lat="45.84177" lon="4.80845">
        <ele>468</ele>
        <time>2011-12-23T18:41:08Z</time>
      </trkpt>
      <trkpt lat="45.8418" lon="4.8084">
        <ele>468</ele>
        <time>2011-12-23T18:41:10Z</time>
      </trkpt>
      <trkpt lat="45.84188" lon="4.80826">
        <ele>472</ele>
        <time>2011-12-23T18:41:16Z</time>
      </trkpt>
      <trkpt lat="45.8419" lon="4.80824">
        <ele>472</ele>
        <time>2011-12-23T18:41:17Z</time>
      </trkpt>
      <trkpt lat="45.84198" lon="4.80811">
        <ele>473</ele>
        <time>2011-12-23T18:41:23Z</time>
      </trkpt>
      <trkpt lat="45.84202" lon="4.80805">
        <ele>473</ele>
        <time>2011-12-23T18:41:26Z</time>
      </trkpt>
      <trkpt lat="45.84207" lon="4.80795">
        <ele>473</ele>
        <time>2011-12-23T18:41:30Z</time>
      </trkpt>
      <trkpt lat="45.84214" lon="4.80783">
        <ele>474</ele>
        <time>2011-12-23T18:41:35Z</time>
      </trkpt>
      <trkpt lat="45.84217" lon="4.8078">
        <ele>474</ele>
        <time>2011-12-23T18:41:37Z</time>
      </trkpt>
      <trkpt lat="45.84229" lon="4.80769">
        <ele>474</ele>
        <time>2011-12-23T18:41:44Z</time>
      </trkpt>
      <trkpt lat="45.84233" lon="4.8076">
        <ele>474</ele>
        <time>2011-12-23T18:41:48Z</time>
      </trkpt>
      <trkpt lat="45.84235" lon="4.80757">
        <ele>474</ele>
        <time>2011-12-23T18:41:50Z</time>
      </trkpt>
      <trkpt lat="45.84236" lon="4.80746">
        <ele>477</ele>
        <time>2011-12-23T18:41:55Z</time>
      </trkpt>
      <trkpt lat="45.84237" lon="4.80744">
        <ele>477</ele>
        <time>2011-12-23T18:41:56Z</time>
      </trkpt>
      <trkpt lat="45.8424" lon="4.80729">
        <ele>478</ele>
        <time>2011-12-23T18:42:02Z</time>
      </trkpt>
      <trkpt lat="45.84242" lon="4.80717">
        <ele>479</ele>
        <time>2011-12-23T18:42:07Z</time>
      </trkpt>
      <trkpt lat="45.84243" lon="4.80715">
        <ele>479</ele>
        <time>2011-12-23T18:42:08Z</time>
      </trkpt>
      <trkpt lat="45.84243" lon="4.80698">
        <ele>480</ele>
        <time>2011-12-23T18:42:15Z</time>
      </trkpt>
      <trkpt lat="45.84242" lon="4.80691">
        <ele>480</ele>
        <time>2011-12-23T18:42:18Z</time>
      </trkpt>
      <trkpt lat="45.84242" lon="4.80687">
        <ele>481</ele>
        <time>2011-12-23T18:42:20Z</time>
      </trkpt>
      <trkpt lat="45.84241" lon="4.80672">
        <ele>482</ele>
        <time>2011-12-23T18:42:25Z</time>
      </trkpt>
      <trkpt lat="45.84241" lon="4.80663">
        <ele>484</ele>
        <time>2011-12-23T18:42:28Z</time>
      </trkpt>
      <trkpt lat="45.84242" lon="4.80658">
        <ele>484</ele>
        <time>2011-12-23T18:42:30Z</time>
      </trkpt>
      <trkpt lat="45.84245" lon="4.80643">
        <ele>485</ele>
        <time>2011-12-23T18:42:36Z</time>
      </trkpt>
      <trkpt lat="45.84246" lon="4.80637">
        <ele>485</ele>
        <time>2011-12-23T18:42:39Z</time>
      </trkpt>
      <trkpt lat="45.84247" lon="4.80634">
        <ele>485</ele>
        <time>2011-12-23T18:42:41Z</time>
      </trkpt>
      <trkpt lat="45.84249" lon="4.8063">
        <ele>485</ele>
        <time>2011-12-23T18:42:44Z</time>
      </trkpt>
      <trkpt lat="45.8425" lon="4.80629">
        <ele>485</ele>
        <time>2011-12-23T18:42:45Z</time>
      </trkpt>
      <trkpt lat="45.84254" lon="4.80623">
        <ele>489</ele>
        <time>2011-12-23T18:42:50Z</time>
      </trkpt>
      <trkpt lat="45.84258" lon="4.80618">
        <ele>489</ele>
        <time>2011-12-23T18:42:55Z</time>
      </trkpt>
      <trkpt lat="45.84259" lon="4.80617">
        <ele>489</ele>
        <time>2011-12-23T18:42:56Z</time>
      </trkpt>
      <trkpt lat="45.84263" lon="4.80611">
        <ele>490</ele>
        <time>2011-12-23T18:43:02Z</time>
      </trkpt>
      <trkpt lat="45.84263" lon="4.80601">
        <ele>490</ele>
        <time>2011-12-23T18:43:08Z</time>
      </trkpt>
      <trkpt lat="45.84263" lon="4.80597">
        <ele>490</ele>
        <time>2011-12-23T18:43:11Z</time>
      </trkpt>
      <trkpt lat="45.84264" lon="4.80597">
        <ele>490</ele>
        <time>2011-12-23T18:43:13Z</time>
      </trkpt>
      <trkpt lat="45.84264" lon="4.80596">
        <ele>490</ele>
        <time>2011-12-23T18:43:14Z</time>
      </trkpt>
      <trkpt lat="45.84267" lon="4.80595">
        <ele>490</ele>
        <time>2011-12-23T18:43:18Z</time>
      </trkpt>
      <trkpt lat="45.84269" lon="4.80595">
        <ele>490</ele>
        <time>2011-12-23T18:43:21Z</time>
      </trkpt>
      <trkpt lat="45.84271" lon="4.80595">
        <ele>490</ele>
        <time>2011-12-23T18:43:23Z</time>
      </trkpt>
      <trkpt lat="45.8427" lon="4.80592">
        <ele>490</ele>
        <time>2011-12-23T18:43:38Z</time>
      </trkpt>
      <trkpt lat="45.84273" lon="4.80595">
        <ele>490</ele>
        <time>2011-12-23T18:44:41Z</time>
      </trkpt>
      <trkpt lat="45.84276" lon="4.80594">
        <ele>490</ele>
        <time>2011-12-23T18:44:44Z</time>
      </trkpt>
      <trkpt lat="45.84279" lon="4.8059">
        <ele>490</ele>
        <time>2011-12-23T18:44:48Z</time>
      </trkpt>
      <trkpt lat="45.84289" lon="4.80586">
        <ele>491</ele>
        <time>2011-12-23T18:44:55Z</time>
      </trkpt>
      <trkpt lat="45.84293" lon="4.80585">
        <ele>491</ele>
        <time>2011-12-23T18:44:57Z</time>
      </trkpt>
      <trkpt lat="45.843" lon="4.80582">
        <ele>496</ele>
        <time>2011-12-23T18:45:01Z</time>
      </trkpt>
      <trkpt lat="45.84311" lon="4.80577">
        <ele>497</ele>
        <time>2011-12-23T18:45:07Z</time>
      </trkpt>
      <trkpt lat="45.84313" lon="4.80577">
        <ele>497</ele>
        <time>2011-12-23T18:45:08Z</time>
      </trkpt>
      <trkpt lat="45.84324" lon="4.8057">
        <ele>497</ele>
        <time>2011-12-23T18:45:14Z</time>
      </trkpt>
      <trkpt lat="45.8433" lon="4.80567">
        <ele>497</ele>
        <time>2011-12-23T18:45:17Z</time>
      </trkpt>
      <trkpt lat="45.84332" lon="4.80566">
        <ele>497</ele>
        <time>2011-12-23T18:45:18Z</time>
      </trkpt>
      <trkpt lat="45.84344" lon="4.8056">
        <ele>499</ele>
        <time>2011-12-23T18:45:24Z</time>
      </trkpt>
      <trkpt lat="45.84348" lon="4.80559">
        <ele>499</ele>
        <time>2011-12-23T18:45:26Z</time>
      </trkpt>
      <trkpt lat="45.84354" lon="4.80557">
        <ele>499</ele>
        <time>2011-12-23T18:45:30Z</time>
      </trkpt>
      <trkpt lat="45.84358" lon="4.80548">
        <ele>500</ele>
        <time>2011-12-23T18:45:35Z</time>
      </trkpt>
      <trkpt lat="45.8436" lon="4.80542">
        <ele>500</ele>
        <time>2011-12-23T18:45:38Z</time>
      </trkpt>
      <trkpt lat="45.84362" lon="4.80537">
        <ele>501</ele>
        <time>2011-12-23T18:45:41Z</time>
      </trkpt>
      <trkpt lat="45.84363" lon="4.80533">
        <ele>501</ele>
        <time>2011-12-23T18:45:44Z</time>
      </trkpt>
      <trkpt lat="45.84364" lon="4.80529">
        <ele>501</ele>
        <time>2011-12-23T18:45:46Z</time>
      </trkpt>
      <trkpt lat="45.84366" lon="4.8052">
        <ele>502</ele>
        <time>2011-12-23T18:45:53Z</time>
      </trkpt>
      <trkpt lat="45.84367" lon="4.80517">
        <ele>502</ele>
        <time>2011-12-23T18:45:57Z</time>
      </trkpt>
      <trkpt lat="45.84367" lon="4.80516">
        <ele>502</ele>
        <time>2011-12-23T18:45:58Z</time>
      </trkpt>
      <trkpt lat="45.84367" lon="4.80504">
        <ele>502</ele>
        <time>2011-12-23T18:46:04Z</time>
      </trkpt>
      <trkpt lat="45.84366" lon="4.80501">
        <ele>502</ele>
        <time>2011-12-23T18:46:05Z</time>
      </trkpt>
      <trkpt lat="45.84364" lon="4.80495">
        <ele>509</ele>
        <time>2011-12-23T18:46:09Z</time>
      </trkpt>
      <trkpt lat="45.84364" lon="4.80493">
        <ele>509</ele>
        <time>2011-12-23T18:46:10Z</time>
      </trkpt>
      <trkpt lat="45.84363" lon="4.80488">
        <ele>509</ele>
        <time>2011-12-23T18:46:13Z</time>
      </trkpt>
      <trkpt lat="45.84361" lon="4.80479">
        <ele>510</ele>
        <time>2011-12-23T18:46:19Z</time>
      </trkpt>
      <trkpt lat="45.84359" lon="4.80471">
        <ele>511</ele>
        <time>2011-12-23T18:46:24Z</time>
      </trkpt>
      <trkpt lat="45.84359" lon="4.80468">
        <ele>511</ele>
        <time>2011-12-23T18:46:26Z</time>
      </trkpt>
      <trkpt lat="45.84359" lon="4.80465">
        <ele>511</ele>
        <time>2011-12-23T18:46:27Z</time>
      </trkpt>
      <trkpt lat="45.84361" lon="4.8046">
        <ele>512</ele>
        <time>2011-12-23T18:46:30Z</time>
      </trkpt>
      <trkpt lat="45.84366" lon="4.80457">
        <ele>512</ele>
        <time>2011-12-23T18:46:34Z</time>
      </trkpt>
      <trkpt lat="45.84367" lon="4.80456">
        <ele>512</ele>
        <time>2011-12-23T18:46:35Z</time>
      </trkpt>
      <trkpt lat="45.84371" lon="4.80453">
        <ele>512</ele>
        <time>2011-12-23T18:46:38Z</time>
      </trkpt>
      <trkpt lat="45.84377" lon="4.80453">
        <ele>512</ele>
        <time>2011-12-23T18:46:41Z</time>
      </trkpt>
      <trkpt lat="45.84387" lon="4.80447">
        <ele>513</ele>
        <time>2011-12-23T18:46:47Z</time>
      </trkpt>
      <trkpt lat="45.84388" lon="4.80445">
        <ele>513</ele>
        <time>2011-12-23T18:46:48Z</time>
      </trkpt>
      <trkpt lat="45.84389" lon="4.80437">
        <ele>514</ele>
        <time>2011-12-23T18:46:52Z</time>
      </trkpt>
      <trkpt lat="45.8439" lon="4.8043">
        <ele>514</ele>
        <time>2011-12-23T18:46:57Z</time>
      </trkpt>
      <trkpt lat="45.84392" lon="4.80424">
        <ele>515</ele>
        <time>2011-12-23T18:47:00Z</time>
      </trkpt>
      <trkpt lat="45.84393" lon="4.80421">
        <ele>515</ele>
        <time>2011-12-23T18:47:02Z</time>
      </trkpt>
      <trkpt lat="45.84393" lon="4.80419">
        <ele>515</ele>
        <time>2011-12-23T18:47:03Z</time>
      </trkpt>
      <trkpt lat="45.84394" lon="4.80416">
        <ele>522</ele>
        <time>2011-12-23T18:47:05Z</time>
      </trkpt>
      <trkpt lat="45.84395" lon="4.80413">
        <ele>522</ele>
        <time>2011-12-23T18:47:08Z</time>
      </trkpt>
      <trkpt lat="45.84395" lon="4.80401">
        <ele>523</ele>
        <time>2011-12-23T18:47:14Z</time>
      </trkpt>
      <trkpt lat="45.84395" lon="4.80395">
        <ele>523</ele>
        <time>2011-12-23T18:47:18Z</time>
      </trkpt>
      <trkpt lat="45.84395" lon="4.80394">
        <ele>524</ele>
        <time>2011-12-23T18:47:19Z</time>
      </trkpt>
      <trkpt lat="45.84395" lon="4.80387">
        <ele>524</ele>
        <time>2011-12-23T18:47:23Z</time>
      </trkpt>
      <trkpt lat="45.84395" lon="4.80386">
        <ele>524</ele>
        <time>2011-12-23T18:47:24Z</time>
      </trkpt>
      <trkpt lat="45.84396" lon="4.80385">
        <ele>524</ele>
        <time>2011-12-23T18:47:25Z</time>
      </trkpt>
      <trkpt lat="45.84396" lon="4.80379">
        <ele>525</ele>
        <time>2011-12-23T18:47:29Z</time>
      </trkpt>
      <trkpt lat="45.84395" lon="4.80369">
        <ele>526</ele>
        <time>2011-12-23T18:47:35Z</time>
      </trkpt>
      <trkpt lat="45.84395" lon="4.80367">
        <ele>526</ele>
        <time>2011-12-23T18:47:36Z</time>
      </trkpt>
      <trkpt lat="45.84392" lon="4.80358">
        <ele>527</ele>
        <time>2011-12-23T18:47:41Z</time>
      </trkpt>
      <trkpt lat="45.84392" lon="4.80353">
        <ele>527</ele>
        <time>2011-12-23T18:47:44Z</time>
      </trkpt>
      <trkpt lat="45.84392" lon="4.80349">
        <ele>528</ele>
        <time>2011-12-23T18:47:46Z</time>
      </trkpt>
      <trkpt lat="45.84393" lon="4.80342">
        <ele>528</ele>
        <time>2011-12-23T18:47:49Z</time>
      </trkpt>
      <trkpt lat="45.84394" lon="4.80338">
        <ele>529</ele>
        <time>2011-12-23T18:47:52Z</time>
      </trkpt>
      <trkpt lat="45.84395" lon="4.80335">
        <ele>529</ele>
        <time>2011-12-23T18:47:54Z</time>
      </trkpt>
      <trkpt lat="45.84395" lon="4.80331">
        <ele>535</ele>
        <time>2011-12-23T18:47:57Z</time>
      </trkpt>
      <trkpt lat="45.84395" lon="4.80328">
        <ele>535</ele>
        <time>2011-12-23T18:48:00Z</time>
      </trkpt>
      <trkpt lat="45.84395" lon="4.80325">
        <ele>535</ele>
        <time>2011-12-23T18:48:02Z</time>
      </trkpt>
      <trkpt lat="45.84395" lon="4.80321">
        <ele>536</ele>
        <time>2011-12-23T18:48:04Z</time>
      </trkpt>
      <trkpt lat="45.84394" lon="4.80317">
        <ele>536</ele>
        <time>2011-12-23T18:48:07Z</time>
      </trkpt>
      <trkpt lat="45.84393" lon="4.8031">
        <ele>536</ele>
        <time>2011-12-23T18:48:10Z</time>
      </trkpt>
      <trkpt lat="45.84394" lon="4.80308">
        <ele>537</ele>
        <time>2011-12-23T18:48:11Z</time>
      </trkpt>
      <trkpt lat="45.84395" lon="4.80301">
        <ele>537</ele>
        <time>2011-12-23T18:48:14Z</time>
      </trkpt>
      <trkpt lat="45.84395" lon="4.80297">
        <ele>537</ele>
        <time>2011-12-23T18:48:16Z</time>
      </trkpt>
      <trkpt lat="45.84395" lon="4.80294">
        <ele>538</ele>
        <time>2011-12-23T18:48:18Z</time>
      </trkpt>
      <trkpt lat="45.84395" lon="4.80291">
        <ele>538</ele>
        <time>2011-12-23T18:48:20Z</time>
      </trkpt>
      <trkpt lat="45.84395" lon="4.80287">
        <ele>538</ele>
        <time>2011-12-23T18:48:22Z</time>
      </trkpt>
      <trkpt lat="45.84396" lon="4.80282">
        <ele>538</ele>
        <time>2011-12-23T18:48:24Z</time>
      </trkpt>
      <trkpt lat="45.84396" lon="4.80276">
        <ele>539</ele>
        <time>2011-12-23T18:48:28Z</time>
      </trkpt>
      <trkpt lat="45.84397" lon="4.80268">
        <ele>540</ele>
        <time>2011-12-23T18:48:32Z</time>
      </trkpt>
      <trkpt lat="45.84397" lon="4.80265">
        <ele>540</ele>
        <time>2011-12-23T18:48:34Z</time>
      </trkpt>
      <trkpt lat="45.84394" lon="4.80258">
        <ele>540</ele>
        <time>2011-12-23T18:48:38Z</time>
      </trkpt>
      <trkpt lat="45.84389" lon="4.8025">
        <ele>546</ele>
        <time>2011-12-23T18:48:43Z</time>
      </trkpt>
      <trkpt lat="45.84387" lon="4.80246">
        <ele>546</ele>
        <time>2011-12-23T18:48:46Z</time>
      </trkpt>
      <trkpt lat="45.84385" lon="4.80244">
        <ele>546</ele>
        <time>2011-12-23T18:48:48Z</time>
      </trkpt>
      <trkpt lat="45.84376" lon="4.80241">
        <ele>546</ele>
        <time>2011-12-23T18:48:54Z</time>
      </trkpt>
      <trkpt lat="45.8437" lon="4.80235">
        <ele>546</ele>
        <time>2011-12-23T18:48:59Z</time>
      </trkpt>
      <trkpt lat="45.84368" lon="4.80233">
        <ele>546</ele>
        <time>2011-12-23T18:49:01Z</time>
      </trkpt>
      <trkpt lat="45.84367" lon="4.80233">
        <ele>546</ele>
        <time>2011-12-23T18:49:02Z</time>
      </trkpt>
      <trkpt lat="45.84362" lon="4.80228">
        <ele>546</ele>
        <time>2011-12-23T18:49:05Z</time>
      </trkpt>
      <trkpt lat="45.84355" lon="4.80219">
        <ele>546</ele>
        <time>2011-12-23T18:49:09Z</time>
      </trkpt>
      <trkpt lat="45.84354" lon="4.80216">
        <ele>546</ele>
        <time>2011-12-23T18:49:10Z</time>
      </trkpt>
      <trkpt lat="45.84351" lon="4.80212">
        <ele>547</ele>
        <time>2011-12-23T18:49:12Z</time>
      </trkpt>
      <trkpt lat="45.84349" lon="4.8021">
        <ele>547</ele>
        <time>2011-12-23T18:49:14Z</time>
      </trkpt>
      <trkpt lat="45.84343" lon="4.80205">
        <ele>547</ele>
        <time>2011-12-23T18:49:18Z</time>
      </trkpt>
      <trkpt lat="45.84338" lon="4.80206">
        <ele>547</ele>
        <time>2011-12-23T18:49:22Z</time>
      </trkpt>
      <trkpt lat="45.84336" lon="4.80208">
        <ele>547</ele>
        <time>2011-12-23T18:49:23Z</time>
      </trkpt>
      <trkpt lat="45.8433" lon="4.80205">
        <ele>545</ele>
        <time>2011-12-23T18:49:27Z</time>
      </trkpt>
      <trkpt lat="45.84325" lon="4.80195">
        <ele>546</ele>
        <time>2011-12-23T18:49:32Z</time>
      </trkpt>
      <trkpt lat="45.84325" lon="4.80192">
        <ele>546</ele>
        <time>2011-12-23T18:49:33Z</time>
      </trkpt>
      <trkpt lat="45.84325" lon="4.8019">
        <ele>546</ele>
        <time>2011-12-23T18:49:34Z</time>
      </trkpt>
      <trkpt lat="45.84323" lon="4.80184">
        <ele>547</ele>
        <time>2011-12-23T18:49:38Z</time>
      </trkpt>
      <trkpt lat="45.84323" lon="4.80172">
        <ele>548</ele>
        <time>2011-12-23T18:49:44Z</time>
      </trkpt>
      <trkpt lat="45.84324" lon="4.80169">
        <ele>548</ele>
        <time>2011-12-23T18:49:46Z</time>
      </trkpt>
      <trkpt lat="45.84324" lon="4.80167">
        <ele>548</ele>
        <time>2011-12-23T18:49:47Z</time>
      </trkpt>
      <trkpt lat="45.84326" lon="4.80161">
        <ele>551</ele>
        <time>2011-12-23T18:49:51Z</time>
      </trkpt>
      <trkpt lat="45.84329" lon="4.80153">
        <ele>552</ele>
        <time>2011-12-23T18:49:56Z</time>
      </trkpt>
      <trkpt lat="45.84332" lon="4.80144">
        <ele>553</ele>
        <time>2011-12-23T18:50:02Z</time>
      </trkpt>
      <trkpt lat="45.84333" lon="4.80141">
        <ele>553</ele>
        <time>2011-12-23T18:50:04Z</time>
      </trkpt>
      <trkpt lat="45.84335" lon="4.80131">
        <ele>556</ele>
        <time>2011-12-23T18:50:10Z</time>
      </trkpt>
      <trkpt lat="45.84336" lon="4.80123">
        <ele>557</ele>
        <time>2011-12-23T18:50:15Z</time>
      </trkpt>
      <trkpt lat="45.84338" lon="4.80118">
        <ele>557</ele>
        <time>2011-12-23T18:50:18Z</time>
      </trkpt>
      <trkpt lat="45.8434" lon="4.80115">
        <ele>557</ele>
        <time>2011-12-23T18:50:21Z</time>
      </trkpt>
      <trkpt lat="45.84338" lon="4.80104">
        <ele>559</ele>
        <time>2011-12-23T18:50:27Z</time>
      </trkpt>
      <trkpt lat="45.84337" lon="4.80095">
        <ele>560</ele>
        <time>2011-12-23T18:50:32Z</time>
      </trkpt>
      <trkpt lat="45.84336" lon="4.80093">
        <ele>560</ele>
        <time>2011-12-23T18:50:33Z</time>
      </trkpt>
      <trkpt lat="45.84334" lon="4.80085">
        <ele>562</ele>
        <time>2011-12-23T18:50:38Z</time>
      </trkpt>
      <trkpt lat="45.84332" lon="4.80074">
        <ele>563</ele>
        <time>2011-12-23T18:50:44Z</time>
      </trkpt>
      <trkpt lat="45.84332" lon="4.80072">
        <ele>563</ele>
        <time>2011-12-23T18:50:45Z</time>
      </trkpt>
      <trkpt lat="45.8433" lon="4.80068">
        <ele>563</ele>
        <time>2011-12-23T18:50:47Z</time>
      </trkpt>
      <trkpt lat="45.8433" lon="4.80066">
        <ele>563</ele>
        <time>2011-12-23T18:50:48Z</time>
      </trkpt>
      <trkpt lat="45.84329" lon="4.80065">
        <ele>563</ele>
        <time>2011-12-23T18:50:49Z</time>
      </trkpt>
      <trkpt lat="45.84325" lon="4.80057">
        <ele>564</ele>
        <time>2011-12-23T18:50:54Z</time>
      </trkpt>
      <trkpt lat="45.84325" lon="4.80055">
        <ele>564</ele>
        <time>2011-12-23T18:50:55Z</time>
      </trkpt>
      <trkpt lat="45.84325" lon="4.80053">
        <ele>564</ele>
        <time>2011-12-23T18:50:56Z</time>
      </trkpt>
      <trkpt lat="45.84322" lon="4.80047">
        <ele>565</ele>
        <time>2011-12-23T18:51:00Z</time>
      </trkpt>
      <trkpt lat="45.84321" lon="4.80046">
        <ele>565</ele>
        <time>2011-12-23T18:51:01Z</time>
      </trkpt>
      <trkpt lat="45.8432" lon="4.80041">
        <ele>565</ele>
        <time>2011-12-23T18:51:04Z</time>
      </trkpt>
      <trkpt lat="45.84319" lon="4.80037">
        <ele>565</ele>
        <time>2011-12-23T18:51:07Z</time>
      </trkpt>
      <trkpt lat="45.84316" lon="4.80033">
        <ele>566</ele>
        <time>2011-12-23T18:51:10Z</time>
      </trkpt>
      <trkpt lat="45.8431" lon="4.80027">
        <ele>566</ele>
        <time>2011-12-23T18:51:14Z</time>
      </trkpt>
      <trkpt lat="45.84303" lon="4.80022">
        <ele>566</ele>
        <time>2011-12-23T18:51:18Z</time>
      </trkpt>
      <trkpt lat="45.84293" lon="4.80017">
        <ele>566</ele>
        <time>2011-12-23T18:51:23Z</time>
      </trkpt>
      <trkpt lat="45.84291" lon="4.80016">
        <ele>566</ele>
        <time>2011-12-23T18:51:24Z</time>
      </trkpt>
      <trkpt lat="45.8428" lon="4.80011">
        <ele>566</ele>
        <time>2011-12-23T18:51:30Z</time>
      </trkpt>
      <trkpt lat="45.84277" lon="4.80006">
        <ele>566</ele>
        <time>2011-12-23T18:51:33Z</time>
      </trkpt>
      <trkpt lat="45.84276" lon="4.80005">
        <ele>566</ele>
        <time>2011-12-23T18:51:34Z</time>
      </trkpt>
      <trkpt lat="45.8427" lon="4.79998">
        <ele>571</ele>
        <time>2011-12-23T18:51:39Z</time>
      </trkpt>
      <trkpt lat="45.84266" lon="4.79992">
        <ele>571</ele>
        <time>2011-12-23T18:51:44Z</time>
      </trkpt>
      <trkpt lat="45.84264" lon="4.79988">
        <ele>571</ele>
        <time>2011-12-23T18:51:47Z</time>
      </trkpt>
      <trkpt lat="45.84262" lon="4.79985">
        <ele>571</ele>
        <time>2011-12-23T18:51:49Z</time>
      </trkpt>
      <trkpt lat="45.84257" lon="4.79977">
        <ele>572</ele>
        <time>2011-12-23T18:51:55Z</time>
      </trkpt>
      <trkpt lat="45.84251" lon="4.7997">
        <ele>572</ele>
        <time>2011-12-23T18:52:01Z</time>
      </trkpt>
      <trkpt lat="45.8425" lon="4.79969">
        <ele>572</ele>
        <time>2011-12-23T18:52:02Z</time>
      </trkpt>
      <trkpt lat="45.84249" lon="4.79959">
        <ele>574</ele>
        <time>2011-12-23T18:52:06Z</time>
      </trkpt>
      <trkpt lat="45.84249" lon="4.79943">
        <ele>576</ele>
        <time>2011-12-23T18:52:12Z</time>
      </trkpt>
      <trkpt lat="45.8425" lon="4.7994">
        <ele>576</ele>
        <time>2011-12-23T18:52:13Z</time>
      </trkpt>
      <trkpt lat="45.84252" lon="4.79924">
        <ele>577</ele>
        <time>2011-12-23T18:52:19Z</time>
      </trkpt>
      <trkpt lat="45.84252" lon="4.79916">
        <ele>579</ele>
        <time>2011-12-23T18:52:22Z</time>
      </trkpt>
      <trkpt lat="45.84252" lon="4.79911">
        <ele>579</ele>
        <time>2011-12-23T18:52:24Z</time>
      </trkpt>
      <trkpt lat="45.8425" lon="4.79892">
        <ele>583</ele>
        <time>2011-12-23T18:52:31Z</time>
      </trkpt>
      <trkpt lat="45.84249" lon="4.7989">
        <ele>583</ele>
        <time>2011-12-23T18:52:32Z</time>
      </trkpt>
      <trkpt lat="45.84244" lon="4.79873">
        <ele>585</ele>
        <time>2011-12-23T18:52:39Z</time>
      </trkpt>
      <trkpt lat="45.84241" lon="4.79867">
        <ele>586</ele>
        <time>2011-12-23T18:52:42Z</time>
      </trkpt>
      <trkpt lat="45.84239" lon="4.79862">
        <ele>586</ele>
        <time>2011-12-23T18:52:44Z</time>
      </trkpt>
      <trkpt lat="45.84229" lon="4.79846">
        <ele>587</ele>
        <time>2011-12-23T18:52:52Z</time>
      </trkpt>
      <trkpt lat="45.84228" lon="4.79843">
        <ele>587</ele>
        <time>2011-12-23T18:52:53Z</time>
      </trkpt>
      <trkpt lat="45.84222" lon="4.79828">
        <ele>591</ele>
        <time>2011-12-23T18:52:59Z</time>
      </trkpt>
      <trkpt lat="45.84221" lon="4.79822">
        <ele>591</ele>
        <time>2011-12-23T18:53:01Z</time>
      </trkpt>
      <trkpt lat="45.84216" lon="4.7981">
        <ele>591</ele>
        <time>2011-12-23T18:53:06Z</time>
      </trkpt>
      <trkpt lat="45.84216" lon="4.79806">
        <ele>591</ele>
        <time>2011-12-23T18:53:11Z</time>
      </trkpt>
      <trkpt lat="45.84216" lon="4.79807">
        <ele>591</ele>
        <time>2011-12-23T18:53:20Z</time>
      </trkpt>
      <trkpt lat="45.84216" lon="4.79807">
        <ele>591</ele>
        <time>2011-12-23T18:53:25Z</time>
      </trkpt>
      <trkpt lat="45.84218" lon="4.79808">
        <ele>591</ele>
        <time>2011-12-23T18:53:48Z</time>
      </trkpt>
      <trkpt lat="45.84219" lon="4.7981">
        <ele>591</ele>
        <time>2011-12-23T18:53:56Z</time>
      </trkpt>
      <trkpt lat="45.8422" lon="4.79811">
        <ele>591</ele>
        <time>2011-12-23T18:53:59Z</time>
      </trkpt>
      <trkpt lat="45.84224" lon="4.79815">
        <ele>591</ele>
        <time>2011-12-23T18:54:02Z</time>
      </trkpt>
      <trkpt lat="45.84232" lon="4.79829">
        <ele>591</ele>
        <time>2011-12-23T18:54:08Z</time>
      </trkpt>
      <trkpt lat="45.84233" lon="4.79831">
        <ele>591</ele>
        <time>2011-12-23T18:54:09Z</time>
      </trkpt>
      <trkpt lat="45.84236" lon="4.79842">
        <ele>588</ele>
        <time>2011-12-23T18:54:14Z</time>
      </trkpt>
      <trkpt lat="45.84241" lon="4.79853">
        <ele>587</ele>
        <time>2011-12-23T18:54:20Z</time>
      </trkpt>
      <trkpt lat="45.84242" lon="4.79855">
        <ele>587</ele>
        <time>2011-12-23T18:54:21Z</time>
      </trkpt>
      <trkpt lat="45.84249" lon="4.79867">
        <ele>586</ele>
        <time>2011-12-23T18:54:27Z</time>
      </trkpt>
      <trkpt lat="45.84254" lon="4.79874">
        <ele>580</ele>
        <time>2011-12-23T18:54:30Z</time>
      </trkpt>
      <trkpt lat="45.8426" lon="4.79883">
        <ele>579</ele>
        <time>2011-12-23T18:54:34Z</time>
      </trkpt>
      <trkpt lat="45.8427" lon="4.79889">
        <ele>578</ele>
        <time>2011-12-23T18:54:39Z</time>
      </trkpt>
      <trkpt lat="45.8428" lon="4.79901">
        <ele>577</ele>
        <time>2011-12-23T18:54:45Z</time>
      </trkpt>
      <trkpt lat="45.84284" lon="4.79905">
        <ele>577</ele>
        <time>2011-12-23T18:54:47Z</time>
      </trkpt>
      <trkpt lat="45.84289" lon="4.79915">
        <ele>577</ele>
        <time>2011-12-23T18:54:50Z</time>
      </trkpt>
      <trkpt lat="45.84292" lon="4.79924">
        <ele>574</ele>
        <time>2011-12-23T18:54:53Z</time>
      </trkpt>
      <trkpt lat="45.84293" lon="4.79927">
        <ele>573</ele>
        <time>2011-12-23T18:54:54Z</time>
      </trkpt>
      <trkpt lat="45.84294" lon="4.7993">
        <ele>573</ele>
        <time>2011-12-23T18:54:55Z</time>
      </trkpt>
      <trkpt lat="45.84302" lon="4.79947">
        <ele>573</ele>
        <time>2011-12-23T18:55:00Z</time>
      </trkpt>
      <trkpt lat="45.84304" lon="4.79951">
        <ele>572</ele>
        <time>2011-12-23T18:55:01Z</time>
      </trkpt>
      <trkpt lat="45.84313" lon="4.79966">
        <ele>572</ele>
        <time>2011-12-23T18:55:06Z</time>
      </trkpt>
      <trkpt lat="45.84317" lon="4.79972">
        <ele>572</ele>
        <time>2011-12-23T18:55:08Z</time>
      </trkpt>
      <trkpt lat="45.84323" lon="4.79986">
        <ele>571</ele>
        <time>2011-12-23T18:55:12Z</time>
      </trkpt>
      <trkpt lat="45.84328" lon="4.79996">
        <ele>571</ele>
        <time>2011-12-23T18:55:15Z</time>
      </trkpt>
      <trkpt lat="45.84334" lon="4.80008">
        <ele>568</ele>
        <time>2011-12-23T18:55:19Z</time>
      </trkpt>
      <trkpt lat="45.84339" lon="4.8002">
        <ele>566</ele>
        <time>2011-12-23T18:55:23Z</time>
      </trkpt>
      <trkpt lat="45.84341" lon="4.80027">
        <ele>565</ele>
        <time>2011-12-23T18:55:25Z</time>
      </trkpt>
      <trkpt lat="45.84347" lon="4.80045">
        <ele>564</ele>
        <time>2011-12-23T18:55:30Z</time>
      </trkpt>
      <trkpt lat="45.84348" lon="4.80052">
        <ele>564</ele>
        <time>2011-12-23T18:55:32Z</time>
      </trkpt>
      <trkpt lat="45.84355" lon="4.8007">
        <ele>563</ele>
        <time>2011-12-23T18:55:37Z</time>
      </trkpt>
      <trkpt lat="45.84357" lon="4.80073">
        <ele>563</ele>
        <time>2011-12-23T18:55:38Z</time>
      </trkpt>
      <trkpt lat="45.84369" lon="4.80092">
        <ele>558</ele>
        <time>2011-12-23T18:55:44Z</time>
      </trkpt>
      <trkpt lat="45.84383" lon="4.80109">
        <ele>557</ele>
        <time>2011-12-23T18:55:50Z</time>
      </trkpt>
      <trkpt lat="45.84385" lon="4.80111">
        <ele>557</ele>
        <time>2011-12-23T18:55:51Z</time>
      </trkpt>
      <trkpt lat="45.84396" lon="4.80125">
        <ele>557</ele>
        <time>2011-12-23T18:55:56Z</time>
      </trkpt>
      <trkpt lat="45.844" lon="4.8013">
        <ele>556</ele>
        <time>2011-12-23T18:55:58Z</time>
      </trkpt>
      <trkpt lat="45.84405" lon="4.80139">
        <ele>556</ele>
        <time>2011-12-23T18:56:01Z</time>
      </trkpt>
      <trkpt lat="45.84414" lon="4.80151">
        <ele>555</ele>
        <time>2011-12-23T18:56:05Z</time>
      </trkpt>
      <trkpt lat="45.84418" lon="4.80157">
        <ele>554</ele>
        <time>2011-12-23T18:56:07Z</time>
      </trkpt>
      <trkpt lat="45.84429" lon="4.80169">
        <ele>552</ele>
        <time>2011-12-23T18:56:12Z</time>
      </trkpt>
      <trkpt lat="45.84441" lon="4.80185">
        <ele>551</ele>
        <time>2011-12-23T18:56:18Z</time>
      </trkpt>
      <trkpt lat="45.84443" lon="4.80188">
        <ele>550</ele>
        <time>2011-12-23T18:56:19Z</time>
      </trkpt>
      <trkpt lat="45.84452" lon="4.80205">
        <ele>550</ele>
        <time>2011-12-23T18:56:24Z</time>
      </trkpt>
      <trkpt lat="45.84456" lon="4.80212">
        <ele>549</ele>
        <time>2011-12-23T18:56:26Z</time>
      </trkpt>
      <trkpt lat="45.84463" lon="4.80226">
        <ele>549</ele>
        <time>2011-12-23T18:56:30Z</time>
      </trkpt>
      <trkpt lat="45.84469" lon="4.80235">
        <ele>549</ele>
        <time>2011-12-23T18:56:33Z</time>
      </trkpt>
      <trkpt lat="45.84478" lon="4.80245">
        <ele>548</ele>
        <time>2011-12-23T18:56:37Z</time>
      </trkpt>
      <trkpt lat="45.84483" lon="4.8025">
        <ele>548</ele>
        <time>2011-12-23T18:56:39Z</time>
      </trkpt>
      <trkpt lat="45.84488" lon="4.80254">
        <ele>544</ele>
        <time>2011-12-23T18:56:41Z</time>
      </trkpt>
      <trkpt lat="45.845" lon="4.80268">
        <ele>543</ele>
        <time>2011-12-23T18:56:46Z</time>
      </trkpt>
      <trkpt lat="45.84513" lon="4.8028">
        <ele>541</ele>
        <time>2011-12-23T18:56:51Z</time>
      </trkpt>
      <trkpt lat="45.84516" lon="4.80281">
        <ele>541</ele>
        <time>2011-12-23T18:56:52Z</time>
      </trkpt>
      <trkpt lat="45.84531" lon="4.80286">
        <ele>540</ele>
        <time>2011-12-23T18:56:57Z</time>
      </trkpt>
      <trkpt lat="45.84536" lon="4.80285">
        <ele>540</ele>
        <time>2011-12-23T18:56:59Z</time>
      </trkpt>
      <trkpt lat="45.84544" lon="4.80286">
        <ele>540</ele>
        <time>2011-12-23T18:57:03Z</time>
      </trkpt>
      <trkpt lat="45.84546" lon="4.80288">
        <ele>539</ele>
        <time>2011-12-23T18:57:04Z</time>
      </trkpt>
      <trkpt lat="45.84553" lon="4.80297">
        <ele>539</ele>
        <time>2011-12-23T18:57:08Z</time>
      </trkpt>
      <trkpt lat="45.84568" lon="4.80305">
        <ele>538</ele>
        <time>2011-12-23T18:57:14Z</time>
      </trkpt>
      <trkpt lat="45.8457" lon="4.80306">
        <ele>537</ele>
        <time>2011-12-23T18:57:15Z</time>
      </trkpt>
      <trkpt lat="45.84578" lon="4.80318">
        <ele>536</ele>
        <time>2011-12-23T18:57:19Z</time>
      </trkpt>
      <trkpt lat="45.84582" lon="4.80328">
        <ele>533</ele>
        <time>2011-12-23T18:57:22Z</time>
      </trkpt>
      <trkpt lat="45.84584" lon="4.80335">
        <ele>532</ele>
        <time>2011-12-23T18:57:24Z</time>
      </trkpt>
      <trkpt lat="45.84589" lon="4.80351">
        <ele>529</ele>
        <time>2011-12-23T18:57:29Z</time>
      </trkpt>
      <trkpt lat="45.8459" lon="4.80354">
        <ele>529</ele>
        <time>2011-12-23T18:57:30Z</time>
      </trkpt>
      <trkpt lat="45.84592" lon="4.80368">
        <ele>527</ele>
        <time>2011-12-23T18:57:34Z</time>
      </trkpt>
      <trkpt lat="45.84592" lon="4.80375">
        <ele>527</ele>
        <time>2011-12-23T18:57:36Z</time>
      </trkpt>
      <trkpt lat="45.84593" lon="4.80381">
        <ele>526</ele>
        <time>2011-12-23T18:57:38Z</time>
      </trkpt>
      <trkpt lat="45.84593" lon="4.80384">
        <ele>526</ele>
        <time>2011-12-23T18:57:39Z</time>
      </trkpt>
      <trkpt lat="45.84595" lon="4.80395">
        <ele>524</ele>
        <time>2011-12-23T18:57:43Z</time>
      </trkpt>
      <trkpt lat="45.84596" lon="4.80397">
        <ele>524</ele>
        <time>2011-12-23T18:57:44Z</time>
      </trkpt>
      <trkpt lat="45.84594" lon="4.80405">
        <ele>523</ele>
        <time>2011-12-23T18:57:48Z</time>
      </trkpt>
      <trkpt lat="45.84594" lon="4.80407">
        <ele>522</ele>
        <time>2011-12-23T18:57:49Z</time>
      </trkpt>
      <trkpt lat="45.84594" lon="4.8041">
        <ele>522</ele>
        <time>2011-12-23T18:57:50Z</time>
      </trkpt>
      <trkpt lat="45.84595" lon="4.80422">
        <ele>517</ele>
        <time>2011-12-23T18:57:55Z</time>
      </trkpt>
      <trkpt lat="45.84597" lon="4.80434">
        <ele>517</ele>
        <time>2011-12-23T18:58:00Z</time>
      </trkpt>
      <trkpt lat="45.84599" lon="4.80437">
        <ele>517</ele>
        <time>2011-12-23T18:58:01Z</time>
      </trkpt>
      <trkpt lat="45.84607" lon="4.8045">
        <ele>516</ele>
        <time>2011-12-23T18:58:07Z</time>
      </trkpt>
      <trkpt lat="45.8461" lon="4.80454">
        <ele>516</ele>
        <time>2011-12-23T18:58:09Z</time>
      </trkpt>
      <trkpt lat="45.84613" lon="4.80459">
        <ele>515</ele>
        <time>2011-12-23T18:58:11Z</time>
      </trkpt>
      <trkpt lat="45.84622" lon="4.80477">
        <ele>514</ele>
        <time>2011-12-23T18:58:17Z</time>
      </trkpt>
      <trkpt lat="45.84623" lon="4.8048">
        <ele>514</ele>
        <time>2011-12-23T18:58:18Z</time>
      </trkpt>
      <trkpt lat="45.84629" lon="4.80497">
        <ele>514</ele>
        <time>2011-12-23T18:58:23Z</time>
      </trkpt>
      <trkpt lat="45.8463" lon="4.805">
        <ele>506</ele>
        <time>2011-12-23T18:58:24Z</time>
      </trkpt>
      <trkpt lat="45.84635" lon="4.80519">
        <ele>506</ele>
        <time>2011-12-23T18:58:30Z</time>
      </trkpt>
      <trkpt lat="45.84638" lon="4.80527">
        <ele>505</ele>
        <time>2011-12-23T18:58:33Z</time>
      </trkpt>
      <trkpt lat="45.84639" lon="4.80539">
        <ele>504</ele>
        <time>2011-12-23T18:58:37Z</time>
      </trkpt>
      <trkpt lat="45.84635" lon="4.80554">
        <ele>503</ele>
        <time>2011-12-23T18:58:43Z</time>
      </trkpt>
      <trkpt lat="45.84635" lon="4.80557">
        <ele>502</ele>
        <time>2011-12-23T18:58:44Z</time>
      </trkpt>
      <trkpt lat="45.84631" lon="4.80568">
        <ele>502</ele>
        <time>2011-12-23T18:58:49Z</time>
      </trkpt>
      <trkpt lat="45.84629" lon="4.80579">
        <ele>501</ele>
        <time>2011-12-23T18:58:54Z</time>
      </trkpt>
      <trkpt lat="45.84628" lon="4.80583">
        <ele>501</ele>
        <time>2011-12-23T18:58:56Z</time>
      </trkpt>
      <trkpt lat="45.84625" lon="4.806">
        <ele>494</ele>
        <time>2011-12-23T18:59:03Z</time>
      </trkpt>
      <trkpt lat="45.84624" lon="4.80604">
        <ele>493</ele>
        <time>2011-12-23T18:59:05Z</time>
      </trkpt>
      <trkpt lat="45.84621" lon="4.80613">
        <ele>493</ele>
        <time>2011-12-23T18:59:09Z</time>
      </trkpt>
      <trkpt lat="45.84617" lon="4.80625">
        <ele>492</ele>
        <time>2011-12-23T18:59:14Z</time>
      </trkpt>
      <trkpt lat="45.84615" lon="4.80628">
        <ele>492</ele>
        <time>2011-12-23T18:59:16Z</time>
      </trkpt>
      <trkpt lat="45.84613" lon="4.80634">
        <ele>492</ele>
        <time>2011-12-23T18:59:20Z</time>
      </trkpt>
      <trkpt lat="45.84611" lon="4.80637">
        <ele>491</ele>
        <time>2011-12-23T18:59:22Z</time>
      </trkpt>
      <trkpt lat="45.84608" lon="4.80638">
        <ele>491</ele>
        <time>2011-12-23T18:59:24Z</time>
      </trkpt>
      <trkpt lat="45.84602" lon="4.80633">
        <ele>491</ele>
        <time>2011-12-23T18:59:29Z</time>
      </trkpt>
      <trkpt lat="45.846" lon="4.80632">
        <ele>491</ele>
        <time>2011-12-23T18:59:30Z</time>
      </trkpt>
      <trkpt lat="45.84599" lon="4.8063">
        <ele>491</ele>
        <time>2011-12-23T18:59:31Z</time>
      </trkpt>
      <trkpt lat="45.84591" lon="4.8062">
        <ele>492</ele>
        <time>2011-12-23T18:59:36Z</time>
      </trkpt>
      <trkpt lat="45.84588" lon="4.80616">
        <ele>492</ele>
        <time>2011-12-23T18:59:38Z</time>
      </trkpt>
      <trkpt lat="45.84584" lon="4.80605">
        <ele>493</ele>
        <time>2011-12-23T18:59:42Z</time>
      </trkpt>
      <trkpt lat="45.84579" lon="4.80591">
        <ele>492</ele>
        <time>2011-12-23T18:59:47Z</time>
      </trkpt>
      <trkpt lat="45.84578" lon="4.80587">
        <ele>493</ele>
        <time>2011-12-23T18:59:48Z</time>
      </trkpt>
      <trkpt lat="45.84576" lon="4.80573">
        <ele>496</ele>
        <time>2011-12-23T18:59:53Z</time>
      </trkpt>
      <trkpt lat="45.84572" lon="4.80565">
        <ele>498</ele>
        <time>2011-12-23T18:59:57Z</time>
      </trkpt>
      <trkpt lat="45.8457" lon="4.80563">
        <ele>498</ele>
        <time>2011-12-23T18:59:58Z</time>
      </trkpt>
      <trkpt lat="45.84562" lon="4.80555">
        <ele>499</ele>
        <time>2011-12-23T19:00:04Z</time>
      </trkpt>
      <trkpt lat="45.8456" lon="4.80556">
        <ele>499</ele>
        <time>2011-12-23T19:00:06Z</time>
      </trkpt>
      <trkpt lat="45.84558" lon="4.8056">
        <ele>499</ele>
        <time>2011-12-23T19:00:08Z</time>
      </trkpt>
      <trkpt lat="45.84557" lon="4.80563">
        <ele>498</ele>
        <time>2011-12-23T19:00:09Z</time>
      </trkpt>
      <trkpt lat="45.84556" lon="4.80565">
        <ele>498</ele>
        <time>2011-12-23T19:00:10Z</time>
      </trkpt>
      <trkpt lat="45.84553" lon="4.80575">
        <ele>498</ele>
        <time>2011-12-23T19:00:14Z</time>
      </trkpt>
      <trkpt lat="45.84552" lon="4.8058">
        <ele>498</ele>
        <time>2011-12-23T19:00:16Z</time>
      </trkpt>
      <trkpt lat="45.84551" lon="4.80583">
        <ele>498</ele>
        <time>2011-12-23T19:00:17Z</time>
      </trkpt>
      <trkpt lat="45.84551" lon="4.80587">
        <ele>490</ele>
        <time>2011-12-23T19:00:19Z</time>
      </trkpt>
      <trkpt lat="45.84547" lon="4.80605">
        <ele>489</ele>
        <time>2011-12-23T19:00:26Z</time>
      </trkpt>
      <trkpt lat="45.84548" lon="4.80608">
        <ele>489</ele>
        <time>2011-12-23T19:00:27Z</time>
      </trkpt>
      <trkpt lat="45.8455" lon="4.80613">
        <ele>489</ele>
        <time>2011-12-23T19:00:30Z</time>
      </trkpt>
      <trkpt lat="45.84551" lon="4.80614">
        <ele>489</ele>
        <time>2011-12-23T19:00:31Z</time>
      </trkpt>
      <trkpt lat="45.84552" lon="4.80615">
        <ele>489</ele>
        <time>2011-12-23T19:00:33Z</time>
      </trkpt>
      <trkpt lat="45.84549" lon="4.80618">
        <ele>488</ele>
        <time>2011-12-23T19:00:35Z</time>
      </trkpt>
      <trkpt lat="45.84546" lon="4.80622">
        <ele>488</ele>
        <time>2011-12-23T19:00:37Z</time>
      </trkpt>
      <trkpt lat="45.84543" lon="4.80629">
        <ele>487</ele>
        <time>2011-12-23T19:00:41Z</time>
      </trkpt>
      <trkpt lat="45.8454" lon="4.8064">
        <ele>487</ele>
        <time>2011-12-23T19:00:46Z</time>
      </trkpt>
      <trkpt lat="45.84538" lon="4.80647">
        <ele>486</ele>
        <time>2011-12-23T19:00:50Z</time>
      </trkpt>
      <trkpt lat="45.84535" lon="4.80651">
        <ele>486</ele>
        <time>2011-12-23T19:00:53Z</time>
      </trkpt>
      <trkpt lat="45.84534" lon="4.80654">
        <ele>486</ele>
        <time>2011-12-23T19:00:54Z</time>
      </trkpt>
      <trkpt lat="45.84533" lon="4.80655">
        <ele>485</ele>
        <time>2011-12-23T19:00:55Z</time>
      </trkpt>
      <trkpt lat="45.84533" lon="4.80656">
        <ele>485</ele>
        <time>2011-12-23T19:00:56Z</time>
      </trkpt>
      <trkpt lat="45.8453" lon="4.80665">
        <ele>485</ele>
        <time>2011-12-23T19:01:01Z</time>
      </trkpt>
      <trkpt lat="45.84528" lon="4.80674">
        <ele>478</ele>
        <time>2011-12-23T19:01:05Z</time>
      </trkpt>
      <trkpt lat="45.84528" lon="4.80676">
        <ele>478</ele>
        <time>2011-12-23T19:01:06Z</time>
      </trkpt>
      <trkpt lat="45.84528" lon="4.80678">
        <ele>478</ele>
        <time>2011-12-23T19:01:07Z</time>
      </trkpt>
      <trkpt lat="45.84531" lon="4.80686">
        <ele>478</ele>
        <time>2011-12-23T19:01:11Z</time>
      </trkpt>
      <trkpt lat="45.84531" lon="4.80687">
        <ele>478</ele>
        <time>2011-12-23T19:01:12Z</time>
      </trkpt>
      <trkpt lat="45.84532" lon="4.80695">
        <ele>478</ele>
        <time>2011-12-23T19:01:16Z</time>
      </trkpt>
      <trkpt lat="45.84532" lon="4.80703">
        <ele>477</ele>
        <time>2011-12-23T19:01:19Z</time>
      </trkpt>
      <trkpt lat="45.84533" lon="4.80707">
        <ele>477</ele>
        <time>2011-12-23T19:01:21Z</time>
      </trkpt>
      <trkpt lat="45.84532" lon="4.80719">
        <ele>476</ele>
        <time>2011-12-23T19:01:26Z</time>
      </trkpt>
      <trkpt lat="45.84529" lon="4.80727">
        <ele>476</ele>
        <time>2011-12-23T19:01:30Z</time>
      </trkpt>
      <trkpt lat="45.84529" lon="4.80729">
        <ele>476</ele>
        <time>2011-12-23T19:01:32Z</time>
      </trkpt>
      <trkpt lat="45.84528" lon="4.80732">
        <ele>475</ele>
        <time>2011-12-23T19:01:34Z</time>
      </trkpt>
      <trkpt lat="45.84527" lon="4.80736">
        <ele>475</ele>
        <time>2011-12-23T19:01:36Z</time>
      </trkpt>
      <trkpt lat="45.84526" lon="4.80745">
        <ele>475</ele>
        <time>2011-12-23T19:01:40Z</time>
      </trkpt>
      <trkpt lat="45.84526" lon="4.80748">
        <ele>474</ele>
        <time>2011-12-23T19:01:41Z</time>
      </trkpt>
      <trkpt lat="45.84527" lon="4.80755">
        <ele>469</ele>
        <time>2011-12-23T19:01:44Z</time>
      </trkpt>
      <trkpt lat="45.84526" lon="4.8076">
        <ele>469</ele>
        <time>2011-12-23T19:01:46Z</time>
      </trkpt>
      <trkpt lat="45.84525" lon="4.80764">
        <ele>469</ele>
        <time>2011-12-23T19:01:48Z</time>
      </trkpt>
      <trkpt lat="45.84524" lon="4.8077">
        <ele>469</ele>
        <time>2011-12-23T19:01:51Z</time>
      </trkpt>
      <trkpt lat="45.84521" lon="4.80782">
        <ele>468</ele>
        <time>2011-12-23T19:01:56Z</time>
      </trkpt>
      <trkpt lat="45.84521" lon="4.80784">
        <ele>468</ele>
        <time>2011-12-23T19:01:57Z</time>
      </trkpt>
      <trkpt lat="45.84517" lon="4.80793">
        <ele>467</ele>
        <time>2011-12-23T19:02:02Z</time>
      </trkpt>
      <trkpt lat="45.84514" lon="4.80798">
        <ele>467</ele>
        <time>2011-12-23T19:02:06Z</time>
      </trkpt>
      <trkpt lat="45.84512" lon="4.80797">
        <ele>467</ele>
        <time>2011-12-23T19:02:08Z</time>
      </trkpt>
      <trkpt lat="45.84514" lon="4.80795">
        <ele>467</ele>
        <time>2011-12-23T19:02:11Z</time>
      </trkpt>
      <trkpt lat="45.84515" lon="4.80795">
        <ele>467</ele>
        <time>2011-12-23T19:02:13Z</time>
      </trkpt>
      <trkpt lat="45.84515" lon="4.80797">
        <ele>467</ele>
        <time>2011-12-23T19:02:14Z</time>
      </trkpt>
      <trkpt lat="45.84518" lon="4.80802">
        <ele>466</ele>
        <time>2011-12-23T19:02:18Z</time>
      </trkpt>
      <trkpt lat="45.84517" lon="4.80804">
        <ele>466</ele>
        <time>2011-12-23T19:02:19Z</time>
      </trkpt>
      <trkpt lat="45.84518" lon="4.80811">
        <ele>466</ele>
        <time>2011-12-23T19:02:23Z</time>
      </trkpt>
      <trkpt lat="45.84517" lon="4.80813">
        <ele>465</ele>
        <time>2011-12-23T19:02:24Z</time>
      </trkpt>
      <trkpt lat="45.84517" lon="4.80823">
        <ele>464</ele>
        <time>2011-12-23T19:02:27Z</time>
      </trkpt>
      <trkpt lat="45.84517" lon="4.80829">
        <ele>464</ele>
        <time>2011-12-23T19:02:29Z</time>
      </trkpt>
      <trkpt lat="45.84514" lon="4.80835">
        <ele>460</ele>
        <time>2011-12-23T19:02:32Z</time>
      </trkpt>
      <trkpt lat="45.84512" lon="4.80836">
        <ele>460</ele>
        <time>2011-12-23T19:02:33Z</time>
      </trkpt>
      <trkpt lat="45.84505" lon="4.80839">
        <ele>460</ele>
        <time>2011-12-23T19:02:37Z</time>
      </trkpt>
      <trkpt lat="45.84505" lon="4.8084">
        <ele>460</ele>
        <time>2011-12-23T19:02:38Z</time>
      </trkpt>
      <trkpt lat="45.84503" lon="4.80844">
        <ele>460</ele>
        <time>2011-12-23T19:02:41Z</time>
      </trkpt>
      <trkpt lat="45.84502" lon="4.80846">
        <ele>460</ele>
        <time>2011-12-23T19:02:42Z</time>
      </trkpt>
      <trkpt lat="45.845" lon="4.80856">
        <ele>459</ele>
        <time>2011-12-23T19:02:46Z</time>
      </trkpt>
      <trkpt lat="45.84499" lon="4.80861">
        <ele>458</ele>
        <time>2011-12-23T19:02:48Z</time>
      </trkpt>
      <trkpt lat="45.84498" lon="4.80864">
        <ele>458</ele>
        <time>2011-12-23T19:02:49Z</time>
      </trkpt>
      <trkpt lat="45.84494" lon="4.80876">
        <ele>457</ele>
        <time>2011-12-23T19:02:53Z</time>
      </trkpt>
      <trkpt lat="45.84491" lon="4.80884">
        <ele>457</ele>
        <time>2011-12-23T19:02:57Z</time>
      </trkpt>
      <trkpt lat="45.84489" lon="4.80888">
        <ele>456</ele>
        <time>2011-12-23T19:02:59Z</time>
      </trkpt>
      <trkpt lat="45.84488" lon="4.80896">
        <ele>456</ele>
        <time>2011-12-23T19:03:03Z</time>
      </trkpt>
      <trkpt lat="45.84487" lon="4.80902">
        <ele>455</ele>
        <time>2011-12-23T19:03:05Z</time>
      </trkpt>
      <trkpt lat="45.84487" lon="4.80904">
        <ele>455</ele>
        <time>2011-12-23T19:03:06Z</time>
      </trkpt>
      <trkpt lat="45.84488" lon="4.80909">
        <ele>454</ele>
        <time>2011-12-23T19:03:08Z</time>
      </trkpt>
      <trkpt lat="45.8449" lon="4.80914">
        <ele>453</ele>
        <time>2011-12-23T19:03:10Z</time>
      </trkpt>
      <trkpt lat="45.84489" lon="4.80919">
        <ele>450</ele>
        <time>2011-12-23T19:03:12Z</time>
      </trkpt>
      <trkpt lat="45.84488" lon="4.80921">
        <ele>450</ele>
        <time>2011-12-23T19:03:14Z</time>
      </trkpt>
      <trkpt lat="45.84489" lon="4.8093">
        <ele>450</ele>
        <time>2011-12-23T19:03:18Z</time>
      </trkpt>
      <trkpt lat="45.84489" lon="4.8094">
        <ele>449</ele>
        <time>2011-12-23T19:03:22Z</time>
      </trkpt>
      <trkpt lat="45.84488" lon="4.80952">
        <ele>448</ele>
        <time>2011-12-23T19:03:27Z</time>
      </trkpt>
      <trkpt lat="45.84486" lon="4.80964">
        <ele>447</ele>
        <time>2011-12-23T19:03:31Z</time>
      </trkpt>
      <trkpt lat="45.84485" lon="4.80967">
        <ele>447</ele>
        <time>2011-12-23T19:03:32Z</time>
      </trkpt>
      <trkpt lat="45.84481" lon="4.80978">
        <ele>446</ele>
        <time>2011-12-23T19:03:36Z</time>
      </trkpt>
      <trkpt lat="45.8448" lon="4.80991">
        <ele>445</ele>
        <time>2011-12-23T19:03:42Z</time>
      </trkpt>
      <trkpt lat="45.8448" lon="4.80994">
        <ele>445</ele>
        <time>2011-12-23T19:03:43Z</time>
      </trkpt>
      <trkpt lat="45.84476" lon="4.81007">
        <ele>438</ele>
        <time>2011-12-23T19:03:48Z</time>
      </trkpt>
      <trkpt lat="45.84475" lon="4.81017">
        <ele>438</ele>
        <time>2011-12-23T19:03:52Z</time>
      </trkpt>
      <trkpt lat="45.84474" lon="4.8102">
        <ele>438</ele>
        <time>2011-12-23T19:03:53Z</time>
      </trkpt>
      <trkpt lat="45.84473" lon="4.81036">
        <ele>437</ele>
        <time>2011-12-23T19:03:58Z</time>
      </trkpt>
      <trkpt lat="45.84473" lon="4.81047">
        <ele>436</ele>
        <time>2011-12-23T19:04:02Z</time>
      </trkpt>
      <trkpt lat="45.84473" lon="4.81049">
        <ele>436</ele>
        <time>2011-12-23T19:04:03Z</time>
      </trkpt>
      <trkpt lat="45.84472" lon="4.8106">
        <ele>435</ele>
        <time>2011-12-23T19:04:08Z</time>
      </trkpt>
      <trkpt lat="45.84468" lon="4.81069">
        <ele>435</ele>
        <time>2011-12-23T19:04:14Z</time>
      </trkpt>
      <trkpt lat="45.84466" lon="4.81072">
        <ele>435</ele>
        <time>2011-12-23T19:04:16Z</time>
      </trkpt>
      <trkpt lat="45.84466" lon="4.81077">
        <ele>434</ele>
        <time>2011-12-23T19:04:18Z</time>
      </trkpt>
      <trkpt lat="45.84461" lon="4.81093">
        <ele>427</ele>
        <time>2011-12-23T19:04:24Z</time>
      </trkpt>
      <trkpt lat="45.8446" lon="4.81097">
        <ele>427</ele>
        <time>2011-12-23T19:04:25Z</time>
      </trkpt>
      <trkpt lat="45.84458" lon="4.81115">
        <ele>426</ele>
        <time>2011-12-23T19:04:31Z</time>
      </trkpt>
      <trkpt lat="45.84458" lon="4.8112">
        <ele>426</ele>
        <time>2011-12-23T19:04:33Z</time>
      </trkpt>
      <trkpt lat="45.84458" lon="4.81123">
        <ele>426</ele>
        <time>2011-12-23T19:04:34Z</time>
      </trkpt>
      <trkpt lat="45.84457" lon="4.81129">
        <ele>425</ele>
        <time>2011-12-23T19:04:36Z</time>
      </trkpt>
      <trkpt lat="45.84457" lon="4.81132">
        <ele>425</ele>
        <time>2011-12-23T19:04:37Z</time>
      </trkpt>
      <trkpt lat="45.84457" lon="4.8114">
        <ele>425</ele>
        <time>2011-12-23T19:04:41Z</time>
      </trkpt>
      <trkpt lat="45.84457" lon="4.8115">
        <ele>424</ele>
        <time>2011-12-23T19:04:45Z</time>
      </trkpt>
      <trkpt lat="45.84457" lon="4.81158">
        <ele>424</ele>
        <time>2011-12-23T19:04:48Z</time>
      </trkpt>
      <trkpt lat="45.84459" lon="4.81172">
        <ele>416</ele>
        <time>2011-12-23T19:04:54Z</time>
      </trkpt>
      <trkpt lat="45.84459" lon="4.81177">
        <ele>416</ele>
        <time>2011-12-23T19:04:57Z</time>
      </trkpt>
      <trkpt lat="45.84457" lon="4.81182">
        <ele>416</ele>
        <time>2011-12-23T19:04:59Z</time>
      </trkpt>
      <trkpt lat="45.84452" lon="4.81193">
        <ele>416</ele>
        <time>2011-12-23T19:05:04Z</time>
      </trkpt>
      <trkpt lat="45.84452" lon="4.81195">
        <ele>416</ele>
        <time>2011-12-23T19:05:05Z</time>
      </trkpt>
      <trkpt lat="45.84451" lon="4.81201">
        <ele>415</ele>
        <time>2011-12-23T19:05:07Z</time>
      </trkpt>
      <trkpt lat="45.8445" lon="4.8121">
        <ele>415</ele>
        <time>2011-12-23T19:05:11Z</time>
      </trkpt>
      <trkpt lat="45.84449" lon="4.81227">
        <ele>414</ele>
        <time>2011-12-23T19:05:17Z</time>
      </trkpt>
      <trkpt lat="45.84451" lon="4.81229">
        <ele>413</ele>
        <time>2011-12-23T19:05:21Z</time>
      </trkpt>
      <trkpt lat="45.84452" lon="4.8123">
        <ele>413</ele>
        <time>2011-12-23T19:05:23Z</time>
      </trkpt>
      <trkpt lat="45.84454" lon="4.81231">
        <ele>413</ele>
        <time>2011-12-23T19:05:25Z</time>
      </trkpt>
      <trkpt lat="45.84456" lon="4.81236">
        <ele>413</ele>
        <time>2011-12-23T19:05:28Z</time>
      </trkpt>
      <trkpt lat="45.84456" lon="4.81245">
        <ele>412</ele>
        <time>2011-12-23T19:05:33Z</time>
      </trkpt>
      <trkpt lat="45.84456" lon="4.81247">
        <ele>412</ele>
        <time>2011-12-23T19:05:34Z</time>
      </trkpt>
      <trkpt lat="45.84457" lon="4.81251">
        <ele>403</ele>
        <time>2011-12-23T19:05:36Z</time>
      </trkpt>
      <trkpt lat="45.84458" lon="4.81259">
        <ele>403</ele>
        <time>2011-12-23T19:05:40Z</time>
      </trkpt>
      <trkpt lat="45.84457" lon="4.81271">
        <ele>402</ele>
        <time>2011-12-23T19:05:44Z</time>
      </trkpt>
      <trkpt lat="45.84457" lon="4.81276">
        <ele>401</ele>
        <time>2011-12-23T19:05:46Z</time>
      </trkpt>
      <trkpt lat="45.84456" lon="4.81285">
        <ele>401</ele>
        <time>2011-12-23T19:05:50Z</time>
      </trkpt>
      <trkpt lat="45.84456" lon="4.81287">
        <ele>400</ele>
        <time>2011-12-23T19:05:51Z</time>
      </trkpt>
      <trkpt lat="45.84457" lon="4.81292">
        <ele>400</ele>
        <time>2011-12-23T19:05:54Z</time>
      </trkpt>
      <trkpt lat="45.84458" lon="4.81301">
        <ele>399</ele>
        <time>2011-12-23T19:05:58Z</time>
      </trkpt>
      <trkpt lat="45.84459" lon="4.81302">
        <ele>399</ele>
        <time>2011-12-23T19:05:59Z</time>
      </trkpt>
      <trkpt lat="45.84459" lon="4.8131">
        <ele>398</ele>
        <time>2011-12-23T19:06:02Z</time>
      </trkpt>
      <trkpt lat="45.8446" lon="4.81314">
        <ele>397</ele>
        <time>2011-12-23T19:06:04Z</time>
      </trkpt>
      <trkpt lat="45.84462" lon="4.81325">
        <ele>396</ele>
        <time>2011-12-23T19:06:10Z</time>
      </trkpt>
      <trkpt lat="45.84462" lon="4.81328">
        <ele>396</ele>
        <time>2011-12-23T19:06:11Z</time>
      </trkpt>
      <trkpt lat="45.84463" lon="4.81339">
        <ele>382</ele>
        <time>2011-12-23T19:06:16Z</time>
      </trkpt>
      <trkpt lat="45.84465" lon="4.81344">
        <ele>382</ele>
        <time>2011-12-23T19:06:19Z</time>
      </trkpt>
      <trkpt lat="45.84466" lon="4.81348">
        <ele>381</ele>
        <time>2011-12-23T19:06:21Z</time>
      </trkpt>
      <trkpt lat="45.84468" lon="4.81353">
        <ele>381</ele>
        <time>2011-12-23T19:06:23Z</time>
      </trkpt>
      <trkpt lat="45.84466" lon="4.81365">
        <ele>379</ele>
        <time>2011-12-23T19:06:28Z</time>
      </trkpt>
      <trkpt lat="45.84467" lon="4.81366">
        <ele>379</ele>
        <time>2011-12-23T19:06:29Z</time>
      </trkpt>
      <trkpt lat="45.84468" lon="4.81368">
        <ele>378</ele>
        <time>2011-12-23T19:06:33Z</time>
      </trkpt>
      <trkpt lat="45.84469" lon="4.81372">
        <ele>378</ele>
        <time>2011-12-23T19:06:41Z</time>
      </trkpt>
      <trkpt lat="45.8447" lon="4.81374">
        <ele>377</ele>
        <time>2011-12-23T19:06:47Z</time>
      </trkpt>
      <trkpt lat="45.84466" lon="4.8138">
        <ele>377</ele>
        <time>2011-12-23T19:06:49Z</time>
      </trkpt>
      <trkpt lat="45.84471" lon="4.81387">
        <ele>375</ele>
        <time>2011-12-23T19:06:52Z</time>
      </trkpt>
      <trkpt lat="45.84474" lon="4.81389">
        <ele>374</ele>
        <time>2011-12-23T19:06:53Z</time>
      </trkpt>
      <trkpt lat="45.84473" lon="4.81394">
        <ele>373</ele>
        <time>2011-12-23T19:06:55Z</time>
      </trkpt>
      <trkpt lat="45.84474" lon="4.81395">
        <ele>373</ele>
        <time>2011-12-23T19:06:56Z</time>
      </trkpt>
      <trkpt lat="45.84474" lon="4.81401">
        <ele>372</ele>
        <time>2011-12-23T19:06:59Z</time>
      </trkpt>
      <trkpt lat="45.84475" lon="4.81403">
        <ele>371</ele>
        <time>2011-12-23T19:07:02Z</time>
      </trkpt>
      <trkpt lat="45.84478" lon="4.8141">
        <ele>369</ele>
        <time>2011-12-23T19:07:07Z</time>
      </trkpt>
      <trkpt lat="45.84478" lon="4.81413">
        <ele>369</ele>
        <time>2011-12-23T19:07:10Z</time>
      </trkpt>
      <trkpt lat="45.84479" lon="4.81415">
        <ele>368</ele>
        <time>2011-12-23T19:07:12Z</time>
      </trkpt>
      <trkpt lat="45.84478" lon="4.81417">
        <ele>356</ele>
        <time>2011-12-23T19:07:13Z</time>
      </trkpt>
      <trkpt lat="45.84477" lon="4.8142">
        <ele>356</ele>
        <time>2011-12-23T19:07:15Z</time>
      </trkpt>
      <trkpt lat="45.84475" lon="4.81423">
        <ele>356</ele>
        <time>2011-12-23T19:07:19Z</time>
      </trkpt>
      <trkpt lat="45.84476" lon="4.8143">
        <ele>355</ele>
        <time>2011-12-23T19:07:24Z</time>
      </trkpt>
      <trkpt lat="45.84476" lon="4.81431">
        <ele>355</ele>
        <time>2011-12-23T19:07:25Z</time>
      </trkpt>
      <trkpt lat="45.84475" lon="4.81437">
        <ele>355</ele>
        <time>2011-12-23T19:07:28Z</time>
      </trkpt>
      <trkpt lat="45.84475" lon="4.81441">
        <ele>355</ele>
        <time>2011-12-23T19:07:30Z</time>
      </trkpt>
      <trkpt lat="45.84475" lon="4.81443">
        <ele>354</ele>
        <time>2011-12-23T19:07:31Z</time>
      </trkpt>
      <trkpt lat="45.84476" lon="4.81449">
        <ele>354</ele>
        <time>2011-12-23T19:07:34Z</time>
      </trkpt>
      <trkpt lat="45.84479" lon="4.81455">
        <ele>353</ele>
        <time>2011-12-23T19:07:37Z</time>
      </trkpt>
      <trkpt lat="45.8448" lon="4.81457">
        <ele>352</ele>
        <time>2011-12-23T19:07:39Z</time>
      </trkpt>
      <trkpt lat="45.84482" lon="4.81459">
        <ele>352</ele>
        <time>2011-12-23T19:07:41Z</time>
      </trkpt>
      <trkpt lat="45.84483" lon="4.81463">
        <ele>351</ele>
        <time>2011-12-23T19:07:44Z</time>
      </trkpt>
      <trkpt lat="45.84483" lon="4.81465">
        <ele>350</ele>
        <time>2011-12-23T19:07:45Z</time>
      </trkpt>
      <trkpt lat="45.84484" lon="4.81467">
        <ele>350</ele>
        <time>2011-12-23T19:07:46Z</time>
      </trkpt>
      <trkpt lat="45.84483" lon="4.81472">
        <ele>349</ele>
        <time>2011-12-23T19:07:49Z</time>
      </trkpt>
      <trkpt lat="45.84484" lon="4.81474">
        <ele>348</ele>
        <time>2011-12-23T19:07:50Z</time>
      </trkpt>
      <trkpt lat="45.84487" lon="4.81482">
        <ele>345</ele>
        <time>2011-12-23T19:07:54Z</time>
      </trkpt>
      <trkpt lat="45.84488" lon="4.81485">
        <ele>344</ele>
        <time>2011-12-23T19:07:57Z</time>
      </trkpt>
      <trkpt lat="45.84488" lon="4.81487">
        <ele>344</ele>
        <time>2011-12-23T19:07:59Z</time>
      </trkpt>
      <trkpt lat="45.84487" lon="4.8149">
        <ele>343</ele>
        <time>2011-12-23T19:08:03Z</time>
      </trkpt>
      <trkpt lat="45.84486" lon="4.81491">
        <ele>343</ele>
        <time>2011-12-23T19:08:04Z</time>
      </trkpt>
      <trkpt lat="45.84487" lon="4.81493">
        <ele>342</ele>
        <time>2011-12-23T19:08:08Z</time>
      </trkpt>
      <trkpt lat="45.84486" lon="4.81499">
        <ele>341</ele>
        <time>2011-12-23T19:08:12Z</time>
      </trkpt>
      <trkpt lat="45.84486" lon="4.81503">
        <ele>333</ele>
        <time>2011-12-23T19:08:14Z</time>
      </trkpt>
      <trkpt lat="45.84486" lon="4.8151">
        <ele>333</ele>
        <time>2011-12-23T19:08:17Z</time>
      </trkpt>
      <trkpt lat="45.84485" lon="4.81513">
        <ele>333</ele>
        <time>2011-12-23T19:08:19Z</time>
      </trkpt>
      <trkpt lat="45.84486" lon="4.81516">
        <ele>333</ele>
        <time>2011-12-23T19:08:20Z</time>
      </trkpt>
      <trkpt lat="45.84486" lon="4.8152">
        <ele>333</ele>
        <time>2011-12-23T19:08:22Z</time>
      </trkpt>
      <trkpt lat="45.84487" lon="4.81528">
        <ele>332</ele>
        <time>2011-12-23T19:08:26Z</time>
      </trkpt>
      <trkpt lat="45.84487" lon="4.81529">
        <ele>332</ele>
        <time>2011-12-23T19:08:27Z</time>
      </trkpt>
      <trkpt lat="45.84487" lon="4.81536">
        <ele>331</ele>
        <time>2011-12-23T19:08:32Z</time>
      </trkpt>
      <trkpt lat="45.8449" lon="4.81544">
        <ele>329</ele>
        <time>2011-12-23T19:08:37Z</time>
      </trkpt>
      <trkpt lat="45.84488" lon="4.8155">
        <ele>328</ele>
        <time>2011-12-23T19:08:41Z</time>
      </trkpt>
      <trkpt lat="45.84487" lon="4.81556">
        <ele>327</ele>
        <time>2011-12-23T19:08:45Z</time>
      </trkpt>
      <trkpt lat="45.84488" lon="4.81557">
        <ele>327</ele>
        <time>2011-12-23T19:08:46Z</time>
      </trkpt>
      <trkpt lat="45.84486" lon="4.81562">
        <ele>326</ele>
        <time>2011-12-23T19:08:50Z</time>
      </trkpt>
      <trkpt lat="45.84485" lon="4.81566">
        <ele>325</ele>
        <time>2011-12-23T19:08:55Z</time>
      </trkpt>
      <trkpt lat="45.84487" lon="4.81569">
        <ele>324</ele>
        <time>2011-12-23T19:08:57Z</time>
      </trkpt>
      <trkpt lat="45.84489" lon="4.81571">
        <ele>323</ele>
        <time>2011-12-23T19:09:00Z</time>
      </trkpt>
      <trkpt lat="45.84489" lon="4.81571">
        <ele>322</ele>
        <time>2011-12-23T19:09:01Z</time>
      </trkpt>
      <trkpt lat="45.84495" lon="4.8157">
        <ele>321</ele>
        <time>2011-12-23T19:09:09Z</time>
      </trkpt>
      <trkpt lat="45.84494" lon="4.8157">
        <ele>321</ele>
        <time>2011-12-23T19:09:32Z</time>
      </trkpt>
      <trkpt lat="45.84489" lon="4.8156">
        <ele>326</ele>
        <time>2011-12-23T19:09:55Z</time>
      </trkpt>
      <trkpt lat="45.84494" lon="4.81558">
        <ele>326</ele>
        <time>2011-12-23T19:10:20Z</time>
      </trkpt>
      <trkpt lat="45.84499" lon="4.8155">
        <ele>327</ele>
        <time>2011-12-23T19:10:26Z</time>
      </trkpt>
      <trkpt lat="45.84501" lon="4.81546">
        <ele>326</ele>
        <time>2011-12-23T19:10:30Z</time>
      </trkpt>
      <trkpt lat="45.84501" lon="4.81542">
        <ele>326</ele>
        <time>2011-12-23T19:10:32Z</time>
      </trkpt>
      <trkpt lat="45.84504" lon="4.81534">
        <ele>328</ele>
        <time>2011-12-23T19:10:37Z</time>
      </trkpt>
      <trkpt lat="45.84504" lon="4.81532">
        <ele>328</ele>
        <time>2011-12-23T19:10:38Z</time>
      </trkpt>
      <trkpt lat="45.84506" lon="4.81527">
        <ele>329</ele>
        <time>2011-12-23T19:10:41Z</time>
      </trkpt>
      <trkpt lat="45.84507" lon="4.81522">
        <ele>329</ele>
        <time>2011-12-23T19:10:44Z</time>
      </trkpt>
      <trkpt lat="45.84507" lon="4.8152">
        <ele>329</ele>
        <time>2011-12-23T19:10:45Z</time>
      </trkpt>
      <trkpt lat="45.84507" lon="4.81518">
        <ele>330</ele>
        <time>2011-12-23T19:10:46Z</time>
      </trkpt>
      <trkpt lat="45.84508" lon="4.81514">
        <ele>330</ele>
        <time>2011-12-23T19:10:48Z</time>
      </trkpt>
      <trkpt lat="45.84512" lon="4.81509">
        <ele>330</ele>
        <time>2011-12-23T19:10:52Z</time>
      </trkpt>
      <trkpt lat="45.84514" lon="4.81507">
        <ele>330</ele>
        <time>2011-12-23T19:10:54Z</time>
      </trkpt>
      <trkpt lat="45.84519" lon="4.81504">
        <ele>331</ele>
        <time>2011-12-23T19:10:58Z</time>
      </trkpt>
      <trkpt lat="45.8452" lon="4.81503">
        <ele>331</ele>
        <time>2011-12-23T19:10:59Z</time>
      </trkpt>
      <trkpt lat="45.84526" lon="4.81499">
        <ele>340</ele>
        <time>2011-12-23T19:11:04Z</time>
      </trkpt>
      <trkpt lat="45.8453" lon="4.81497">
        <ele>341</ele>
        <time>2011-12-23T19:11:08Z</time>
      </trkpt>
      <trkpt lat="45.84536" lon="4.81493">
        <ele>341</ele>
        <time>2011-12-23T19:11:12Z</time>
      </trkpt>
      <trkpt lat="45.84537" lon="4.81493">
        <ele>341</ele>
        <time>2011-12-23T19:11:13Z</time>
      </trkpt>
      <trkpt lat="45.84539" lon="4.81492">
        <ele>342</ele>
        <time>2011-12-23T19:11:15Z</time>
      </trkpt>
      <trkpt lat="45.84541" lon="4.81489">
        <ele>342</ele>
        <time>2011-12-23T19:11:18Z</time>
      </trkpt>
      <trkpt lat="45.84547" lon="4.81486">
        <ele>342</ele>
        <time>2011-12-23T19:11:23Z</time>
      </trkpt>
      <trkpt lat="45.84547" lon="4.81485">
        <ele>342</ele>
        <time>2011-12-23T19:11:24Z</time>
      </trkpt>
      <trkpt lat="45.84551" lon="4.81482">
        <ele>343</ele>
        <time>2011-12-23T19:11:29Z</time>
      </trkpt>
      <trkpt lat="45.84552" lon="4.81482">
        <ele>343</ele>
        <time>2011-12-23T19:11:30Z</time>
      </trkpt>
      <trkpt lat="45.84553" lon="4.81482">
        <ele>343</ele>
        <time>2011-12-23T19:11:31Z</time>
      </trkpt>
      <trkpt lat="45.84557" lon="4.81479">
        <ele>343</ele>
        <time>2011-12-23T19:11:36Z</time>
      </trkpt>
      <trkpt lat="45.84561" lon="4.81475">
        <ele>343</ele>
        <time>2011-12-23T19:11:41Z</time>
      </trkpt>
      <trkpt lat="45.84568" lon="4.81472">
        <ele>344</ele>
        <time>2011-12-23T19:11:48Z</time>
      </trkpt>
      <trkpt lat="45.8457" lon="4.8147">
        <ele>344</ele>
        <time>2011-12-23T19:11:50Z</time>
      </trkpt>
      <trkpt lat="45.84573" lon="4.81468">
        <ele>344</ele>
        <time>2011-12-23T19:11:54Z</time>
      </trkpt>
      <trkpt lat="45.84574" lon="4.81467">
        <ele>344</ele>
        <time>2011-12-23T19:11:55Z</time>
      </trkpt>
      <trkpt lat="45.84577" lon="4.81466">
        <ele>345</ele>
        <time>2011-12-23T19:12:00Z</time>
      </trkpt>
      <trkpt lat="45.84577" lon="4.81466">
        <ele>345</ele>
        <time>2011-12-23T19:12:01Z</time>
      </trkpt>
      <trkpt lat="45.84584" lon="4.81461">
        <ele>354</ele>
        <time>2011-12-23T19:12:08Z</time>
      </trkpt>
      <trkpt lat="45.84586" lon="4.8146">
        <ele>355</ele>
        <time>2011-12-23T19:12:11Z</time>
      </trkpt>
      <trkpt lat="45.8459" lon="4.8146">
        <ele>355</ele>
        <time>2011-12-23T19:12:14Z</time>
      </trkpt>
      <trkpt lat="45.84592" lon="4.8146">
        <ele>355</ele>
        <time>2011-12-23T19:12:16Z</time>
      </trkpt>
      <trkpt lat="45.84594" lon="4.8146">
        <ele>355</ele>
        <time>2011-12-23T19:12:19Z</time>
      </trkpt>
      <trkpt lat="45.84594" lon="4.81459">
        <ele>355</ele>
        <time>2011-12-23T19:12:20Z</time>
      </trkpt>
      <trkpt lat="45.84598" lon="4.81458">
        <ele>356</ele>
        <time>2011-12-23T19:12:25Z</time>
      </trkpt>
      <trkpt lat="45.84601" lon="4.81457">
        <ele>356</ele>
        <time>2011-12-23T19:12:28Z</time>
      </trkpt>
      <trkpt lat="45.84603" lon="4.81456">
        <ele>357</ele>
        <time>2011-12-23T19:12:30Z</time>
      </trkpt>
      <trkpt lat="45.84604" lon="4.81455">
        <ele>357</ele>
        <time>2011-12-23T19:12:31Z</time>
      </trkpt>
      <trkpt lat="45.84606" lon="4.81453">
        <ele>357</ele>
        <time>2011-12-23T19:12:34Z</time>
      </trkpt>
      <trkpt lat="45.84613" lon="4.81447">
        <ele>358</ele>
        <time>2011-12-23T19:12:40Z</time>
      </trkpt>
      <trkpt lat="45.84619" lon="4.8144">
        <ele>359</ele>
        <time>2011-12-23T19:12:47Z</time>
      </trkpt>
      <trkpt lat="45.84622" lon="4.81437">
        <ele>360</ele>
        <time>2011-12-23T19:12:51Z</time>
      </trkpt>
      <trkpt lat="45.84622" lon="4.81436">
        <ele>360</ele>
        <time>2011-12-23T19:12:52Z</time>
      </trkpt>
      <trkpt lat="45.84625" lon="4.81435">
        <ele>360</ele>
        <time>2011-12-23T19:12:56Z</time>
      </trkpt>
      <trkpt lat="45.84626" lon="4.81433">
        <ele>360</ele>
        <time>2011-12-23T19:12:58Z</time>
      </trkpt>
      <trkpt lat="45.84632" lon="4.81431">
        <ele>361</ele>
        <time>2011-12-23T19:13:03Z</time>
      </trkpt>
      <trkpt lat="45.84634" lon="4.8143">
        <ele>362</ele>
        <time>2011-12-23T19:13:05Z</time>
      </trkpt>
      <trkpt lat="45.84635" lon="4.81428">
        <ele>362</ele>
        <time>2011-12-23T19:13:06Z</time>
      </trkpt>
      <trkpt lat="45.84637" lon="4.81428">
        <ele>362</ele>
        <time>2011-12-23T19:13:07Z</time>
      </trkpt>
      <trkpt lat="45.84638" lon="4.81428">
        <ele>362</ele>
        <time>2011-12-23T19:13:08Z</time>
      </trkpt>
      <trkpt lat="45.84639" lon="4.81427">
        <ele>362</ele>
        <time>2011-12-23T19:13:10Z</time>
      </trkpt>
      <trkpt lat="45.8464" lon="4.81423">
        <ele>363</ele>
        <time>2011-12-23T19:13:12Z</time>
      </trkpt>
      <trkpt lat="45.84643" lon="4.8142">
        <ele>363</ele>
        <time>2011-12-23T19:13:15Z</time>
      </trkpt>
      <trkpt lat="45.84643" lon="4.81422">
        <ele>363</ele>
        <time>2011-12-23T19:13:19Z</time>
      </trkpt>
      <trkpt lat="45.84666" lon="4.8142">
        <ele>368</ele>
        <time>2011-12-23T19:13:31Z</time>
      </trkpt>
      <trkpt lat="45.84665" lon="4.81414">
        <ele>370</ele>
        <time>2011-12-23T19:13:34Z</time>
      </trkpt>
      <trkpt lat="45.84664" lon="4.81409">
        <ele>371</ele>
        <time>2011-12-23T19:13:37Z</time>
      </trkpt>
      <trkpt lat="45.84667" lon="4.81404">
        <ele>376</ele>
        <time>2011-12-23T19:13:43Z</time>
      </trkpt>
      <trkpt lat="45.84686" lon="4.81403">
        <ele>380</ele>
        <time>2011-12-23T19:13:55Z</time>
      </trkpt>
      <trkpt lat="45.84683" lon="4.81396">
        <ele>380</ele>
        <time>2011-12-23T19:13:57Z</time>
      </trkpt>
      <trkpt lat="45.84682" lon="4.81392">
        <ele>381</ele>
        <time>2011-12-23T19:13:59Z</time>
      </trkpt>
      <trkpt lat="45.84681" lon="4.81389">
        <ele>381</ele>
        <time>2011-12-23T19:14:01Z</time>
      </trkpt>
      <trkpt lat="45.8468" lon="4.81388">
        <ele>381</ele>
        <time>2011-12-23T19:14:02Z</time>
      </trkpt>
      <trkpt lat="45.84682" lon="4.81381">
        <ele>382</ele>
        <time>2011-12-23T19:14:06Z</time>
      </trkpt>
      <trkpt lat="45.84683" lon="4.81378">
        <ele>383</ele>
        <time>2011-12-23T19:14:08Z</time>
      </trkpt>
      <trkpt lat="45.84684" lon="4.81374">
        <ele>383</ele>
        <time>2011-12-23T19:14:11Z</time>
      </trkpt>
      <trkpt lat="45.84685" lon="4.8137">
        <ele>384</ele>
        <time>2011-12-23T19:14:13Z</time>
      </trkpt>
      <trkpt lat="45.84686" lon="4.81363">
        <ele>384</ele>
        <time>2011-12-23T19:14:17Z</time>
      </trkpt>
      <trkpt lat="45.84687" lon="4.81362">
        <ele>384</ele>
        <time>2011-12-23T19:14:18Z</time>
      </trkpt>
      <trkpt lat="45.84687" lon="4.81361">
        <ele>385</ele>
        <time>2011-12-23T19:14:19Z</time>
      </trkpt>
      <trkpt lat="45.84687" lon="4.81359">
        <ele>385</ele>
        <time>2011-12-23T19:14:23Z</time>
      </trkpt>
      <trkpt lat="45.84686" lon="4.81359">
        <ele>385</ele>
        <time>2011-12-23T19:14:24Z</time>
      </trkpt>
      <trkpt lat="45.84685" lon="4.81355">
        <ele>385</ele>
        <time>2011-12-23T19:14:28Z</time>
      </trkpt>
      <trkpt lat="45.84684" lon="4.81353">
        <ele>385</ele>
        <time>2011-12-23T19:14:30Z</time>
      </trkpt>
      <trkpt lat="45.84684" lon="4.81352">
        <ele>385</ele>
        <time>2011-12-23T19:14:31Z</time>
      </trkpt>
      <trkpt lat="45.8468" lon="4.81349">
        <ele>385</ele>
        <time>2011-12-23T19:14:35Z</time>
      </trkpt>
      <trkpt lat="45.84678" lon="4.81345">
        <ele>385</ele>
        <time>2011-12-23T19:14:40Z</time>
      </trkpt>
      <trkpt lat="45.84677" lon="4.81344">
        <ele>385</ele>
        <time>2011-12-23T19:14:41Z</time>
      </trkpt>
      <trkpt lat="45.84677" lon="4.81343">
        <ele>384</ele>
        <time>2011-12-23T19:14:42Z</time>
      </trkpt>
      <trkpt lat="45.84673" lon="4.8134">
        <ele>384</ele>
        <time>2011-12-23T19:14:46Z</time>
      </trkpt>
      <trkpt lat="45.84672" lon="4.81336">
        <ele>384</ele>
        <time>2011-12-23T19:14:50Z</time>
      </trkpt>
      <trkpt lat="45.84671" lon="4.81332">
        <ele>387</ele>
        <time>2011-12-23T19:14:53Z</time>
      </trkpt>
      <trkpt lat="45.84672" lon="4.8133">
        <ele>387</ele>
        <time>2011-12-23T19:14:55Z</time>
      </trkpt>
      <trkpt lat="45.84671" lon="4.81326">
        <ele>388</ele>
        <time>2011-12-23T19:14:58Z</time>
      </trkpt>
      <trkpt lat="45.84671" lon="4.81325">
        <ele>389</ele>
        <time>2011-12-23T19:14:59Z</time>
      </trkpt>
      <trkpt lat="45.8467" lon="4.81322">
        <ele>390</ele>
        <time>2011-12-23T19:15:00Z</time>
      </trkpt>
      <trkpt lat="45.84673" lon="4.81316">
        <ele>392</ele>
        <time>2011-12-23T19:15:05Z</time>
      </trkpt>
      <trkpt lat="45.84673" lon="4.81309">
        <ele>394</ele>
        <time>2011-12-23T19:15:10Z</time>
      </trkpt>
      <trkpt lat="45.84673" lon="4.81308">
        <ele>394</ele>
        <time>2011-12-23T19:15:11Z</time>
      </trkpt>
      <trkpt lat="45.84672" lon="4.81305">
        <ele>395</ele>
        <time>2011-12-23T19:15:15Z</time>
      </trkpt>
      <trkpt lat="45.8467" lon="4.81298">
        <ele>396</ele>
        <time>2011-12-23T19:15:20Z</time>
      </trkpt>
      <trkpt lat="45.84669" lon="4.81297">
        <ele>396</ele>
        <time>2011-12-23T19:15:21Z</time>
      </trkpt>
      <trkpt lat="45.84668" lon="4.81296">
        <ele>397</ele>
        <time>2011-12-23T19:15:22Z</time>
      </trkpt>
      <trkpt lat="45.84667" lon="4.81293">
        <ele>397</ele>
        <time>2011-12-23T19:15:24Z</time>
      </trkpt>
      <trkpt lat="45.84667" lon="4.81288">
        <ele>398</ele>
        <time>2011-12-23T19:15:27Z</time>
      </trkpt>
      <trkpt lat="45.84667" lon="4.81284">
        <ele>399</ele>
        <time>2011-12-23T19:15:31Z</time>
      </trkpt>
      <trkpt lat="45.84668" lon="4.81282">
        <ele>399</ele>
        <time>2011-12-23T19:15:32Z</time>
      </trkpt>
      <trkpt lat="45.84667" lon="4.81281">
        <ele>399</ele>
        <time>2011-12-23T19:15:33Z</time>
      </trkpt>
      <trkpt lat="45.84668" lon="4.81275">
        <ele>400</ele>
        <time>2011-12-23T19:15:36Z</time>
      </trkpt>
      <trkpt lat="45.84668" lon="4.81274">
        <ele>400</ele>
        <time>2011-12-23T19:15:37Z</time>
      </trkpt>
      <trkpt lat="45.84669" lon="4.81273">
        <ele>401</ele>
        <time>2011-12-23T19:15:38Z</time>
      </trkpt>
      <trkpt lat="45.8467" lon="4.8127">
        <ele>401</ele>
        <time>2011-12-23T19:15:40Z</time>
      </trkpt>
      <trkpt lat="45.8467" lon="4.81267">
        <ele>401</ele>
        <time>2011-12-23T19:15:42Z</time>
      </trkpt>
      <trkpt lat="45.8467" lon="4.81262">
        <ele>402</ele>
        <time>2011-12-23T19:15:46Z</time>
      </trkpt>
      <trkpt lat="45.8467" lon="4.81258">
        <ele>403</ele>
        <time>2011-12-23T19:15:48Z</time>
      </trkpt>
      <trkpt lat="45.84671" lon="4.81255">
        <ele>403</ele>
        <time>2011-12-23T19:15:50Z</time>
      </trkpt>
      <trkpt lat="45.84672" lon="4.81252">
        <ele>403</ele>
        <time>2011-12-23T19:15:53Z</time>
      </trkpt>
      <trkpt lat="45.84672" lon="4.8125">
        <ele>403</ele>
        <time>2011-12-23T19:15:54Z</time>
      </trkpt>
      <trkpt lat="45.84673" lon="4.81241">
        <ele>410</ele>
        <time>2011-12-23T19:15:57Z</time>
      </trkpt>
      <trkpt lat="45.84674" lon="4.81234">
        <ele>412</ele>
        <time>2011-12-23T19:16:02Z</time>
      </trkpt>
      <trkpt lat="45.84675" lon="4.8123">
        <ele>413</ele>
        <time>2011-12-23T19:16:05Z</time>
      </trkpt>
      <trkpt lat="45.84676" lon="4.81229">
        <ele>414</ele>
        <time>2011-12-23T19:16:06Z</time>
      </trkpt>
      <trkpt lat="45.84673" lon="4.81222">
        <ele>415</ele>
        <time>2011-12-23T19:16:10Z</time>
      </trkpt>
      <trkpt lat="45.84673" lon="4.81221">
        <ele>415</ele>
        <time>2011-12-23T19:16:11Z</time>
      </trkpt>
      <trkpt lat="45.84676" lon="4.81217">
        <ele>417</ele>
        <time>2011-12-23T19:16:14Z</time>
      </trkpt>
      <trkpt lat="45.84675" lon="4.81214">
        <ele>417</ele>
        <time>2011-12-23T19:16:15Z</time>
      </trkpt>
      <trkpt lat="45.84675" lon="4.81205">
        <ele>419</ele>
        <time>2011-12-23T19:16:20Z</time>
      </trkpt>
      <trkpt lat="45.84675" lon="4.81204">
        <ele>419</ele>
        <time>2011-12-23T19:16:21Z</time>
      </trkpt>
      <trkpt lat="45.84677" lon="4.81199">
        <ele>420</ele>
        <time>2011-12-23T19:16:26Z</time>
      </trkpt>
      <trkpt lat="45.84677" lon="4.81197">
        <ele>420</ele>
        <time>2011-12-23T19:16:27Z</time>
      </trkpt>
      <trkpt lat="45.84678" lon="4.81191">
        <ele>421</ele>
        <time>2011-12-23T19:16:30Z</time>
      </trkpt>
      <trkpt lat="45.84678" lon="4.8119">
        <ele>421</ele>
        <time>2011-12-23T19:16:31Z</time>
      </trkpt>
      <trkpt lat="45.84682" lon="4.81187">
        <ele>422</ele>
        <time>2011-12-23T19:16:34Z</time>
      </trkpt>
      <trkpt lat="45.84683" lon="4.81186">
        <ele>422</ele>
        <time>2011-12-23T19:16:35Z</time>
      </trkpt>
      <trkpt lat="45.84684" lon="4.81184">
        <ele>422</ele>
        <time>2011-12-23T19:16:36Z</time>
      </trkpt>
      <trkpt lat="45.84684" lon="4.81174">
        <ele>423</ele>
        <time>2011-12-23T19:16:42Z</time>
      </trkpt>
      <trkpt lat="45.84684" lon="4.81172">
        <ele>423</ele>
        <time>2011-12-23T19:16:43Z</time>
      </trkpt>
      <trkpt lat="45.84685" lon="4.81168">
        <ele>423</ele>
        <time>2011-12-23T19:16:46Z</time>
      </trkpt>
      <trkpt lat="45.84688" lon="4.81162">
        <ele>432</ele>
        <time>2011-12-23T19:16:52Z</time>
      </trkpt>
      <trkpt lat="45.84689" lon="4.8116">
        <ele>432</ele>
        <time>2011-12-23T19:16:54Z</time>
      </trkpt>
      <trkpt lat="45.8469" lon="4.81155">
        <ele>433</ele>
        <time>2011-12-23T19:16:58Z</time>
      </trkpt>
      <trkpt lat="45.84688" lon="4.81153">
        <ele>432</ele>
        <time>2011-12-23T19:17:00Z</time>
      </trkpt>
      <trkpt lat="45.84687" lon="4.81151">
        <ele>433</ele>
        <time>2011-12-23T19:17:01Z</time>
      </trkpt>
      <trkpt lat="45.84688" lon="4.81149">
        <ele>433</ele>
        <time>2011-12-23T19:17:03Z</time>
      </trkpt>
      <trkpt lat="45.84688" lon="4.81142">
        <ele>434</ele>
        <time>2011-12-23T19:17:08Z</time>
      </trkpt>
      <trkpt lat="45.84688" lon="4.8114">
        <ele>434</ele>
        <time>2011-12-23T19:17:09Z</time>
      </trkpt>
      <trkpt lat="45.84689" lon="4.81132">
        <ele>435</ele>
        <time>2011-12-23T19:17:14Z</time>
      </trkpt>
      <trkpt lat="45.8469" lon="4.8113">
        <ele>435</ele>
        <time>2011-12-23T19:17:16Z</time>
      </trkpt>
      <trkpt lat="45.84691" lon="4.81125">
        <ele>435</ele>
        <time>2011-12-23T19:17:20Z</time>
      </trkpt>
      <trkpt lat="45.84693" lon="4.81124">
        <ele>436</ele>
        <time>2011-12-23T19:17:25Z</time>
      </trkpt>
      <trkpt lat="45.84694" lon="4.81123">
        <ele>436</ele>
        <time>2011-12-23T19:17:26Z</time>
      </trkpt>
      <trkpt lat="45.84694" lon="4.81117">
        <ele>436</ele>
        <time>2011-12-23T19:17:30Z</time>
      </trkpt>
      <trkpt lat="45.84695" lon="4.81115">
        <ele>436</ele>
        <time>2011-12-23T19:17:31Z</time>
      </trkpt>
      <trkpt lat="45.84694" lon="4.81109">
        <ele>437</ele>
        <time>2011-12-23T19:17:35Z</time>
      </trkpt>
      <trkpt lat="45.84695" lon="4.81108">
        <ele>437</ele>
        <time>2011-12-23T19:17:36Z</time>
      </trkpt>
      <trkpt lat="45.84697" lon="4.81103">
        <ele>437</ele>
        <time>2011-12-23T19:17:39Z</time>
      </trkpt>
      <trkpt lat="45.84699" lon="4.81099">
        <ele>437</ele>
        <time>2011-12-23T19:17:41Z</time>
      </trkpt>
      <trkpt lat="45.84701" lon="4.81091">
        <ele>438</ele>
        <time>2011-12-23T19:17:47Z</time>
      </trkpt>
      <trkpt lat="45.847" lon="4.81084">
        <ele>438</ele>
        <time>2011-12-23T19:17:52Z</time>
      </trkpt>
      <trkpt lat="45.847" lon="4.81083">
        <ele>445</ele>
        <time>2011-12-23T19:17:53Z</time>
      </trkpt>
      <trkpt lat="45.84701" lon="4.81081">
        <ele>445</ele>
        <time>2011-12-23T19:17:55Z</time>
      </trkpt>
      <trkpt lat="45.84701" lon="4.81079">
        <ele>445</ele>
        <time>2011-12-23T19:17:57Z</time>
      </trkpt>
      <trkpt lat="45.84702" lon="4.81077">
        <ele>445</ele>
        <time>2011-12-23T19:17:58Z</time>
      </trkpt>
      <trkpt lat="45.84707" lon="4.81065">
        <ele>446</ele>
        <time>2011-12-23T19:18:04Z</time>
      </trkpt>
      <trkpt lat="45.84709" lon="4.81059">
        <ele>447</ele>
        <time>2011-12-23T19:18:07Z</time>
      </trkpt>
      <trkpt lat="45.84711" lon="4.81055">
        <ele>447</ele>
        <time>2011-12-23T19:18:09Z</time>
      </trkpt>
      <trkpt lat="45.84713" lon="4.81052">
        <ele>447</ele>
        <time>2011-12-23T19:18:11Z</time>
      </trkpt>
      <trkpt lat="45.84715" lon="4.81045">
        <ele>448</ele>
        <time>2011-12-23T19:18:16Z</time>
      </trkpt>
      <trkpt lat="45.84715" lon="4.81043">
        <ele>448</ele>
        <time>2011-12-23T19:18:17Z</time>
      </trkpt>
      <trkpt lat="45.84717" lon="4.81032">
        <ele>448</ele>
        <time>2011-12-23T19:18:22Z</time>
      </trkpt>
      <trkpt lat="45.84718" lon="4.8103">
        <ele>449</ele>
        <time>2011-12-23T19:18:23Z</time>
      </trkpt>
      <trkpt lat="45.84719" lon="4.81019">
        <ele>449</ele>
        <time>2011-12-23T19:18:28Z</time>
      </trkpt>
      <trkpt lat="45.84724" lon="4.81014">
        <ele>449</ele>
        <time>2011-12-23T19:18:33Z</time>
      </trkpt>
      <trkpt lat="45.84728" lon="4.81011">
        <ele>450</ele>
        <time>2011-12-23T19:18:37Z</time>
      </trkpt>
      <trkpt lat="45.84729" lon="4.81008">
        <ele>450</ele>
        <time>2011-12-23T19:18:39Z</time>
      </trkpt>
      <trkpt lat="45.84731" lon="4.81001">
        <ele>450</ele>
        <time>2011-12-23T19:18:45Z</time>
      </trkpt>
      <trkpt lat="45.84733" lon="4.81">
        <ele>450</ele>
        <time>2011-12-23T19:18:46Z</time>
      </trkpt>
      <trkpt lat="45.84732" lon="4.80995">
        <ele>455</ele>
        <time>2011-12-23T19:18:51Z</time>
      </trkpt>
      <trkpt lat="45.84733" lon="4.80992">
        <ele>455</ele>
        <time>2011-12-23T19:18:53Z</time>
      </trkpt>
      <trkpt lat="45.84733" lon="4.80988">
        <ele>455</ele>
        <time>2011-12-23T19:18:55Z</time>
      </trkpt>
      <trkpt lat="45.84733" lon="4.80986">
        <ele>455</ele>
        <time>2011-12-23T19:18:56Z</time>
      </trkpt>
      <trkpt lat="45.84736" lon="4.80981">
        <ele>456</ele>
        <time>2011-12-23T19:19:01Z</time>
      </trkpt>
      <trkpt lat="45.84736" lon="4.80976">
        <ele>456</ele>
        <time>2011-12-23T19:19:06Z</time>
      </trkpt>
      <trkpt lat="45.84739" lon="4.80976">
        <ele>456</ele>
        <time>2011-12-23T19:19:12Z</time>
      </trkpt>
      <trkpt lat="45.8474" lon="4.80978">
        <ele>456</ele>
        <time>2011-12-23T19:19:17Z</time>
      </trkpt>
      <trkpt lat="45.84739" lon="4.80983">
        <ele>455</ele>
        <time>2011-12-23T19:19:21Z</time>
      </trkpt>
      <trkpt lat="45.84739" lon="4.80984">
        <ele>455</ele>
        <time>2011-12-23T19:19:22Z</time>
      </trkpt>
      <trkpt lat="45.8474" lon="4.80984">
        <ele>455</ele>
        <time>2011-12-23T19:19:23Z</time>
      </trkpt>
      <trkpt lat="45.84739" lon="4.80988">
        <ele>455</ele>
        <time>2011-12-23T19:19:27Z</time>
      </trkpt>
      <trkpt lat="45.84738" lon="4.80987">
        <ele>455</ele>
        <time>2011-12-23T19:19:50Z</time>
      </trkpt>
      <trkpt lat="45.84734" lon="4.80988">
        <ele>455</ele>
        <time>2011-12-23T19:20:01Z</time>
      </trkpt>
      <trkpt lat="45.84733" lon="4.80984">
        <ele>456</ele>
        <time>2011-12-23T19:20:31Z</time>
      </trkpt>
      <trkpt lat="45.84734" lon="4.80977">
        <ele>456</ele>
        <time>2011-12-23T19:20:48Z</time>
      </trkpt>
      <trkpt lat="45.84734" lon="4.80976">
        <ele>456</ele>
        <time>2011-12-23T19:20:49Z</time>
      </trkpt>
      <trkpt lat="45.84732" lon="4.80988">
        <ele>455</ele>
        <time>2011-12-23T19:21:45Z</time>
      </trkpt>
      <trkpt lat="45.84731" lon="4.8099">
        <ele>455</ele>
        <time>2011-12-23T19:21:48Z</time>
      </trkpt>
      <trkpt lat="45.84728" lon="4.80993">
        <ele>455</ele>
        <time>2011-12-23T19:21:51Z</time>
      </trkpt>
      <trkpt lat="45.84727" lon="4.80994">
        <ele>455</ele>
        <time>2011-12-23T19:21:52Z</time>
      </trkpt>
      <trkpt lat="45.84726" lon="4.80996">
        <ele>455</ele>
        <time>2011-12-23T19:21:53Z</time>
      </trkpt>
      <trkpt lat="45.84721" lon="4.81002">
        <ele>450</ele>
        <time>2011-12-23T19:21:56Z</time>
      </trkpt>
      <trkpt lat="45.84717" lon="4.8101">
        <ele>450</ele>
        <time>2011-12-23T19:22:00Z</time>
      </trkpt>
      <trkpt lat="45.84715" lon="4.81013">
        <ele>449</ele>
        <time>2011-12-23T19:22:01Z</time>
      </trkpt>
      <trkpt lat="45.84711" lon="4.81023">
        <ele>449</ele>
        <time>2011-12-23T19:22:06Z</time>
      </trkpt>
      <trkpt lat="45.84705" lon="4.81031">
        <ele>449</ele>
        <time>2011-12-23T19:22:10Z</time>
      </trkpt>
      <trkpt lat="45.84704" lon="4.81033">
        <ele>448</ele>
        <time>2011-12-23T19:22:11Z</time>
      </trkpt>
      <trkpt lat="45.84697" lon="4.81044">
        <ele>448</ele>
        <time>2011-12-23T19:22:16Z</time>
      </trkpt>
      <trkpt lat="45.84691" lon="4.81055">
        <ele>446</ele>
        <time>2011-12-23T19:22:21Z</time>
      </trkpt>
      <trkpt lat="45.8469" lon="4.81057">
        <ele>446</ele>
        <time>2011-12-23T19:22:22Z</time>
      </trkpt>
      <trkpt lat="45.84688" lon="4.81061">
        <ele>446</ele>
        <time>2011-12-23T19:22:24Z</time>
      </trkpt>
      <trkpt lat="45.84685" lon="4.81068">
        <ele>445</ele>
        <time>2011-12-23T19:22:27Z</time>
      </trkpt>
      <trkpt lat="45.8468" lon="4.81078">
        <ele>443</ele>
        <time>2011-12-23T19:22:30Z</time>
      </trkpt>
      <trkpt lat="45.84677" lon="4.81086">
        <ele>439</ele>
        <time>2011-12-23T19:22:33Z</time>
      </trkpt>
      <trkpt lat="45.84671" lon="4.811">
        <ele>438</ele>
        <time>2011-12-23T19:22:37Z</time>
      </trkpt>
      <trkpt lat="45.8467" lon="4.81103">
        <ele>437</ele>
        <time>2011-12-23T19:22:38Z</time>
      </trkpt>
      <trkpt lat="45.84664" lon="4.81117">
        <ele>435</ele>
        <time>2011-12-23T19:22:43Z</time>
      </trkpt>
      <trkpt lat="45.84662" lon="4.81123">
        <ele>434</ele>
        <time>2011-12-23T19:22:45Z</time>
      </trkpt>
      <trkpt lat="45.84659" lon="4.81132">
        <ele>433</ele>
        <time>2011-12-23T19:22:48Z</time>
      </trkpt>
      <trkpt lat="45.84652" lon="4.81146">
        <ele>432</ele>
        <time>2011-12-23T19:22:52Z</time>
      </trkpt>
      <trkpt lat="45.84651" lon="4.81148">
        <ele>432</ele>
        <time>2011-12-23T19:22:53Z</time>
      </trkpt>
      <trkpt lat="45.84646" lon="4.81163">
        <ele>431</ele>
        <time>2011-12-23T19:22:58Z</time>
      </trkpt>
      <trkpt lat="45.84644" lon="4.81169">
        <ele>422</ele>
        <time>2011-12-23T19:23:00Z</time>
      </trkpt>
      <trkpt lat="45.84641" lon="4.81176">
        <ele>422</ele>
        <time>2011-12-23T19:23:03Z</time>
      </trkpt>
      <trkpt lat="45.84634" lon="4.81193">
        <ele>420</ele>
        <time>2011-12-23T19:23:09Z</time>
      </trkpt>
      <trkpt lat="45.84627" lon="4.81211">
        <ele>418</ele>
        <time>2011-12-23T19:23:15Z</time>
      </trkpt>
      <trkpt lat="45.84625" lon="4.81215">
        <ele>418</ele>
        <time>2011-12-23T19:23:16Z</time>
      </trkpt>
      <trkpt lat="45.84618" lon="4.81232">
        <ele>417</ele>
        <time>2011-12-23T19:23:21Z</time>
      </trkpt>
      <trkpt lat="45.84614" lon="4.81239">
        <ele>416</ele>
        <time>2011-12-23T19:23:23Z</time>
      </trkpt>
      <trkpt lat="45.84607" lon="4.81251">
        <ele>405</ele>
        <time>2011-12-23T19:23:27Z</time>
      </trkpt>
      <trkpt lat="45.84601" lon="4.8126">
        <ele>406</ele>
        <time>2011-12-23T19:23:30Z</time>
      </trkpt>
      <trkpt lat="45.84597" lon="4.81264">
        <ele>406</ele>
        <time>2011-12-23T19:23:32Z</time>
      </trkpt>
      <trkpt lat="45.84584" lon="4.81275">
        <ele>404</ele>
        <time>2011-12-23T19:23:37Z</time>
      </trkpt>
      <trkpt lat="45.84582" lon="4.81276">
        <ele>404</ele>
        <time>2011-12-23T19:23:38Z</time>
      </trkpt>
      <trkpt lat="45.84567" lon="4.81279">
        <ele>403</ele>
        <time>2011-12-23T19:23:43Z</time>
      </trkpt>
      <trkpt lat="45.84564" lon="4.81278">
        <ele>402</ele>
        <time>2011-12-23T19:23:44Z</time>
      </trkpt>
      <trkpt lat="45.84551" lon="4.81276">
        <ele>402</ele>
        <time>2011-12-23T19:23:49Z</time>
      </trkpt>
      <trkpt lat="45.84545" lon="4.81275">
        <ele>401</ele>
        <time>2011-12-23T19:23:51Z</time>
      </trkpt>
      <trkpt lat="45.84535" lon="4.81272">
        <ele>401</ele>
        <time>2011-12-23T19:23:55Z</time>
      </trkpt>
      <trkpt lat="45.84528" lon="4.81266">
        <ele>401</ele>
        <time>2011-12-23T19:23:58Z</time>
      </trkpt>
      <trkpt lat="45.84523" lon="4.81262">
        <ele>401</ele>
        <time>2011-12-23T19:24:00Z</time>
      </trkpt>
      <trkpt lat="45.84514" lon="4.81249">
        <ele>409</ele>
        <time>2011-12-23T19:24:05Z</time>
      </trkpt>
      <trkpt lat="45.84512" lon="4.81246">
        <ele>409</ele>
        <time>2011-12-23T19:24:06Z</time>
      </trkpt>
      <trkpt lat="45.84502" lon="4.81234">
        <ele>410</ele>
        <time>2011-12-23T19:24:11Z</time>
      </trkpt>
      <trkpt lat="45.84499" lon="4.81232">
        <ele>409</ele>
        <time>2011-12-23T19:24:12Z</time>
      </trkpt>
      <trkpt lat="45.84491" lon="4.81226">
        <ele>411</ele>
        <time>2011-12-23T19:24:15Z</time>
      </trkpt>
      <trkpt lat="45.84483" lon="4.81215">
        <ele>412</ele>
        <time>2011-12-23T19:24:19Z</time>
      </trkpt>
      <trkpt lat="45.84481" lon="4.81211">
        <ele>413</ele>
        <time>2011-12-23T19:24:20Z</time>
      </trkpt>
      <trkpt lat="45.8447" lon="4.81196">
        <ele>414</ele>
        <time>2011-12-23T19:24:25Z</time>
      </trkpt>
      <trkpt lat="45.84469" lon="4.81193">
        <ele>415</ele>
        <time>2011-12-23T19:24:26Z</time>
      </trkpt>
      <trkpt lat="45.8446" lon="4.81179">
        <ele>416</ele>
        <time>2011-12-23T19:24:32Z</time>
      </trkpt>
      <trkpt lat="45.84458" lon="4.81176">
        <ele>416</ele>
        <time>2011-12-23T19:24:34Z</time>
      </trkpt>
      <trkpt lat="45.84458" lon="4.81175">
        <ele>416</ele>
        <time>2011-12-23T19:24:35Z</time>
      </trkpt>
      <trkpt lat="45.84458" lon="4.81171">
        <ele>416</ele>
        <time>2011-12-23T19:24:37Z</time>
      </trkpt>
      <trkpt lat="45.8446" lon="4.81164">
        <ele>423</ele>
        <time>2011-12-23T19:24:41Z</time>
      </trkpt>
      <trkpt lat="45.84459" lon="4.81163">
        <ele>423</ele>
        <time>2011-12-23T19:24:43Z</time>
      </trkpt>
      <trkpt lat="45.84459" lon="4.8116">
        <ele>424</ele>
        <time>2011-12-23T19:24:46Z</time>
      </trkpt>
      <trkpt lat="45.84457" lon="4.81159">
        <ele>424</ele>
        <time>2011-12-23T19:24:50Z</time>
      </trkpt>
      <trkpt lat="45.84453" lon="4.81164">
        <ele>424</ele>
        <time>2011-12-23T19:24:56Z</time>
      </trkpt>
      <trkpt lat="45.84452" lon="4.81165">
        <ele>424</ele>
        <time>2011-12-23T19:24:57Z</time>
      </trkpt>
      <trkpt lat="45.84446" lon="4.81174">
        <ele>417</ele>
        <time>2011-12-23T19:25:04Z</time>
      </trkpt>
      <trkpt lat="45.84445" lon="4.81174">
        <ele>417</ele>
        <time>2011-12-23T19:25:06Z</time>
      </trkpt>
      <trkpt lat="45.84442" lon="4.81179">
        <ele>417</ele>
        <time>2011-12-23T19:25:10Z</time>
      </trkpt>
      <trkpt lat="45.8444" lon="4.81182">
        <ele>417</ele>
        <time>2011-12-23T19:25:12Z</time>
      </trkpt>
      <trkpt lat="45.84436" lon="4.81187">
        <ele>417</ele>
        <time>2011-12-23T19:25:16Z</time>
      </trkpt>
      <trkpt lat="45.84429" lon="4.812">
        <ele>416</ele>
        <time>2011-12-23T19:25:22Z</time>
      </trkpt>
      <trkpt lat="45.84428" lon="4.81202">
        <ele>416</ele>
        <time>2011-12-23T19:25:23Z</time>
      </trkpt>
      <trkpt lat="45.84422" lon="4.81212">
        <ele>415</ele>
        <time>2011-12-23T19:25:28Z</time>
      </trkpt>
      <trkpt lat="45.84414" lon="4.81222">
        <ele>421</ele>
        <time>2011-12-23T19:25:33Z</time>
      </trkpt>
      <trkpt lat="45.84413" lon="4.81224">
        <ele>420</ele>
        <time>2011-12-23T19:25:34Z</time>
      </trkpt>
      <trkpt lat="45.84406" lon="4.81234">
        <ele>419</ele>
        <time>2011-12-23T19:25:39Z</time>
      </trkpt>
      <trkpt lat="45.84401" lon="4.81243">
        <ele>418</ele>
        <time>2011-12-23T19:25:43Z</time>
      </trkpt>
      <trkpt lat="45.844" lon="4.81245">
        <ele>419</ele>
        <time>2011-12-23T19:25:44Z</time>
      </trkpt>
      <trkpt lat="45.84391" lon="4.81262">
        <ele>414</ele>
        <time>2011-12-23T19:25:51Z</time>
      </trkpt>
      <trkpt lat="45.8439" lon="4.81264">
        <ele>414</ele>
        <time>2011-12-23T19:25:52Z</time>
      </trkpt>
      <trkpt lat="45.84387" lon="4.81275">
        <ele>413</ele>
        <time>2011-12-23T19:25:56Z</time>
      </trkpt>
      <trkpt lat="45.84383" lon="4.81285">
        <ele>413</ele>
        <time>2011-12-23T19:26:01Z</time>
      </trkpt>
      <trkpt lat="45.84382" lon="4.81287">
        <ele>413</ele>
        <time>2011-12-23T19:26:02Z</time>
      </trkpt>
      <trkpt lat="45.84378" lon="4.81296">
        <ele>413</ele>
        <time>2011-12-23T19:26:06Z</time>
      </trkpt>
      <trkpt lat="45.84372" lon="4.81307">
        <ele>412</ele>
        <time>2011-12-23T19:26:10Z</time>
      </trkpt>
      <trkpt lat="45.84364" lon="4.81319">
        <ele>413</ele>
        <time>2011-12-23T19:26:15Z</time>
      </trkpt>
      <trkpt lat="45.84357" lon="4.81326">
        <ele>414</ele>
        <time>2011-12-23T19:26:19Z</time>
      </trkpt>
      <trkpt lat="45.84353" lon="4.8133">
        <ele>414</ele>
        <time>2011-12-23T19:26:21Z</time>
      </trkpt>
      <trkpt lat="45.84345" lon="4.81342">
        <ele>409</ele>
        <time>2011-12-23T19:26:26Z</time>
      </trkpt>
      <trkpt lat="45.84343" lon="4.81344">
        <ele>409</ele>
        <time>2011-12-23T19:26:27Z</time>
      </trkpt>
      <trkpt lat="45.84337" lon="4.81352">
        <ele>407</ele>
        <time>2011-12-23T19:26:31Z</time>
      </trkpt>
      <trkpt lat="45.84329" lon="4.81364">
        <ele>412</ele>
        <time>2011-12-23T19:26:37Z</time>
      </trkpt>
      <trkpt lat="45.84318" lon="4.81378">
        <ele>410</ele>
        <time>2011-12-23T19:26:43Z</time>
      </trkpt>
      <trkpt lat="45.84313" lon="4.8138">
        <ele>410</ele>
        <time>2011-12-23T19:26:45Z</time>
      </trkpt>
      <trkpt lat="45.84307" lon="4.81382">
        <ele>410</ele>
        <time>2011-12-23T19:26:48Z</time>
      </trkpt>
      <trkpt lat="45.84303" lon="4.81385">
        <ele>410</ele>
        <time>2011-12-23T19:26:53Z</time>
      </trkpt>
      <trkpt lat="45.84299" lon="4.81394">
        <ele>409</ele>
        <time>2011-12-23T19:27:14Z</time>
      </trkpt>
      <trkpt lat="45.84298" lon="4.81396">
        <ele>409</ele>
        <time>2011-12-23T19:27:15Z</time>
      </trkpt>
      <trkpt lat="45.84294" lon="4.8141">
        <ele>409</ele>
        <time>2011-12-23T19:27:20Z</time>
      </trkpt>
      <trkpt lat="45.8429" lon="4.81418">
        <ele>402</ele>
        <time>2011-12-23T19:27:23Z</time>
      </trkpt>
      <trkpt lat="45.84289" lon="4.81424">
        <ele>402</ele>
        <time>2011-12-23T19:27:25Z</time>
      </trkpt>
      <trkpt lat="45.84284" lon="4.81436">
        <ele>402</ele>
        <time>2011-12-23T19:27:29Z</time>
      </trkpt>
      <trkpt lat="45.84281" lon="4.8144">
        <ele>401</ele>
        <time>2011-12-23T19:27:31Z</time>
      </trkpt>
      <trkpt lat="45.8428" lon="4.81443">
        <ele>401</ele>
        <time>2011-12-23T19:27:32Z</time>
      </trkpt>
      <trkpt lat="45.8428" lon="4.81449">
        <ele>401</ele>
        <time>2011-12-23T19:27:34Z</time>
      </trkpt>
      <trkpt lat="45.84276" lon="4.8146">
        <ele>400</ele>
        <time>2011-12-23T19:27:38Z</time>
      </trkpt>
      <trkpt lat="45.84274" lon="4.81465">
        <ele>400</ele>
        <time>2011-12-23T19:27:40Z</time>
      </trkpt>
      <trkpt lat="45.84268" lon="4.81474">
        <ele>400</ele>
        <time>2011-12-23T19:27:44Z</time>
      </trkpt>
      <trkpt lat="45.84261" lon="4.81485">
        <ele>401</ele>
        <time>2011-12-23T19:27:49Z</time>
      </trkpt>
      <trkpt lat="45.84258" lon="4.8149">
        <ele>401</ele>
        <time>2011-12-23T19:27:51Z</time>
      </trkpt>
      <trkpt lat="45.84251" lon="4.81507">
        <ele>399</ele>
        <time>2011-12-23T19:27:57Z</time>
      </trkpt>
      <trkpt lat="45.84246" lon="4.81522">
        <ele>396</ele>
        <time>2011-12-23T19:28:02Z</time>
      </trkpt>
      <trkpt lat="45.8424" lon="4.8153">
        <ele>394</ele>
        <time>2011-12-23T19:28:06Z</time>
      </trkpt>
      <trkpt lat="45.84238" lon="4.81532">
        <ele>394</ele>
        <time>2011-12-23T19:28:07Z</time>
      </trkpt>
      <trkpt lat="45.84227" lon="4.81538">
        <ele>392</ele>
        <time>2011-12-23T19:28:13Z</time>
      </trkpt>
      <trkpt lat="45.84221" lon="4.81539">
        <ele>392</ele>
        <time>2011-12-23T19:28:16Z</time>
      </trkpt>
      <trkpt lat="45.8422" lon="4.81538">
        <ele>392</ele>
        <time>2011-12-23T19:28:17Z</time>
      </trkpt>
      <trkpt lat="45.84217" lon="4.81528">
        <ele>392</ele>
        <time>2011-12-23T19:28:21Z</time>
      </trkpt>
      <trkpt lat="45.84215" lon="4.81525">
        <ele>392</ele>
        <time>2011-12-23T19:28:22Z</time>
      </trkpt>
      <trkpt lat="45.84212" lon="4.81516">
        <ele>393</ele>
        <time>2011-12-23T19:28:25Z</time>
      </trkpt>
      <trkpt lat="45.84212" lon="4.81513">
        <ele>393</ele>
        <time>2011-12-23T19:28:26Z</time>
      </trkpt>
      <trkpt lat="45.8421" lon="4.815">
        <ele>400</ele>
        <time>2011-12-23T19:28:30Z</time>
      </trkpt>
      <trkpt lat="45.84212" lon="4.8149">
        <ele>400</ele>
        <time>2011-12-23T19:28:33Z</time>
      </trkpt>
      <trkpt lat="45.84213" lon="4.81488">
        <ele>400</ele>
        <time>2011-12-23T19:28:34Z</time>
      </trkpt>
      <trkpt lat="45.84215" lon="4.81473">
        <ele>401</ele>
        <time>2011-12-23T19:28:39Z</time>
      </trkpt>
      <trkpt lat="45.84215" lon="4.81471">
        <ele>401</ele>
        <time>2011-12-23T19:28:40Z</time>
      </trkpt>
      <trkpt lat="45.84212" lon="4.81465">
        <ele>402</ele>
        <time>2011-12-23T19:28:43Z</time>
      </trkpt>
      <trkpt lat="45.84209" lon="4.81471">
        <ele>401</ele>
        <time>2011-12-23T19:28:47Z</time>
      </trkpt>
      <trkpt lat="45.84207" lon="4.81472">
        <ele>401</ele>
        <time>2011-12-23T19:28:48Z</time>
      </trkpt>
      <trkpt lat="45.84206" lon="4.81472">
        <ele>401</ele>
        <time>2011-12-23T19:28:49Z</time>
      </trkpt>
      <trkpt lat="45.84196" lon="4.81468">
        <ele>400</ele>
        <time>2011-12-23T19:28:55Z</time>
      </trkpt>
      <trkpt lat="45.84184" lon="4.81472">
        <ele>399</ele>
        <time>2011-12-23T19:29:01Z</time>
      </trkpt>
      <trkpt lat="45.84176" lon="4.81472">
        <ele>398</ele>
        <time>2011-12-23T19:29:04Z</time>
      </trkpt>
      <trkpt lat="45.84169" lon="4.81469">
        <ele>398</ele>
        <time>2011-12-23T19:29:07Z</time>
      </trkpt>
      <trkpt lat="45.84159" lon="4.81462">
        <ele>386</ele>
        <time>2011-12-23T19:29:12Z</time>
      </trkpt>
      <trkpt lat="45.84155" lon="4.81459">
        <ele>386</ele>
        <time>2011-12-23T19:29:14Z</time>
      </trkpt>
      <trkpt lat="45.84146" lon="4.81453">
        <ele>385</ele>
        <time>2011-12-23T19:29:19Z</time>
      </trkpt>
      <trkpt lat="45.84143" lon="4.81449">
        <ele>385</ele>
        <time>2011-12-23T19:29:21Z</time>
      </trkpt>
      <trkpt lat="45.84139" lon="4.81443">
        <ele>386</ele>
        <time>2011-12-23T19:29:23Z</time>
      </trkpt>
      <trkpt lat="45.84127" lon="4.81433">
        <ele>384</ele>
        <time>2011-12-23T19:29:29Z</time>
      </trkpt>
      <trkpt lat="45.84118" lon="4.8142">
        <ele>383</ele>
        <time>2011-12-23T19:29:35Z</time>
      </trkpt>
      <trkpt lat="45.84116" lon="4.81418">
        <ele>383</ele>
        <time>2011-12-23T19:29:37Z</time>
      </trkpt>
      <trkpt lat="45.84113" lon="4.81413">
        <ele>397</ele>
        <time>2011-12-23T19:29:40Z</time>
      </trkpt>
      <trkpt lat="45.84106" lon="4.81407">
        <ele>395</ele>
        <time>2011-12-23T19:29:45Z</time>
      </trkpt>
      <trkpt lat="45.84098" lon="4.81401">
        <ele>395</ele>
        <time>2011-12-23T19:29:49Z</time>
      </trkpt>
      <trkpt lat="45.84096" lon="4.814">
        <ele>394</ele>
        <time>2011-12-23T19:29:50Z</time>
      </trkpt>
      <trkpt lat="45.84094" lon="4.81399">
        <ele>394</ele>
        <time>2011-12-23T19:29:51Z</time>
      </trkpt>
      <trkpt lat="45.84084" lon="4.81395">
        <ele>395</ele>
        <time>2011-12-23T19:29:55Z</time>
      </trkpt>
      <trkpt lat="45.84078" lon="4.81392">
        <ele>385</ele>
        <time>2011-12-23T19:29:58Z</time>
      </trkpt>
      <trkpt lat="45.84073" lon="4.81393">
        <ele>385</ele>
        <time>2011-12-23T19:30:00Z</time>
      </trkpt>
      <trkpt lat="45.84063" lon="4.81396">
        <ele>384</ele>
        <time>2011-12-23T19:30:05Z</time>
      </trkpt>
      <trkpt lat="45.84059" lon="4.81399">
        <ele>383</ele>
        <time>2011-12-23T19:30:07Z</time>
      </trkpt>
      <trkpt lat="45.84052" lon="4.81398">
        <ele>382</ele>
        <time>2011-12-23T19:30:11Z</time>
      </trkpt>
      <trkpt lat="45.84045" lon="4.81401">
        <ele>381</ele>
        <time>2011-12-23T19:30:16Z</time>
      </trkpt>
      <trkpt lat="45.8404" lon="4.81403">
        <ele>380</ele>
        <time>2011-12-23T19:30:19Z</time>
      </trkpt>
      <trkpt lat="45.84037" lon="4.81404">
        <ele>379</ele>
        <time>2011-12-23T19:30:21Z</time>
      </trkpt>
      <trkpt lat="45.84029" lon="4.81407">
        <ele>376</ele>
        <time>2011-12-23T19:30:27Z</time>
      </trkpt>
      <trkpt lat="45.84022" lon="4.81409">
        <ele>373</ele>
        <time>2011-12-23T19:30:33Z</time>
      </trkpt>
      <trkpt lat="45.84021" lon="4.81408">
        <ele>372</ele>
        <time>2011-12-23T19:30:34Z</time>
      </trkpt>
      <trkpt lat="45.84014" lon="4.81411">
        <ele>368</ele>
        <time>2011-12-23T19:30:38Z</time>
      </trkpt>
      <trkpt lat="45.8401" lon="4.81411">
        <ele>365</ele>
        <time>2011-12-23T19:30:40Z</time>
      </trkpt>
      <trkpt lat="45.84009" lon="4.81409">
        <ele>365</ele>
        <time>2011-12-23T19:30:42Z</time>
      </trkpt>
      <trkpt lat="45.84006" lon="4.8141">
        <ele>363</ele>
        <time>2011-12-23T19:30:45Z</time>
      </trkpt>
      <trkpt lat="45.84005" lon="4.8141">
        <ele>362</ele>
        <time>2011-12-23T19:30:46Z</time>
      </trkpt>
      <trkpt lat="45.84001" lon="4.81409">
        <ele>362</ele>
        <time>2011-12-23T19:30:48Z</time>
      </trkpt>
      <trkpt lat="45.83988" lon="4.81401">
        <ele>357</ele>
        <time>2011-12-23T19:30:54Z</time>
      </trkpt>
      <trkpt lat="45.83987" lon="4.814">
        <ele>358</ele>
        <time>2011-12-23T19:30:55Z</time>
      </trkpt>
      <trkpt lat="45.83981" lon="4.81398">
        <ele>358</ele>
        <time>2011-12-23T19:30:59Z</time>
      </trkpt>
      <trkpt lat="45.8398" lon="4.81398">
        <ele>358</ele>
        <time>2011-12-23T19:31:00Z</time>
      </trkpt>
      <trkpt lat="45.83974" lon="4.81389">
        <ele>359</ele>
        <time>2011-12-23T19:31:05Z</time>
      </trkpt>
      <trkpt lat="45.83973" lon="4.81387">
        <ele>360</ele>
        <time>2011-12-23T19:31:06Z</time>
      </trkpt>
      <trkpt lat="45.83966" lon="4.81384">
        <ele>359</ele>
        <time>2011-12-23T19:31:10Z</time>
      </trkpt>
      <trkpt lat="45.83958" lon="4.81378">
        <ele>359</ele>
        <time>2011-12-23T19:31:16Z</time>
      </trkpt>
      <trkpt lat="45.83957" lon="4.81376">
        <ele>360</ele>
        <time>2011-12-23T19:31:17Z</time>
      </trkpt>
      <trkpt lat="45.83956" lon="4.81374">
        <ele>360</ele>
        <time>2011-12-23T19:31:18Z</time>
      </trkpt>
      <trkpt lat="45.8395" lon="4.81371">
        <ele>359</ele>
        <time>2011-12-23T19:31:22Z</time>
      </trkpt>
      <trkpt lat="45.83947" lon="4.8137">
        <ele>359</ele>
        <time>2011-12-23T19:31:23Z</time>
      </trkpt>
      <trkpt lat="45.83945" lon="4.8137">
        <ele>359</ele>
        <time>2011-12-23T19:31:24Z</time>
      </trkpt>
      <trkpt lat="45.83938" lon="4.8137">
        <ele>358</ele>
        <time>2011-12-23T19:31:28Z</time>
      </trkpt>
      <trkpt lat="45.83933" lon="4.8137">
        <ele>357</ele>
        <time>2011-12-23T19:31:31Z</time>
      </trkpt>
      <trkpt lat="45.83928" lon="4.81372">
        <ele>356</ele>
        <time>2011-12-23T19:31:34Z</time>
      </trkpt>
      <trkpt lat="45.83924" lon="4.81375">
        <ele>355</ele>
        <time>2011-12-23T19:31:37Z</time>
      </trkpt>
      <trkpt lat="45.83922" lon="4.81376">
        <ele>355</ele>
        <time>2011-12-23T19:31:38Z</time>
      </trkpt>
      <trkpt lat="45.8392" lon="4.81376">
        <ele>355</ele>
        <time>2011-12-23T19:31:39Z</time>
      </trkpt>
      <trkpt lat="45.83914" lon="4.81383">
        <ele>337</ele>
        <time>2011-12-23T19:31:45Z</time>
      </trkpt>
      <trkpt lat="45.83904" lon="4.81393">
        <ele>334</ele>
        <time>2011-12-23T19:31:53Z</time>
      </trkpt>
      <trkpt lat="45.83896" lon="4.81405">
        <ele>332</ele>
        <time>2011-12-23T19:32:00Z</time>
      </trkpt>
      <trkpt lat="45.83893" lon="4.81413">
        <ele>332</ele>
        <time>2011-12-23T19:32:04Z</time>
      </trkpt>
      <trkpt lat="45.83893" lon="4.81417">
        <ele>318</ele>
        <time>2011-12-23T19:32:06Z</time>
      </trkpt>
      <trkpt lat="45.83893" lon="4.81421">
        <ele>318</ele>
        <time>2011-12-23T19:32:08Z</time>
      </trkpt>
      <trkpt lat="45.83895" lon="4.81423">
        <ele>318</ele>
        <time>2011-12-23T19:32:11Z</time>
      </trkpt>
      <trkpt lat="45.83899" lon="4.81431">
        <ele>318</ele>
        <time>2011-12-23T19:32:17Z</time>
      </trkpt>
      <trkpt lat="45.83898" lon="4.81433">
        <ele>317</ele>
        <time>2011-12-23T19:32:18Z</time>
      </trkpt>
      <trkpt lat="45.83898" lon="4.81438">
        <ele>316</ele>
        <time>2011-12-23T19:32:21Z</time>
      </trkpt>
      <trkpt lat="45.83897" lon="4.8144">
        <ele>316</ele>
        <time>2011-12-23T19:32:22Z</time>
      </trkpt>
      <trkpt lat="45.83891" lon="4.81448">
        <ele>313</ele>
        <time>2011-12-23T19:32:28Z</time>
      </trkpt>
      <trkpt lat="45.83886" lon="4.81449">
        <ele>312</ele>
        <time>2011-12-23T19:32:31Z</time>
      </trkpt>
      <trkpt lat="45.83882" lon="4.81449">
        <ele>312</ele>
        <time>2011-12-23T19:32:33Z</time>
      </trkpt>
      <trkpt lat="45.8388" lon="4.81448">
        <ele>312</ele>
        <time>2011-12-23T19:32:34Z</time>
      </trkpt>
      <trkpt lat="45.83868" lon="4.81448">
        <ele>311</ele>
        <time>2011-12-23T19:32:41Z</time>
      </trkpt>
      <trkpt lat="45.83866" lon="4.81449">
        <ele>311</ele>
        <time>2011-12-23T19:32:42Z</time>
      </trkpt>
      <trkpt lat="45.83858" lon="4.81452">
        <ele>310</ele>
        <time>2011-12-23T19:32:47Z</time>
      </trkpt>
      <trkpt lat="45.8385" lon="4.81458">
        <ele>308</ele>
        <time>2011-12-23T19:32:52Z</time>
      </trkpt>
      <trkpt lat="45.83841" lon="4.81468">
        <ele>306</ele>
        <time>2011-12-23T19:32:58Z</time>
      </trkpt>
      <trkpt lat="45.83836" lon="4.81475">
        <ele>304</ele>
        <time>2011-12-23T19:33:01Z</time>
      </trkpt>
      <trkpt lat="45.83832" lon="4.81479">
        <ele>302</ele>
        <time>2011-12-23T19:33:04Z</time>
      </trkpt>
      <trkpt lat="45.83827" lon="4.81485">
        <ele>301</ele>
        <time>2011-12-23T19:33:08Z</time>
      </trkpt>
      <trkpt lat="45.8382" lon="4.8149">
        <ele>301</ele>
        <time>2011-12-23T19:33:11Z</time>
      </trkpt>
      <trkpt lat="45.83815" lon="4.81493">
        <ele>301</ele>
        <time>2011-12-23T19:33:13Z</time>
      </trkpt>
      <trkpt lat="45.83808" lon="4.81496">
        <ele>303</ele>
        <time>2011-12-23T19:33:17Z</time>
      </trkpt>
      <trkpt lat="45.83806" lon="4.81495">
        <ele>303</ele>
        <time>2011-12-23T19:33:18Z</time>
      </trkpt>
      <trkpt lat="45.83802" lon="4.81496">
        <ele>304</ele>
        <time>2011-12-23T19:33:20Z</time>
      </trkpt>
      <trkpt lat="45.83794" lon="4.81495">
        <ele>305</ele>
        <time>2011-12-23T19:33:24Z</time>
      </trkpt>
      <trkpt lat="45.83788" lon="4.81495">
        <ele>305</ele>
        <time>2011-12-23T19:33:29Z</time>
      </trkpt>
      <trkpt lat="45.83786" lon="4.81502">
        <ele>297</ele>
        <time>2011-12-23T19:33:48Z</time>
      </trkpt>
      <trkpt lat="45.83786" lon="4.81497">
        <ele>305</ele>
        <time>2011-12-23T19:34:59Z</time>
      </trkpt>
      <trkpt lat="45.83789" lon="4.81504">
        <ele>296</ele>
        <time>2011-12-23T19:35:32Z</time>
      </trkpt>
      <trkpt lat="45.8379" lon="4.8151">
        <ele>296</ele>
        <time>2011-12-23T19:35:37Z</time>
      </trkpt>
      <trkpt lat="45.8379" lon="4.81511">
        <ele>296</ele>
        <time>2011-12-23T19:35:38Z</time>
      </trkpt>
      <trkpt lat="45.83792" lon="4.81524">
        <ele>295</ele>
        <time>2011-12-23T19:35:45Z</time>
      </trkpt>
      <trkpt lat="45.83792" lon="4.81534">
        <ele>294</ele>
        <time>2011-12-23T19:35:50Z</time>
      </trkpt>
      <trkpt lat="45.83793" lon="4.81536">
        <ele>294</ele>
        <time>2011-12-23T19:35:51Z</time>
      </trkpt>
      <trkpt lat="45.83794" lon="4.81549">
        <ele>293</ele>
        <time>2011-12-23T19:35:56Z</time>
      </trkpt>
      <trkpt lat="45.83796" lon="4.81561">
        <ele>292</ele>
        <time>2011-12-23T19:36:00Z</time>
      </trkpt>
      <trkpt lat="45.83796" lon="4.81566">
        <ele>292</ele>
        <time>2011-12-23T19:36:02Z</time>
      </trkpt>
      <trkpt lat="45.83796" lon="4.81571">
        <ele>292</ele>
        <time>2011-12-23T19:36:04Z</time>
      </trkpt>
      <trkpt lat="45.83796" lon="4.81576">
        <ele>292</ele>
        <time>2011-12-23T19:36:06Z</time>
      </trkpt>
      <trkpt lat="45.83795" lon="4.81588">
        <ele>283</ele>
        <time>2011-12-23T19:36:10Z</time>
      </trkpt>
      <trkpt lat="45.83797" lon="4.81604">
        <ele>282</ele>
        <time>2011-12-23T19:36:15Z</time>
      </trkpt>
      <trkpt lat="45.83798" lon="4.81616">
        <ele>281</ele>
        <time>2011-12-23T19:36:19Z</time>
      </trkpt>
      <trkpt lat="45.83799" lon="4.81619">
        <ele>281</ele>
        <time>2011-12-23T19:36:20Z</time>
      </trkpt>
      <trkpt lat="45.83805" lon="4.81638">
        <ele>278</ele>
        <time>2011-12-23T19:36:26Z</time>
      </trkpt>
      <trkpt lat="45.83806" lon="4.81641">
        <ele>277</ele>
        <time>2011-12-23T19:36:27Z</time>
      </trkpt>
      <trkpt lat="45.83807" lon="4.81652">
        <ele>276</ele>
        <time>2011-12-23T19:36:31Z</time>
      </trkpt>
      <trkpt lat="45.83808" lon="4.81654">
        <ele>276</ele>
        <time>2011-12-23T19:36:33Z</time>
      </trkpt>
      <trkpt lat="45.83809" lon="4.8166">
        <ele>275</ele>
        <time>2011-12-23T19:36:37Z</time>
      </trkpt>
      <trkpt lat="45.83813" lon="4.81665">
        <ele>273</ele>
        <time>2011-12-23T19:36:39Z</time>
      </trkpt>
      <trkpt lat="45.83817" lon="4.81674">
        <ele>265</ele>
        <time>2011-12-23T19:36:42Z</time>
      </trkpt>
      <trkpt lat="45.83823" lon="4.81689">
        <ele>264</ele>
        <time>2011-12-23T19:36:47Z</time>
      </trkpt>
      <trkpt lat="45.83825" lon="4.81696">
        <ele>264</ele>
        <time>2011-12-23T19:36:49Z</time>
      </trkpt>
      <trkpt lat="45.8383" lon="4.81714">
        <ele>261</ele>
        <time>2011-12-23T19:36:54Z</time>
      </trkpt>
      <trkpt lat="45.83831" lon="4.81719">
        <ele>260</ele>
        <time>2011-12-23T19:36:55Z</time>
      </trkpt>
      <trkpt lat="45.83834" lon="4.8174">
        <ele>252</ele>
        <time>2011-12-23T19:37:00Z</time>
      </trkpt>
      <trkpt lat="45.83835" lon="4.81744">
        <ele>251</ele>
        <time>2011-12-23T19:37:01Z</time>
      </trkpt>
      <trkpt lat="45.83837" lon="4.81757">
        <ele>248</ele>
        <time>2011-12-23T19:37:04Z</time>
      </trkpt>
      <trkpt lat="45.8384" lon="4.81773">
        <ele>247</ele>
        <time>2011-12-23T19:37:08Z</time>
      </trkpt>
      <trkpt lat="45.83844" lon="4.81792">
        <ele>245</ele>
        <time>2011-12-23T19:37:13Z</time>
      </trkpt>
      <trkpt lat="45.83846" lon="4.818">
        <ele>245</ele>
        <time>2011-12-23T19:37:15Z</time>
      </trkpt>
      <trkpt lat="45.83849" lon="4.81811">
        <ele>244</ele>
        <time>2011-12-23T19:37:18Z</time>
      </trkpt>
      <trkpt lat="45.83852" lon="4.81825">
        <ele>243</ele>
        <time>2011-12-23T19:37:22Z</time>
      </trkpt>
      <trkpt lat="45.83854" lon="4.81828">
        <ele>243</ele>
        <time>2011-12-23T19:37:23Z</time>
      </trkpt>
      <trkpt lat="45.83855" lon="4.81833">
        <ele>243</ele>
        <time>2011-12-23T19:37:25Z</time>
      </trkpt>
      <trkpt lat="45.83856" lon="4.81835">
        <ele>240</ele>
        <time>2011-12-23T19:37:27Z</time>
      </trkpt>
      <trkpt lat="45.8386" lon="4.81844">
        <ele>240</ele>
        <time>2011-12-23T19:37:32Z</time>
      </trkpt>
      <trkpt lat="45.83862" lon="4.81848">
        <ele>240</ele>
        <time>2011-12-23T19:37:36Z</time>
      </trkpt>
      <trkpt lat="45.83862" lon="4.81848">
        <ele>240</ele>
        <time>2011-12-23T19:37:37Z</time>
      </trkpt>
      <trkpt lat="45.83863" lon="4.81848">
        <ele>240</ele>
        <time>2011-12-23T19:37:38Z</time>
      </trkpt>
      <trkpt lat="45.83864" lon="4.8185">
        <ele>240</ele>
        <time>2011-12-23T19:37:45Z</time>
      </trkpt>
      <trkpt lat="45.83865" lon="4.81852">
        <ele>240</ele>
        <time>2011-12-23T19:37:53Z</time>
      </trkpt>
      <trkpt lat="45.83867" lon="4.81859">
        <ele>240</ele>
        <time>2011-12-23T19:37:59Z</time>
      </trkpt>
      <trkpt lat="45.83869" lon="4.81867">
        <ele>239</ele>
        <time>2011-12-23T19:38:04Z</time>
      </trkpt>
      <trkpt lat="45.83869" lon="4.81868">
        <ele>239</ele>
        <time>2011-12-23T19:38:05Z</time>
      </trkpt>
      <trkpt lat="45.8387" lon="4.8187">
        <ele>239</ele>
        <time>2011-12-23T19:38:06Z</time>
      </trkpt>
      <trkpt lat="45.83872" lon="4.81883">
        <ele>239</ele>
        <time>2011-12-23T19:38:10Z</time>
      </trkpt>
      <trkpt lat="45.83873" lon="4.81894">
        <ele>238</ele>
        <time>2011-12-23T19:38:13Z</time>
      </trkpt>
      <trkpt lat="45.83873" lon="4.81898">
        <ele>238</ele>
        <time>2011-12-23T19:38:14Z</time>
      </trkpt>
      <trkpt lat="45.83873" lon="4.81915">
        <ele>238</ele>
        <time>2011-12-23T19:38:19Z</time>
      </trkpt>
      <trkpt lat="45.83873" lon="4.81922">
        <ele>234</ele>
        <time>2011-12-23T19:38:21Z</time>
      </trkpt>
      <trkpt lat="45.83871" lon="4.81935">
        <ele>233</ele>
        <time>2011-12-23T19:38:25Z</time>
      </trkpt>
      <trkpt lat="45.83871" lon="4.81949">
        <ele>233</ele>
        <time>2011-12-23T19:38:29Z</time>
      </trkpt>
      <trkpt lat="45.83872" lon="4.81956">
        <ele>233</ele>
        <time>2011-12-23T19:38:31Z</time>
      </trkpt>
      <trkpt lat="45.83874" lon="4.81975">
        <ele>232</ele>
        <time>2011-12-23T19:38:37Z</time>
      </trkpt>
      <trkpt lat="45.83874" lon="4.81979">
        <ele>232</ele>
        <time>2011-12-23T19:38:38Z</time>
      </trkpt>
      <trkpt lat="45.83878" lon="4.81995">
        <ele>231</ele>
        <time>2011-12-23T19:38:43Z</time>
      </trkpt>
      <trkpt lat="45.8388" lon="4.82003">
        <ele>227</ele>
        <time>2011-12-23T19:38:45Z</time>
      </trkpt>
      <trkpt lat="45.83881" lon="4.82015">
        <ele>227</ele>
        <time>2011-12-23T19:38:48Z</time>
      </trkpt>
      <trkpt lat="45.8388" lon="4.82032">
        <ele>227</ele>
        <time>2011-12-23T19:38:52Z</time>
      </trkpt>
      <trkpt lat="45.83879" lon="4.82043">
        <ele>226</ele>
        <time>2011-12-23T19:38:55Z</time>
      </trkpt>
      <trkpt lat="45.83878" lon="4.82058">
        <ele>226</ele>
        <time>2011-12-23T19:38:59Z</time>
      </trkpt>
      <trkpt lat="45.83878" lon="4.82061">
        <ele>226</ele>
        <time>2011-12-23T19:39:00Z</time>
      </trkpt>
      <trkpt lat="45.83877" lon="4.82084">
        <ele>222</ele>
        <time>2011-12-23T19:39:06Z</time>
      </trkpt>
      <trkpt lat="45.83876" lon="4.82092">
        <ele>222</ele>
        <time>2011-12-23T19:39:08Z</time>
      </trkpt>
      <trkpt lat="45.83874" lon="4.82112">
        <ele>221</ele>
        <time>2011-12-23T19:39:13Z</time>
      </trkpt>
      <trkpt lat="45.83873" lon="4.8212">
        <ele>221</ele>
        <time>2011-12-23T19:39:15Z</time>
      </trkpt>
      <trkpt lat="45.83871" lon="4.82141">
        <ele>220</ele>
        <time>2011-12-23T19:39:20Z</time>
      </trkpt>
      <trkpt lat="45.83868" lon="4.82161">
        <ele>220</ele>
        <time>2011-12-23T19:39:25Z</time>
      </trkpt>
      <trkpt lat="45.83867" lon="4.82169">
        <ele>217</ele>
        <time>2011-12-23T19:39:27Z</time>
      </trkpt>
      <trkpt lat="45.83865" lon="4.82186">
        <ele>217</ele>
        <time>2011-12-23T19:39:31Z</time>
      </trkpt>
      <trkpt lat="45.83864" lon="4.82196">
        <ele>216</ele>
        <time>2011-12-23T19:39:34Z</time>
      </trkpt>
      <trkpt lat="45.83861" lon="4.82209">
        <ele>216</ele>
        <time>2011-12-23T19:39:38Z</time>
      </trkpt>
      <trkpt lat="45.83852" lon="4.82211">
        <ele>216</ele>
        <time>2011-12-23T19:39:42Z</time>
      </trkpt>
      <trkpt lat="45.83849" lon="4.82211">
        <ele>216</ele>
        <time>2011-12-23T19:39:43Z</time>
      </trkpt>
      <trkpt lat="45.83836" lon="4.82215">
        <ele>215</ele>
        <time>2011-12-23T19:39:49Z</time>
      </trkpt>
      <trkpt lat="45.83834" lon="4.82216">
        <ele>215</ele>
        <time>2011-12-23T19:39:50Z</time>
      </trkpt>
      <trkpt lat="45.83822" lon="4.82224">
        <ele>213</ele>
        <time>2011-12-23T19:39:55Z</time>
      </trkpt>
      <trkpt lat="45.83818" lon="4.82228">
        <ele>213</ele>
        <time>2011-12-23T19:39:57Z</time>
      </trkpt>
      <trkpt lat="45.83812" lon="4.82235">
        <ele>213</ele>
        <time>2011-12-23T19:40:00Z</time>
      </trkpt>
      <trkpt lat="45.83802" lon="4.82246">
        <ele>213</ele>
        <time>2011-12-23T19:40:05Z</time>
      </trkpt>
      <trkpt lat="45.838" lon="4.82248">
        <ele>213</ele>
        <time>2011-12-23T19:40:06Z</time>
      </trkpt>
      <trkpt lat="45.83787" lon="4.82254">
        <ele>208</ele>
        <time>2011-12-23T19:40:11Z</time>
      </trkpt>
      <trkpt lat="45.83785" lon="4.82256">
        <ele>208</ele>
        <time>2011-12-23T19:40:12Z</time>
      </trkpt>
      <trkpt lat="45.83777" lon="4.82264">
        <ele>208</ele>
        <time>2011-12-23T19:40:17Z</time>
      </trkpt>
      <trkpt lat="45.83769" lon="4.82271">
        <ele>208</ele>
        <time>2011-12-23T19:40:21Z</time>
      </trkpt>
      <trkpt lat="45.83762" lon="4.82276">
        <ele>208</ele>
        <time>2011-12-23T19:40:24Z</time>
      </trkpt>
      <trkpt lat="45.83752" lon="4.8228">
        <ele>208</ele>
        <time>2011-12-23T19:40:28Z</time>
      </trkpt>
      <trkpt lat="45.8375" lon="4.82282">
        <ele>208</ele>
        <time>2011-12-23T19:40:29Z</time>
      </trkpt>
      <trkpt lat="45.83738" lon="4.82282">
        <ele>208</ele>
        <time>2011-12-23T19:40:34Z</time>
      </trkpt>
      <trkpt lat="45.83735" lon="4.82287">
        <ele>208</ele>
        <time>2011-12-23T19:40:36Z</time>
      </trkpt>
      <trkpt lat="45.83729" lon="4.82294">
        <ele>208</ele>
        <time>2011-12-23T19:40:40Z</time>
      </trkpt>
      <trkpt lat="45.83725" lon="4.82296">
        <ele>208</ele>
        <time>2011-12-23T19:40:44Z</time>
      </trkpt>
      <trkpt lat="45.83724" lon="4.82295">
        <ele>208</ele>
        <time>2011-12-23T19:40:51Z</time>
      </trkpt>
      <trkpt lat="45.83724" lon="4.82301">
        <ele>208</ele>
        <time>2011-12-23T19:41:20Z</time>
      </trkpt>
      <trkpt lat="45.83721" lon="4.82301">
        <ele>208</ele>
        <time>2011-12-23T19:41:22Z</time>
      </trkpt>
      <trkpt lat="45.83712" lon="4.823">
        <ele>208</ele>
        <time>2011-12-23T19:41:26Z</time>
      </trkpt>
      <trkpt lat="45.83707" lon="4.823">
        <ele>208</ele>
        <time>2011-12-23T19:41:28Z</time>
      </trkpt>
      <trkpt lat="45.83697" lon="4.82301">
        <ele>208</ele>
        <time>2011-12-23T19:41:32Z</time>
      </trkpt>
      <trkpt lat="45.83689" lon="4.82295">
        <ele>208</ele>
        <time>2011-12-23T19:41:36Z</time>
      </trkpt>
      <trkpt lat="45.83687" lon="4.82294">
        <ele>208</ele>
        <time>2011-12-23T19:41:37Z</time>
      </trkpt>
      <trkpt lat="45.83685" lon="4.82294">
        <ele>209</ele>
        <time>2011-12-23T19:41:38Z</time>
      </trkpt>
      <trkpt lat="45.83672" lon="4.82291">
        <ele>209</ele>
        <time>2011-12-23T19:41:44Z</time>
      </trkpt>
      <trkpt lat="45.8367" lon="4.8229">
        <ele>209</ele>
        <time>2011-12-23T19:41:45Z</time>
      </trkpt>
      <trkpt lat="45.8366" lon="4.82286">
        <ele>213</ele>
        <time>2011-12-23T19:41:50Z</time>
      </trkpt>
      <trkpt lat="45.83653" lon="4.82279">
        <ele>213</ele>
        <time>2011-12-23T19:41:54Z</time>
      </trkpt>
      <trkpt lat="45.83651" lon="4.82277">
        <ele>213</ele>
        <time>2011-12-23T19:41:55Z</time>
      </trkpt>
      <trkpt lat="45.83637" lon="4.82268">
        <ele>214</ele>
        <time>2011-12-23T19:42:02Z</time>
      </trkpt>
      <trkpt lat="45.83623" lon="4.8226">
        <ele>214</ele>
        <time>2011-12-23T19:42:09Z</time>
      </trkpt>
      <trkpt lat="45.8362" lon="4.82259">
        <ele>214</ele>
        <time>2011-12-23T19:42:10Z</time>
      </trkpt>
      <trkpt lat="45.83611" lon="4.82262">
        <ele>215</ele>
        <time>2011-12-23T19:42:14Z</time>
      </trkpt>
      <trkpt lat="45.83604" lon="4.82273">
        <ele>215</ele>
        <time>2011-12-23T19:42:19Z</time>
      </trkpt>
      <trkpt lat="45.83603" lon="4.82276">
        <ele>215</ele>
        <time>2011-12-23T19:42:20Z</time>
      </trkpt>
      <trkpt lat="45.83603" lon="4.82291">
        <ele>216</ele>
        <time>2011-12-23T19:42:25Z</time>
      </trkpt>
      <trkpt lat="45.83603" lon="4.823">
        <ele>216</ele>
        <time>2011-12-23T19:42:28Z</time>
      </trkpt>
      <trkpt lat="45.83605" lon="4.82313">
        <ele>217</ele>
        <time>2011-12-23T19:42:32Z</time>
      </trkpt>
      <trkpt lat="45.83607" lon="4.82328">
        <ele>218</ele>
        <time>2011-12-23T19:42:37Z</time>
      </trkpt>
      <trkpt lat="45.83607" lon="4.82344">
        <ele>219</ele>
        <time>2011-12-23T19:42:42Z</time>
      </trkpt>
      <trkpt lat="45.83607" lon="4.82354">
        <ele>218</ele>
        <time>2011-12-23T19:42:45Z</time>
      </trkpt>
      <trkpt lat="45.83608" lon="4.82364">
        <ele>218</ele>
        <time>2011-12-23T19:42:48Z</time>
      </trkpt>
      <trkpt lat="45.83605" lon="4.8238">
        <ele>218</ele>
        <time>2011-12-23T19:42:53Z</time>
      </trkpt>
      <trkpt lat="45.83605" lon="4.82382">
        <ele>218</ele>
        <time>2011-12-23T19:42:54Z</time>
      </trkpt>
      <trkpt lat="45.83601" lon="4.82401">
        <ele>220</ele>
        <time>2011-12-23T19:43:01Z</time>
      </trkpt>
      <trkpt lat="45.836" lon="4.82404">
        <ele>220</ele>
        <time>2011-12-23T19:43:02Z</time>
      </trkpt>
      <trkpt lat="45.83591" lon="4.82422">
        <ele>222</ele>
        <time>2011-12-23T19:43:09Z</time>
      </trkpt>
      <trkpt lat="45.83588" lon="4.82427">
        <ele>222</ele>
        <time>2011-12-23T19:43:11Z</time>
      </trkpt>
      <trkpt lat="45.83584" lon="4.82434">
        <ele>221</ele>
        <time>2011-12-23T19:43:14Z</time>
      </trkpt>
      <trkpt lat="45.83577" lon="4.82448">
        <ele>230</ele>
        <time>2011-12-23T19:43:20Z</time>
      </trkpt>
      <trkpt lat="45.8357" lon="4.82465">
        <ele>230</ele>
        <time>2011-12-23T19:43:26Z</time>
      </trkpt>
      <trkpt lat="45.83567" lon="4.82472">
        <ele>230</ele>
        <time>2011-12-23T19:43:29Z</time>
      </trkpt>
      <trkpt lat="45.83564" lon="4.82481">
        <ele>230</ele>
        <time>2011-12-23T19:43:32Z</time>
      </trkpt>
      <trkpt lat="45.83561" lon="4.82495">
        <ele>229</ele>
        <time>2011-12-23T19:43:37Z</time>
      </trkpt>
      <trkpt lat="45.8356" lon="4.82498">
        <ele>229</ele>
        <time>2011-12-23T19:43:38Z</time>
      </trkpt>
      <trkpt lat="45.83558" lon="4.82502">
        <ele>230</ele>
        <time>2011-12-23T19:43:40Z</time>
      </trkpt>
      <trkpt lat="45.83556" lon="4.82502">
        <ele>230</ele>
        <time>2011-12-23T19:43:41Z</time>
      </trkpt>
      <trkpt lat="45.83552" lon="4.82497">
        <ele>231</ele>
        <time>2011-12-23T19:43:44Z</time>
      </trkpt>
      <trkpt lat="45.8355" lon="4.82489">
        <ele>231</ele>
        <time>2011-12-23T19:43:47Z</time>
      </trkpt>
      <trkpt lat="45.83549" lon="4.82483">
        <ele>231</ele>
        <time>2011-12-23T19:43:49Z</time>
      </trkpt>
      <trkpt lat="45.83546" lon="4.82465">
        <ele>232</ele>
        <time>2011-12-23T19:43:55Z</time>
      </trkpt>
      <trkpt lat="45.83546" lon="4.82462">
        <ele>232</ele>
        <time>2011-12-23T19:43:56Z</time>
      </trkpt>
      <trkpt lat="45.83544" lon="4.82451">
        <ele>232</ele>
        <time>2011-12-23T19:44:00Z</time>
      </trkpt>
      <trkpt lat="45.83542" lon="4.82434">
        <ele>233</ele>
        <time>2011-12-23T19:44:06Z</time>
      </trkpt>
      <trkpt lat="45.8354" lon="4.8242">
        <ele>233</ele>
        <time>2011-12-23T19:44:11Z</time>
      </trkpt>
      <trkpt lat="45.83538" lon="4.82408">
        <ele>234</ele>
        <time>2011-12-23T19:44:15Z</time>
      </trkpt>
      <trkpt lat="45.83537" lon="4.82403">
        <ele>234</ele>
        <time>2011-12-23T19:44:17Z</time>
      </trkpt>
      <trkpt lat="45.83534" lon="4.82383">
        <ele>234</ele>
        <time>2011-12-23T19:44:24Z</time>
      </trkpt>
      <trkpt lat="45.8353" lon="4.82368">
        <ele>234</ele>
        <time>2011-12-23T19:44:30Z</time>
      </trkpt>
      <trkpt lat="45.83528" lon="4.82367">
        <ele>235</ele>
        <time>2011-12-23T19:44:31Z</time>
      </trkpt>
    </trkseg>
  </trk>
</gpx>